<?xml version="1.0" encoding="UTF-8" standalone="no" ?>
<gpx xmlns="http://www.topografix.com/GPX/1/1" xmlns:xsi="http://www.w3.org/2001/XMLSchema-instance" xsi:schemaLocation="http://www.topografix.com/GPX/1/1 http://www.topografix.com/GPX/1/1/gpx.xsd" version="1.1" creator="VisuGPX - https://www.visugpx.com">
  <metadata>
    <name>2026 0826 La Bresse Pre-Mougel fr 1259696</name>
    <desc><![CDATA[Parcours granges Rando guide Michel Durlet. Moi pas fait mais Dominique oui.]]></desc>
  </metadata>
  <trk>
    <name><![CDATA[FFRandonnée-2026_Août_26_La_Bresse_Pré_Mougel.gpx]]></name>
    <extensions>
      <line xmlns="http://www.topografix.com/GPX/gpx_style/0/2">
        <color>0000FF</color>
        <opacity>1</opacity>
        <width>4</width>
      </line>
    </extensions>
    <trkseg>
      <trkpt lat="48.0073" lon="6.86088">
        <ele>893.84</ele>
        <time>2026-08-26T12:05:41.470Z</time>
      </trkpt>
      <trkpt lat="48.00726" lon="6.86091">
        <ele>892.21</ele>
        <time>2026-08-26T12:06:08.471Z</time>
      </trkpt>
      <trkpt lat="48.00725" lon="6.86084">
        <ele>890.88</ele>
        <time>2026-08-26T12:07:02.464Z</time>
      </trkpt>
      <trkpt lat="48.00725" lon="6.86077">
        <ele>892.68</ele>
        <time>2026-08-26T12:07:08.463Z</time>
      </trkpt>
      <trkpt lat="48.00724" lon="6.86069">
        <ele>891.47</ele>
        <time>2026-08-26T12:07:13.441Z</time>
      </trkpt>
      <trkpt lat="48.00723" lon="6.86062">
        <ele>891.8</ele>
        <time>2026-08-26T12:07:20.438Z</time>
      </trkpt>
      <trkpt lat="48.00722" lon="6.86055">
        <ele>891.97</ele>
        <time>2026-08-26T12:07:25.445Z</time>
      </trkpt>
      <trkpt lat="48.0072" lon="6.86048">
        <ele>890.79</ele>
        <time>2026-08-26T12:07:30.434Z</time>
      </trkpt>
      <trkpt lat="48.00718" lon="6.86042">
        <ele>890.96</ele>
        <time>2026-08-26T12:07:35.439Z</time>
      </trkpt>
      <trkpt lat="48.00713" lon="6.86037">
        <ele>889.6</ele>
        <time>2026-08-26T12:07:40.453Z</time>
      </trkpt>
      <trkpt lat="48.00709" lon="6.86033">
        <ele>888.27</ele>
        <time>2026-08-26T12:07:45.460Z</time>
      </trkpt>
      <trkpt lat="48.00706" lon="6.86028">
        <ele>886.96</ele>
        <time>2026-08-26T12:07:50.450Z</time>
      </trkpt>
      <trkpt lat="48.00705" lon="6.86021">
        <ele>887.5</ele>
        <time>2026-08-26T12:07:56.493Z</time>
      </trkpt>
      <trkpt lat="48.00704" lon="6.86014">
        <ele>888.03</ele>
        <time>2026-08-26T12:08:01.440Z</time>
      </trkpt>
      <trkpt lat="48.00703" lon="6.86006">
        <ele>886.68</ele>
        <time>2026-08-26T12:08:07.440Z</time>
      </trkpt>
      <trkpt lat="48.00702" lon="6.86">
        <ele>887.23</ele>
        <time>2026-08-26T12:08:13.430Z</time>
      </trkpt>
      <trkpt lat="48.00701" lon="6.85992">
        <ele>887.84</ele>
        <time>2026-08-26T12:08:20.461Z</time>
      </trkpt>
      <trkpt lat="48.00702" lon="6.85986">
        <ele>888.16</ele>
        <time>2026-08-26T12:08:29.461Z</time>
      </trkpt>
      <trkpt lat="48.00703" lon="6.85979">
        <ele>888.78</ele>
        <time>2026-08-26T12:08:37.445Z</time>
      </trkpt>
      <trkpt lat="48.00704" lon="6.85971">
        <ele>891</ele>
        <time>2026-08-26T12:08:43.463Z</time>
      </trkpt>
      <trkpt lat="48.00704" lon="6.85964">
        <ele>891.33</ele>
        <time>2026-08-26T12:08:48.452Z</time>
      </trkpt>
      <trkpt lat="48.00704" lon="6.85956">
        <ele>892.04</ele>
        <time>2026-08-26T12:08:53.441Z</time>
      </trkpt>
      <trkpt lat="48.00704" lon="6.85949">
        <ele>892.75</ele>
        <time>2026-08-26T12:08:58.431Z</time>
      </trkpt>
      <trkpt lat="48.00704" lon="6.85942">
        <ele>893.11</ele>
        <time>2026-08-26T12:09:03.457Z</time>
      </trkpt>
      <trkpt lat="48.00704" lon="6.85934">
        <ele>893.81</ele>
        <time>2026-08-26T12:09:09.439Z</time>
      </trkpt>
      <trkpt lat="48.00704" lon="6.85926">
        <ele>894.55</ele>
        <time>2026-08-26T12:09:15.458Z</time>
      </trkpt>
      <trkpt lat="48.00704" lon="6.85919">
        <ele>895.28</ele>
        <time>2026-08-26T12:09:20.469Z</time>
      </trkpt>
      <trkpt lat="48.00705" lon="6.85911">
        <ele>896.01</ele>
        <time>2026-08-26T12:09:29.437Z</time>
      </trkpt>
      <trkpt lat="48.00706" lon="6.85904">
        <ele>896.38</ele>
        <time>2026-08-26T12:09:35.445Z</time>
      </trkpt>
      <trkpt lat="48.00705" lon="6.85897">
        <ele>897.14</ele>
        <time>2026-08-26T12:09:42.438Z</time>
      </trkpt>
      <trkpt lat="48.00704" lon="6.8589">
        <ele>897.92</ele>
        <time>2026-08-26T12:09:47.439Z</time>
      </trkpt>
      <trkpt lat="48.00703" lon="6.85882">
        <ele>896.63</ele>
        <time>2026-08-26T12:09:52.438Z</time>
      </trkpt>
      <trkpt lat="48.00702" lon="6.85874">
        <ele>897.44</ele>
        <time>2026-08-26T12:09:57.441Z</time>
      </trkpt>
      <trkpt lat="48.007" lon="6.85868">
        <ele>898.24</ele>
        <time>2026-08-26T12:10:02.444Z</time>
      </trkpt>
      <trkpt lat="48.00699" lon="6.8586">
        <ele>897.73</ele>
        <time>2026-08-26T12:10:10.435Z</time>
      </trkpt>
      <trkpt lat="48.00698" lon="6.85851">
        <ele>898.72</ele>
        <time>2026-08-26T12:10:17.444Z</time>
      </trkpt>
      <trkpt lat="48.00698" lon="6.85843">
        <ele>899.19</ele>
        <time>2026-08-26T12:10:21.446Z</time>
      </trkpt>
      <trkpt lat="48.00696" lon="6.85837">
        <ele>900.09</ele>
        <time>2026-08-26T12:10:26.466Z</time>
      </trkpt>
      <trkpt lat="48.00694" lon="6.8583">
        <ele>899.15</ele>
        <time>2026-08-26T12:10:31.467Z</time>
      </trkpt>
      <trkpt lat="48.00693" lon="6.85823">
        <ele>900.11</ele>
        <time>2026-08-26T12:10:35.454Z</time>
      </trkpt>
      <trkpt lat="48.00692" lon="6.85816">
        <ele>901.11</ele>
        <time>2026-08-26T12:10:39.465Z</time>
      </trkpt>
      <trkpt lat="48.00691" lon="6.85809">
        <ele>900.23</ele>
        <time>2026-08-26T12:10:44.435Z</time>
      </trkpt>
      <trkpt lat="48.0069" lon="6.85802">
        <ele>901.23</ele>
        <time>2026-08-26T12:10:48.461Z</time>
      </trkpt>
      <trkpt lat="48.00689" lon="6.85795">
        <ele>901.93</ele>
        <time>2026-08-26T12:10:56.462Z</time>
      </trkpt>
      <trkpt lat="48.00687" lon="6.85787">
        <ele>902.38</ele>
        <time>2026-08-26T12:11:02.441Z</time>
      </trkpt>
      <trkpt lat="48.00686" lon="6.85781">
        <ele>901.24</ele>
        <time>2026-08-26T12:11:07.437Z</time>
      </trkpt>
      <trkpt lat="48.00687" lon="6.85773">
        <ele>903.15</ele>
        <time>2026-08-26T12:11:12.456Z</time>
      </trkpt>
      <trkpt lat="48.00686" lon="6.85765">
        <ele>902.23</ele>
        <time>2026-08-26T12:11:17.451Z</time>
      </trkpt>
      <trkpt lat="48.00686" lon="6.85758">
        <ele>902.48</ele>
        <time>2026-08-26T12:11:20.454Z</time>
      </trkpt>
      <trkpt lat="48.00688" lon="6.85752">
        <ele>904.4</ele>
        <time>2026-08-26T12:13:08.470Z</time>
      </trkpt>
      <trkpt lat="48.00692" lon="6.85747">
        <ele>906.09</ele>
        <time>2026-08-26T12:13:25.461Z</time>
      </trkpt>
      <trkpt lat="48.00697" lon="6.85742">
        <ele>907.73</ele>
        <time>2026-08-26T12:13:30.454Z</time>
      </trkpt>
      <trkpt lat="48.00701" lon="6.85738">
        <ele>909.33</ele>
        <time>2026-08-26T12:13:40.458Z</time>
      </trkpt>
      <trkpt lat="48.00703" lon="6.85731">
        <ele>909.74</ele>
        <time>2026-08-26T12:13:50.461Z</time>
      </trkpt>
      <trkpt lat="48.00707" lon="6.85728">
        <ele>911.16</ele>
        <time>2026-08-26T12:13:56.465Z</time>
      </trkpt>
      <trkpt lat="48.00712" lon="6.85726">
        <ele>912.82</ele>
        <time>2026-08-26T12:14:00.459Z</time>
      </trkpt>
      <trkpt lat="48.00717" lon="6.85724">
        <ele>915.65</ele>
        <time>2026-08-26T12:14:05.439Z</time>
      </trkpt>
      <trkpt lat="48.00719" lon="6.85717">
        <ele>916.08</ele>
        <time>2026-08-26T12:14:23.464Z</time>
      </trkpt>
      <trkpt lat="48.00721" lon="6.8571">
        <ele>916.3</ele>
        <time>2026-08-26T12:14:30.453Z</time>
      </trkpt>
      <trkpt lat="48.00722" lon="6.85704">
        <ele>918.14</ele>
        <time>2026-08-26T12:14:37.438Z</time>
      </trkpt>
      <trkpt lat="48.00724" lon="6.85697">
        <ele>918.56</ele>
        <time>2026-08-26T12:14:46.430Z</time>
      </trkpt>
      <trkpt lat="48.00726" lon="6.85691">
        <ele>920.28</ele>
        <time>2026-08-26T12:14:52.455Z</time>
      </trkpt>
      <trkpt lat="48.00728" lon="6.85684">
        <ele>920.49</ele>
        <time>2026-08-26T12:14:59.470Z</time>
      </trkpt>
      <trkpt lat="48.00728" lon="6.85677">
        <ele>920.91</ele>
        <time>2026-08-26T12:15:07.453Z</time>
      </trkpt>
      <trkpt lat="48.00729" lon="6.8567">
        <ele>921.33</ele>
        <time>2026-08-26T12:15:14.540Z</time>
      </trkpt>
      <trkpt lat="48.00729" lon="6.85663">
        <ele>921.59</ele>
        <time>2026-08-26T12:15:19.453Z</time>
      </trkpt>
      <trkpt lat="48.00729" lon="6.85655">
        <ele>923.23</ele>
        <time>2026-08-26T12:15:25.454Z</time>
      </trkpt>
      <trkpt lat="48.00731" lon="6.85648">
        <ele>923.4</ele>
        <time>2026-08-26T12:15:31.443Z</time>
      </trkpt>
      <trkpt lat="48.00731" lon="6.85634">
        <ele>923.67</ele>
        <time>2026-08-26T12:15:45.453Z</time>
      </trkpt>
      <trkpt lat="48.00733" lon="6.85627">
        <ele>923.65</ele>
        <time>2026-08-26T12:15:51.428Z</time>
      </trkpt>
      <trkpt lat="48.00734" lon="6.8562">
        <ele>925</ele>
        <time>2026-08-26T12:16:04.432Z</time>
      </trkpt>
      <trkpt lat="48.00734" lon="6.85613">
        <ele>924.91</ele>
        <time>2026-08-26T12:16:08.442Z</time>
      </trkpt>
      <trkpt lat="48.00734" lon="6.85604">
        <ele>924.82</ele>
        <time>2026-08-26T12:16:12.437Z</time>
      </trkpt>
      <trkpt lat="48.00733" lon="6.85595">
        <ele>923.38</ele>
        <time>2026-08-26T12:16:15.437Z</time>
      </trkpt>
      <trkpt lat="48.00731" lon="6.85587">
        <ele>923.16</ele>
        <time>2026-08-26T12:16:19.438Z</time>
      </trkpt>
      <trkpt lat="48.0073" lon="6.8558">
        <ele>922.94</ele>
        <time>2026-08-26T12:16:22.434Z</time>
      </trkpt>
      <trkpt lat="48.0073" lon="6.85573">
        <ele>922.73</ele>
        <time>2026-08-26T12:16:27.449Z</time>
      </trkpt>
      <trkpt lat="48.0073" lon="6.85566">
        <ele>922.66</ele>
        <time>2026-08-26T12:16:34.464Z</time>
      </trkpt>
      <trkpt lat="48.00732" lon="6.85559">
        <ele>922.73</ele>
        <time>2026-08-26T12:16:42.453Z</time>
      </trkpt>
      <trkpt lat="48.00732" lon="6.85552">
        <ele>922.77</ele>
        <time>2026-08-26T12:16:51.444Z</time>
      </trkpt>
      <trkpt lat="48.00734" lon="6.85546">
        <ele>923.94</ele>
        <time>2026-08-26T12:16:57.437Z</time>
      </trkpt>
      <trkpt lat="48.00737" lon="6.85541">
        <ele>923.97</ele>
        <time>2026-08-26T12:17:01.442Z</time>
      </trkpt>
      <trkpt lat="48.0074" lon="6.85534">
        <ele>925.19</ele>
        <time>2026-08-26T12:17:09.432Z</time>
      </trkpt>
      <trkpt lat="48.00738" lon="6.85528">
        <ele>924.52</ele>
        <time>2026-08-26T12:17:18.442Z</time>
      </trkpt>
      <trkpt lat="48.00733" lon="6.85523">
        <ele>923.91</ele>
        <time>2026-08-26T12:17:24.434Z</time>
      </trkpt>
      <trkpt lat="48.00729" lon="6.85519">
        <ele>924.31</ele>
        <time>2026-08-26T12:17:28.453Z</time>
      </trkpt>
      <trkpt lat="48.00726" lon="6.85514">
        <ele>923.76</ele>
        <time>2026-08-26T12:17:32.455Z</time>
      </trkpt>
      <trkpt lat="48.00722" lon="6.8551">
        <ele>923.26</ele>
        <time>2026-08-26T12:17:36.441Z</time>
      </trkpt>
      <trkpt lat="48.00719" lon="6.85505">
        <ele>922.84</ele>
        <time>2026-08-26T12:17:43.480Z</time>
      </trkpt>
      <trkpt lat="48.00715" lon="6.85499">
        <ele>923.1</ele>
        <time>2026-08-26T12:17:47.462Z</time>
      </trkpt>
      <trkpt lat="48.00711" lon="6.85495">
        <ele>923.05</ele>
        <time>2026-08-26T12:17:53.446Z</time>
      </trkpt>
      <trkpt lat="48.00707" lon="6.85491">
        <ele>923.02</ele>
        <time>2026-08-26T12:17:59.439Z</time>
      </trkpt>
      <trkpt lat="48.00703" lon="6.85486">
        <ele>922.96</ele>
        <time>2026-08-26T12:18:04.440Z</time>
      </trkpt>
      <trkpt lat="48.00699" lon="6.85481">
        <ele>922.9</ele>
        <time>2026-08-26T12:18:09.449Z</time>
      </trkpt>
      <trkpt lat="48.00695" lon="6.85474">
        <ele>923.76</ele>
        <time>2026-08-26T12:18:14.452Z</time>
      </trkpt>
      <trkpt lat="48.00692" lon="6.8547">
        <ele>924.59</ele>
        <time>2026-08-26T12:18:19.438Z</time>
      </trkpt>
      <trkpt lat="48.00688" lon="6.85465">
        <ele>924.55</ele>
        <time>2026-08-26T12:18:24.453Z</time>
      </trkpt>
      <trkpt lat="48.00685" lon="6.85459">
        <ele>924.47</ele>
        <time>2026-08-26T12:18:37.443Z</time>
      </trkpt>
      <trkpt lat="48.00684" lon="6.8546">
        <ele>924.47</ele>
        <time>2026-08-26T12:18:59.444Z</time>
      </trkpt>
      <trkpt lat="48.00678" lon="6.85455">
        <ele>924.31</ele>
        <time>2026-08-26T12:21:42.429Z</time>
      </trkpt>
      <trkpt lat="48.00674" lon="6.85451">
        <ele>924.12</ele>
        <time>2026-08-26T12:21:47.431Z</time>
      </trkpt>
      <trkpt lat="48.00671" lon="6.85446">
        <ele>923.92</ele>
        <time>2026-08-26T12:21:59.450Z</time>
      </trkpt>
      <trkpt lat="48.00667" lon="6.85441">
        <ele>923.69</ele>
        <time>2026-08-26T12:22:03.434Z</time>
      </trkpt>
      <trkpt lat="48.00663" lon="6.85435">
        <ele>923.43</ele>
        <time>2026-08-26T12:22:07.450Z</time>
      </trkpt>
      <trkpt lat="48.00656" lon="6.85426">
        <ele>924.65</ele>
        <time>2026-08-26T12:22:19.462Z</time>
      </trkpt>
      <trkpt lat="48.00653" lon="6.8542">
        <ele>924.24</ele>
        <time>2026-08-26T12:22:24.437Z</time>
      </trkpt>
      <trkpt lat="48.00651" lon="6.85412">
        <ele>924.53</ele>
        <time>2026-08-26T12:22:29.449Z</time>
      </trkpt>
      <trkpt lat="48.0065" lon="6.85405">
        <ele>925.95</ele>
        <time>2026-08-26T12:22:34.438Z</time>
      </trkpt>
      <trkpt lat="48.00647" lon="6.85399">
        <ele>925.53</ele>
        <time>2026-08-26T12:22:38.468Z</time>
      </trkpt>
      <trkpt lat="48.00645" lon="6.85393">
        <ele>926.23</ele>
        <time>2026-08-26T12:22:50.458Z</time>
      </trkpt>
      <trkpt lat="48.00643" lon="6.85386">
        <ele>926.35</ele>
        <time>2026-08-26T12:22:56.457Z</time>
      </trkpt>
      <trkpt lat="48.00642" lon="6.85378">
        <ele>927.55</ele>
        <time>2026-08-26T12:23:01.444Z</time>
      </trkpt>
      <trkpt lat="48.00642" lon="6.85371">
        <ele>928.74</ele>
        <time>2026-08-26T12:23:06.444Z</time>
      </trkpt>
      <trkpt lat="48.00641" lon="6.85357">
        <ele>930.41</ele>
        <time>2026-08-26T12:23:16.457Z</time>
      </trkpt>
      <trkpt lat="48.0064" lon="6.85349">
        <ele>931.22</ele>
        <time>2026-08-26T12:23:25.438Z</time>
      </trkpt>
      <trkpt lat="48.0064" lon="6.85343">
        <ele>931.63</ele>
        <time>2026-08-26T12:23:32.437Z</time>
      </trkpt>
      <trkpt lat="48.00638" lon="6.85335">
        <ele>931.2</ele>
        <time>2026-08-26T12:23:37.449Z</time>
      </trkpt>
      <trkpt lat="48.00636" lon="6.85327">
        <ele>931.96</ele>
        <time>2026-08-26T12:23:42.441Z</time>
      </trkpt>
      <trkpt lat="48.00635" lon="6.85319">
        <ele>932.26</ele>
        <time>2026-08-26T12:23:46.440Z</time>
      </trkpt>
      <trkpt lat="48.00634" lon="6.85311">
        <ele>931.12</ele>
        <time>2026-08-26T12:23:51.433Z</time>
      </trkpt>
      <trkpt lat="48.00635" lon="6.85305">
        <ele>931.3</ele>
        <time>2026-08-26T12:23:56.450Z</time>
      </trkpt>
      <trkpt lat="48.00635" lon="6.85297">
        <ele>932.74</ele>
        <time>2026-08-26T12:24:03.444Z</time>
      </trkpt>
      <trkpt lat="48.00637" lon="6.8529">
        <ele>932.8</ele>
        <time>2026-08-26T12:24:09.441Z</time>
      </trkpt>
      <trkpt lat="48.00638" lon="6.85283">
        <ele>932.59</ele>
        <time>2026-08-26T12:24:13.450Z</time>
      </trkpt>
      <trkpt lat="48.0064" lon="6.85277">
        <ele>933.66</ele>
        <time>2026-08-26T12:24:18.453Z</time>
      </trkpt>
      <trkpt lat="48.00642" lon="6.85271">
        <ele>933.39</ele>
        <time>2026-08-26T12:24:24.516Z</time>
      </trkpt>
      <trkpt lat="48.00645" lon="6.85264">
        <ele>934.41</ele>
        <time>2026-08-26T12:24:30.466Z</time>
      </trkpt>
      <trkpt lat="48.00648" lon="6.85257">
        <ele>934.07</ele>
        <time>2026-08-26T12:24:35.460Z</time>
      </trkpt>
      <trkpt lat="48.00651" lon="6.85252">
        <ele>934.95</ele>
        <time>2026-08-26T12:24:39.446Z</time>
      </trkpt>
      <trkpt lat="48.00654" lon="6.85247">
        <ele>935.83</ele>
        <time>2026-08-26T12:24:43.469Z</time>
      </trkpt>
      <trkpt lat="48.00657" lon="6.85241">
        <ele>936.45</ele>
        <time>2026-08-26T12:24:47.428Z</time>
      </trkpt>
      <trkpt lat="48.00661" lon="6.85237">
        <ele>937.36</ele>
        <time>2026-08-26T12:24:52.426Z</time>
      </trkpt>
      <trkpt lat="48.00665" lon="6.85233">
        <ele>938.26</ele>
        <time>2026-08-26T12:24:57.440Z</time>
      </trkpt>
      <trkpt lat="48.00669" lon="6.85229">
        <ele>937.98</ele>
        <time>2026-08-26T12:25:01.444Z</time>
      </trkpt>
      <trkpt lat="48.00673" lon="6.85225">
        <ele>938.82</ele>
        <time>2026-08-26T12:25:06.432Z</time>
      </trkpt>
      <trkpt lat="48.00677" lon="6.85221">
        <ele>940.07</ele>
        <time>2026-08-26T12:25:16.445Z</time>
      </trkpt>
      <trkpt lat="48.00679" lon="6.85215">
        <ele>940.53</ele>
        <time>2026-08-26T12:25:22.463Z</time>
      </trkpt>
      <trkpt lat="48.00683" lon="6.8521">
        <ele>941.38</ele>
        <time>2026-08-26T12:25:29.455Z</time>
      </trkpt>
      <trkpt lat="48.00687" lon="6.85205">
        <ele>942.23</ele>
        <time>2026-08-26T12:25:34.434Z</time>
      </trkpt>
      <trkpt lat="48.00691" lon="6.85201">
        <ele>943.08</ele>
        <time>2026-08-26T12:25:39.442Z</time>
      </trkpt>
      <trkpt lat="48.00696" lon="6.85197">
        <ele>943.93</ele>
        <time>2026-08-26T12:25:44.446Z</time>
      </trkpt>
      <trkpt lat="48.00697" lon="6.8519">
        <ele>943.39</ele>
        <time>2026-08-26T12:25:49.441Z</time>
      </trkpt>
      <trkpt lat="48.00697" lon="6.85184">
        <ele>943.18</ele>
        <time>2026-08-26T12:25:54.455Z</time>
      </trkpt>
      <trkpt lat="48.007" lon="6.85174">
        <ele>944.01</ele>
        <time>2026-08-26T12:25:57.458Z</time>
      </trkpt>
      <trkpt lat="48.00701" lon="6.85166">
        <ele>943.57</ele>
        <time>2026-08-26T12:26:12.450Z</time>
      </trkpt>
      <trkpt lat="48.007" lon="6.85159">
        <ele>943.16</ele>
        <time>2026-08-26T12:26:15.460Z</time>
      </trkpt>
      <trkpt lat="48.007" lon="6.8515">
        <ele>942.78</ele>
        <time>2026-08-26T12:26:18.442Z</time>
      </trkpt>
      <trkpt lat="48.007" lon="6.85143">
        <ele>942.41</ele>
        <time>2026-08-26T12:26:24.433Z</time>
      </trkpt>
      <trkpt lat="48.007" lon="6.85135">
        <ele>942.23</ele>
        <time>2026-08-26T12:26:29.452Z</time>
      </trkpt>
      <trkpt lat="48.007" lon="6.85128">
        <ele>941.85</ele>
        <time>2026-08-26T12:26:34.437Z</time>
      </trkpt>
      <trkpt lat="48.00701" lon="6.85121">
        <ele>941.22</ele>
        <time>2026-08-26T12:26:39.438Z</time>
      </trkpt>
      <trkpt lat="48.00708" lon="6.85111">
        <ele>941.55</ele>
        <time>2026-08-26T12:29:35.489Z</time>
      </trkpt>
      <trkpt lat="48.00712" lon="6.85108">
        <ele>942.16</ele>
        <time>2026-08-26T12:29:42.459Z</time>
      </trkpt>
      <trkpt lat="48.00717" lon="6.85106">
        <ele>944.05</ele>
        <time>2026-08-26T12:29:46.448Z</time>
      </trkpt>
      <trkpt lat="48.00721" lon="6.85103">
        <ele>944.2</ele>
        <time>2026-08-26T12:29:55.443Z</time>
      </trkpt>
      <trkpt lat="48.00726" lon="6.851">
        <ele>944.03</ele>
        <time>2026-08-26T12:30:01.437Z</time>
      </trkpt>
      <trkpt lat="48.0073" lon="6.85096">
        <ele>943.42</ele>
        <time>2026-08-26T12:30:05.485Z</time>
      </trkpt>
      <trkpt lat="48.00733" lon="6.85091">
        <ele>942.28</ele>
        <time>2026-08-26T12:30:09.415Z</time>
      </trkpt>
      <trkpt lat="48.00737" lon="6.85086">
        <ele>941.3</ele>
        <time>2026-08-26T12:30:14.442Z</time>
      </trkpt>
      <trkpt lat="48.00742" lon="6.85083">
        <ele>940.45</ele>
        <time>2026-08-26T12:30:19.436Z</time>
      </trkpt>
      <trkpt lat="48.00747" lon="6.85082">
        <ele>940.63</ele>
        <time>2026-08-26T12:30:28.466Z</time>
      </trkpt>
      <trkpt lat="48.00752" lon="6.85082">
        <ele>940.81</ele>
        <time>2026-08-26T12:30:35.440Z</time>
      </trkpt>
      <trkpt lat="48.00756" lon="6.85083">
        <ele>940.99</ele>
        <time>2026-08-26T12:30:41.459Z</time>
      </trkpt>
      <trkpt lat="48.00762" lon="6.85084">
        <ele>942.4</ele>
        <time>2026-08-26T12:30:46.440Z</time>
      </trkpt>
      <trkpt lat="48.00767" lon="6.85086">
        <ele>942.63</ele>
        <time>2026-08-26T12:30:51.459Z</time>
      </trkpt>
      <trkpt lat="48.00771" lon="6.85086">
        <ele>943</ele>
        <time>2026-08-26T12:30:56.440Z</time>
      </trkpt>
      <trkpt lat="48.00776" lon="6.85086">
        <ele>943.4</ele>
        <time>2026-08-26T12:31:01.442Z</time>
      </trkpt>
      <trkpt lat="48.00781" lon="6.85086">
        <ele>944.19</ele>
        <time>2026-08-26T12:31:09.453Z</time>
      </trkpt>
      <trkpt lat="48.00786" lon="6.85086">
        <ele>944.6</ele>
        <time>2026-08-26T12:31:17.424Z</time>
      </trkpt>
      <trkpt lat="48.00791" lon="6.85083">
        <ele>943.73</ele>
        <time>2026-08-26T12:31:22.443Z</time>
      </trkpt>
      <trkpt lat="48.00796" lon="6.85082">
        <ele>944.32</ele>
        <time>2026-08-26T12:31:26.438Z</time>
      </trkpt>
      <trkpt lat="48.008" lon="6.85081">
        <ele>944.91</ele>
        <time>2026-08-26T12:31:31.441Z</time>
      </trkpt>
      <trkpt lat="48.00805" lon="6.8508">
        <ele>945.49</ele>
        <time>2026-08-26T12:31:37.465Z</time>
      </trkpt>
      <trkpt lat="48.00811" lon="6.85078">
        <ele>944.46</ele>
        <time>2026-08-26T12:31:42.441Z</time>
      </trkpt>
      <trkpt lat="48.00816" lon="6.85078">
        <ele>945.69</ele>
        <time>2026-08-26T12:31:47.439Z</time>
      </trkpt>
      <trkpt lat="48.00821" lon="6.85079">
        <ele>946.34</ele>
        <time>2026-08-26T12:31:51.453Z</time>
      </trkpt>
      <trkpt lat="48.00826" lon="6.85077">
        <ele>946.97</ele>
        <time>2026-08-26T12:31:59.458Z</time>
      </trkpt>
      <trkpt lat="48.0083" lon="6.85073">
        <ele>945.79</ele>
        <time>2026-08-26T12:32:06.431Z</time>
      </trkpt>
      <trkpt lat="48.00834" lon="6.85068">
        <ele>944.77</ele>
        <time>2026-08-26T12:32:11.434Z</time>
      </trkpt>
      <trkpt lat="48.00837" lon="6.85062">
        <ele>942.68</ele>
        <time>2026-08-26T12:32:16.441Z</time>
      </trkpt>
      <trkpt lat="48.00842" lon="6.85057">
        <ele>941.98</ele>
        <time>2026-08-26T12:32:22.439Z</time>
      </trkpt>
      <trkpt lat="48.00846" lon="6.85053">
        <ele>941.27</ele>
        <time>2026-08-26T12:32:28.438Z</time>
      </trkpt>
      <trkpt lat="48.00851" lon="6.8505">
        <ele>941.97</ele>
        <time>2026-08-26T12:32:31.434Z</time>
      </trkpt>
      <trkpt lat="48.00855" lon="6.85048">
        <ele>941.21</ele>
        <time>2026-08-26T12:32:35.458Z</time>
      </trkpt>
      <trkpt lat="48.00861" lon="6.85048">
        <ele>941.95</ele>
        <time>2026-08-26T12:32:41.448Z</time>
      </trkpt>
      <trkpt lat="48.00865" lon="6.85049">
        <ele>944.16</ele>
        <time>2026-08-26T12:32:46.452Z</time>
      </trkpt>
      <trkpt lat="48.0087" lon="6.8505">
        <ele>944.92</ele>
        <time>2026-08-26T12:32:52.438Z</time>
      </trkpt>
      <trkpt lat="48.00875" lon="6.8505">
        <ele>946.43</ele>
        <time>2026-08-26T12:32:58.441Z</time>
      </trkpt>
      <trkpt lat="48.0088" lon="6.8505">
        <ele>947.12</ele>
        <time>2026-08-26T12:33:04.517Z</time>
      </trkpt>
      <trkpt lat="48.00884" lon="6.85052">
        <ele>947.75</ele>
        <time>2026-08-26T12:33:08.451Z</time>
      </trkpt>
      <trkpt lat="48.00889" lon="6.85054">
        <ele>949.7</ele>
        <time>2026-08-26T12:33:18.448Z</time>
      </trkpt>
      <trkpt lat="48.00893" lon="6.85059">
        <ele>951.55</ele>
        <time>2026-08-26T12:33:27.462Z</time>
      </trkpt>
      <trkpt lat="48.00897" lon="6.85062">
        <ele>953.31</ele>
      </trkpt>
      <trkpt lat="48.00902" lon="6.85065">
        <ele>953.8</ele>
      </trkpt>
      <trkpt lat="48.00907" lon="6.85067">
        <ele>955.38</ele>
      </trkpt>
      <trkpt lat="48.00913" lon="6.85067">
        <ele>955.79</ele>
      </trkpt>
      <trkpt lat="48.00917" lon="6.85068">
        <ele>956.22</ele>
      </trkpt>
      <trkpt lat="48.0092" lon="6.85061">
        <ele>954.67</ele>
        <time>2026-08-26T12:34:12.453Z</time>
      </trkpt>
      <trkpt lat="48.00924" lon="6.85056">
        <ele>954.27</ele>
        <time>2026-08-26T12:34:17.443Z</time>
      </trkpt>
      <trkpt lat="48.00929" lon="6.85054">
        <ele>954.91</ele>
        <time>2026-08-26T12:34:21.453Z</time>
      </trkpt>
      <trkpt lat="48.00934" lon="6.85053">
        <ele>954.59</ele>
        <time>2026-08-26T12:34:26.436Z</time>
      </trkpt>
      <trkpt lat="48.00938" lon="6.85054">
        <ele>956.2</ele>
        <time>2026-08-26T12:34:31.446Z</time>
      </trkpt>
      <trkpt lat="48.00943" lon="6.85054">
        <ele>956.85</ele>
        <time>2026-08-26T12:34:37.449Z</time>
      </trkpt>
      <trkpt lat="48.00948" lon="6.85054">
        <ele>957.5</ele>
        <time>2026-08-26T12:34:44.445Z</time>
      </trkpt>
      <trkpt lat="48.00952" lon="6.85052">
        <ele>957.18</ele>
        <time>2026-08-26T12:34:49.455Z</time>
      </trkpt>
      <trkpt lat="48.00957" lon="6.85049">
        <ele>956.92</ele>
        <time>2026-08-26T12:34:56.457Z</time>
      </trkpt>
      <trkpt lat="48.00961" lon="6.85045">
        <ele>957.6</ele>
        <time>2026-08-26T12:34:59.449Z</time>
      </trkpt>
      <trkpt lat="48.00966" lon="6.85041">
        <ele>958.57</ele>
        <time>2026-08-26T12:35:03.430Z</time>
      </trkpt>
      <trkpt lat="48.0097" lon="6.85036">
        <ele>958.86</ele>
        <time>2026-08-26T12:35:07.456Z</time>
      </trkpt>
      <trkpt lat="48.00973" lon="6.8503">
        <ele>958.59</ele>
        <time>2026-08-26T12:35:15.462Z</time>
      </trkpt>
      <trkpt lat="48.00975" lon="6.85023">
        <ele>959.03</ele>
        <time>2026-08-26T12:35:20.433Z</time>
      </trkpt>
      <trkpt lat="48.00975" lon="6.85015">
        <ele>958.78</ele>
        <time>2026-08-26T12:35:25.456Z</time>
      </trkpt>
      <trkpt lat="48.00977" lon="6.85007">
        <ele>958.41</ele>
        <time>2026-08-26T12:35:30.442Z</time>
      </trkpt>
      <trkpt lat="48.0098" lon="6.85001">
        <ele>959.13</ele>
        <time>2026-08-26T12:35:34.438Z</time>
      </trkpt>
      <trkpt lat="48.00983" lon="6.84996">
        <ele>959.99</ele>
        <time>2026-08-26T12:35:39.436Z</time>
      </trkpt>
      <trkpt lat="48.00985" lon="6.84989">
        <ele>959.84</ele>
        <time>2026-08-26T12:35:45.441Z</time>
      </trkpt>
      <trkpt lat="48.00987" lon="6.84983">
        <ele>960.51</ele>
        <time>2026-08-26T12:35:49.443Z</time>
      </trkpt>
      <trkpt lat="48.00989" lon="6.84976">
        <ele>960.01</ele>
        <time>2026-08-26T12:35:54.448Z</time>
      </trkpt>
      <trkpt lat="48.00991" lon="6.8497">
        <ele>959.74</ele>
        <time>2026-08-26T12:35:58.470Z</time>
      </trkpt>
      <trkpt lat="48.00993" lon="6.84964">
        <ele>960.43</ele>
        <time>2026-08-26T12:36:02.454Z</time>
      </trkpt>
      <trkpt lat="48.00995" lon="6.84957">
        <ele>959.88</ele>
        <time>2026-08-26T12:36:07.430Z</time>
      </trkpt>
      <trkpt lat="48.00996" lon="6.8495">
        <ele>960.24</ele>
        <time>2026-08-26T12:36:12.436Z</time>
      </trkpt>
      <trkpt lat="48.00999" lon="6.84943">
        <ele>959.86</ele>
        <time>2026-08-26T12:36:18.452Z</time>
      </trkpt>
      <trkpt lat="48.01" lon="6.84936">
        <ele>959.95</ele>
        <time>2026-08-26T12:36:23.439Z</time>
      </trkpt>
      <trkpt lat="48.01003" lon="6.84929">
        <ele>959.54</ele>
        <time>2026-08-26T12:36:31.457Z</time>
      </trkpt>
      <trkpt lat="48.01007" lon="6.84925">
        <ele>960.06</ele>
        <time>2026-08-26T12:36:39.444Z</time>
      </trkpt>
      <trkpt lat="48.01011" lon="6.84929">
        <ele>960.99</ele>
        <time>2026-08-26T12:39:28.459Z</time>
      </trkpt>
      <trkpt lat="48.0101" lon="6.84936">
        <ele>961.77</ele>
        <time>2026-08-26T12:39:41.458Z</time>
      </trkpt>
      <trkpt lat="48.01013" lon="6.84941">
        <ele>963.06</ele>
        <time>2026-08-26T12:39:49.441Z</time>
      </trkpt>
      <trkpt lat="48.01018" lon="6.84945">
        <ele>964.34</ele>
        <time>2026-08-26T12:40:17.466Z</time>
      </trkpt>
      <trkpt lat="48.01016" lon="6.84951">
        <ele>964.13</ele>
        <time>2026-08-26T12:40:37.436Z</time>
      </trkpt>
      <trkpt lat="48.01016" lon="6.84959">
        <ele>964.7</ele>
        <time>2026-08-26T12:40:45.438Z</time>
      </trkpt>
      <trkpt lat="48.01017" lon="6.84965">
        <ele>965.89</ele>
        <time>2026-08-26T12:40:50.518Z</time>
      </trkpt>
      <trkpt lat="48.01018" lon="6.84972">
        <ele>966.46</ele>
        <time>2026-08-26T12:40:54.445Z</time>
      </trkpt>
      <trkpt lat="48.01019" lon="6.8498">
        <ele>966.75</ele>
        <time>2026-08-26T12:41:00.465Z</time>
      </trkpt>
      <trkpt lat="48.01017" lon="6.84987">
        <ele>967.27</ele>
        <time>2026-08-26T12:41:07.436Z</time>
      </trkpt>
      <trkpt lat="48.01018" lon="6.84994">
        <ele>967.71</ele>
        <time>2026-08-26T12:41:13.437Z</time>
      </trkpt>
      <trkpt lat="48.01017" lon="6.85001">
        <ele>967.94</ele>
        <time>2026-08-26T12:41:19.452Z</time>
      </trkpt>
      <trkpt lat="48.01018" lon="6.85008">
        <ele>968.38</ele>
        <time>2026-08-26T12:41:27.457Z</time>
      </trkpt>
      <trkpt lat="48.01017" lon="6.85016">
        <ele>968.83</ele>
        <time>2026-08-26T12:41:35.442Z</time>
      </trkpt>
      <trkpt lat="48.01016" lon="6.85023">
        <ele>968.01</ele>
        <time>2026-08-26T12:41:41.465Z</time>
      </trkpt>
      <trkpt lat="48.01016" lon="6.85031">
        <ele>968.43</ele>
        <time>2026-08-26T12:41:47.450Z</time>
      </trkpt>
      <trkpt lat="48.01016" lon="6.85039">
        <ele>968.86</ele>
        <time>2026-08-26T12:41:53.453Z</time>
      </trkpt>
      <trkpt lat="48.01017" lon="6.85045">
        <ele>970.37</ele>
        <time>2026-08-26T12:41:58.480Z</time>
      </trkpt>
      <trkpt lat="48.01018" lon="6.85053">
        <ele>970.72</ele>
        <time>2026-08-26T12:42:04.460Z</time>
      </trkpt>
      <trkpt lat="48.01018" lon="6.85061">
        <ele>972.01</ele>
        <time>2026-08-26T12:42:09.446Z</time>
      </trkpt>
      <trkpt lat="48.01019" lon="6.85068">
        <ele>973.34</ele>
        <time>2026-08-26T12:42:16.445Z</time>
      </trkpt>
      <trkpt lat="48.01023" lon="6.85073">
        <ele>974.87</ele>
        <time>2026-08-26T12:42:23.425Z</time>
      </trkpt>
      <trkpt lat="48.01025" lon="6.8508">
        <ele>976.11</ele>
        <time>2026-08-26T12:42:30.435Z</time>
      </trkpt>
      <trkpt lat="48.01027" lon="6.85086">
        <ele>977.57</ele>
        <time>2026-08-26T12:42:35.444Z</time>
      </trkpt>
      <trkpt lat="48.01024" lon="6.85092">
        <ele>977.73</ele>
        <time>2026-08-26T12:42:43.440Z</time>
      </trkpt>
      <trkpt lat="48.0102" lon="6.85097">
        <ele>978.95</ele>
        <time>2026-08-26T12:42:47.459Z</time>
      </trkpt>
      <trkpt lat="48.01016" lon="6.851">
        <ele>978.32</ele>
        <time>2026-08-26T12:42:51.445Z</time>
      </trkpt>
      <trkpt lat="48.01011" lon="6.85103">
        <ele>978.68</ele>
        <time>2026-08-26T12:42:55.461Z</time>
      </trkpt>
      <trkpt lat="48.01007" lon="6.85108">
        <ele>979.07</ele>
        <time>2026-08-26T12:43:01.432Z</time>
      </trkpt>
      <trkpt lat="48.01004" lon="6.85113">
        <ele>979.52</ele>
        <time>2026-08-26T12:43:06.444Z</time>
      </trkpt>
      <trkpt lat="48.00999" lon="6.85117">
        <ele>979.99</ele>
        <time>2026-08-26T12:43:19.456Z</time>
      </trkpt>
      <trkpt lat="48.00997" lon="6.85123">
        <ele>981.66</ele>
        <time>2026-08-26T12:43:26.456Z</time>
      </trkpt>
      <trkpt lat="48.00994" lon="6.85129">
        <ele>981.97</ele>
        <time>2026-08-26T12:43:32.456Z</time>
      </trkpt>
      <trkpt lat="48.0099" lon="6.85132">
        <ele>982.34</ele>
        <time>2026-08-26T12:43:38.456Z</time>
      </trkpt>
      <trkpt lat="48.00985" lon="6.85134">
        <ele>981.95</ele>
        <time>2026-08-26T12:43:44.457Z</time>
      </trkpt>
      <trkpt lat="48.00981" lon="6.85137">
        <ele>982.46</ele>
        <time>2026-08-26T12:43:50.437Z</time>
      </trkpt>
      <trkpt lat="48.00976" lon="6.85139">
        <ele>982.11</ele>
        <time>2026-08-26T12:43:57.443Z</time>
      </trkpt>
      <trkpt lat="48.00972" lon="6.85144">
        <ele>983.61</ele>
        <time>2026-08-26T12:44:08.457Z</time>
      </trkpt>
      <trkpt lat="48.00969" lon="6.8515">
        <ele>983.99</ele>
        <time>2026-08-26T12:44:14.432Z</time>
      </trkpt>
      <trkpt lat="48.00968" lon="6.85156">
        <ele>984.5</ele>
        <time>2026-08-26T12:44:22.453Z</time>
      </trkpt>
      <trkpt lat="48.00967" lon="6.85164">
        <ele>985.52</ele>
        <time>2026-08-26T12:44:31.429Z</time>
      </trkpt>
      <trkpt lat="48.00965" lon="6.8517">
        <ele>986.25</ele>
        <time>2026-08-26T12:44:40.435Z</time>
      </trkpt>
      <trkpt lat="48.0096" lon="6.85173">
        <ele>985.97</ele>
        <time>2026-08-26T12:44:45.425Z</time>
      </trkpt>
      <trkpt lat="48.00956" lon="6.85176">
        <ele>986.26</ele>
        <time>2026-08-26T12:44:50.460Z</time>
      </trkpt>
      <trkpt lat="48.00952" lon="6.85179">
        <ele>986.53</ele>
        <time>2026-08-26T12:44:56.443Z</time>
      </trkpt>
      <trkpt lat="48.00949" lon="6.85186">
        <ele>986.82</ele>
        <time>2026-08-26T12:45:02.475Z</time>
      </trkpt>
      <trkpt lat="48.00947" lon="6.85192">
        <ele>987.07</ele>
        <time>2026-08-26T12:45:07.457Z</time>
      </trkpt>
      <trkpt lat="48.00944" lon="6.85197">
        <ele>987.32</ele>
        <time>2026-08-26T12:45:13.458Z</time>
      </trkpt>
      <trkpt lat="48.00944" lon="6.85204">
        <ele>987.6</ele>
        <time>2026-08-26T12:45:18.461Z</time>
      </trkpt>
      <trkpt lat="48.00941" lon="6.85211">
        <ele>987.84</ele>
        <time>2026-08-26T12:45:25.456Z</time>
      </trkpt>
      <trkpt lat="48.00937" lon="6.85215">
        <ele>987.76</ele>
        <time>2026-08-26T12:45:38.460Z</time>
      </trkpt>
      <trkpt lat="48.00933" lon="6.85215">
        <ele>987.55</ele>
        <time>2026-08-26T12:45:45.457Z</time>
      </trkpt>
      <trkpt lat="48.00929" lon="6.8521">
        <ele>987.26</ele>
        <time>2026-08-26T12:45:52.506Z</time>
      </trkpt>
      <trkpt lat="48.00924" lon="6.85207">
        <ele>986.83</ele>
        <time>2026-08-26T12:45:58.461Z</time>
      </trkpt>
      <trkpt lat="48.00919" lon="6.85204">
        <ele>986.63</ele>
        <time>2026-08-26T12:46:04.463Z</time>
      </trkpt>
      <trkpt lat="48.00915" lon="6.85203">
        <ele>986.15</ele>
        <time>2026-08-26T12:46:10.452Z</time>
      </trkpt>
      <trkpt lat="48.00911" lon="6.85201">
        <ele>985.88</ele>
        <time>2026-08-26T12:46:18.456Z</time>
      </trkpt>
      <trkpt lat="48.00906" lon="6.85198">
        <ele>985.43</ele>
        <time>2026-08-26T12:46:28.440Z</time>
      </trkpt>
      <trkpt lat="48.00908" lon="6.85198">
        <ele>985.43</ele>
        <time>2026-08-26T12:48:03.451Z</time>
      </trkpt>
      <trkpt lat="48.00905" lon="6.85193">
        <ele>985.01</ele>
        <time>2026-08-26T12:50:27.460Z</time>
      </trkpt>
      <trkpt lat="48.00907" lon="6.85191">
        <ele>985.24</ele>
        <time>2026-08-26T12:52:51.461Z</time>
      </trkpt>
      <trkpt lat="48.00912" lon="6.85195">
        <ele>985.46</ele>
        <time>2026-08-26T12:52:59.435Z</time>
      </trkpt>
      <trkpt lat="48.00917" lon="6.85194">
        <ele>985.68</ele>
        <time>2026-08-26T12:53:09.462Z</time>
      </trkpt>
      <trkpt lat="48.00921" lon="6.85199">
        <ele>986.14</ele>
        <time>2026-08-26T12:53:46.455Z</time>
      </trkpt>
      <trkpt lat="48.00924" lon="6.85203">
        <ele>986.58</ele>
        <time>2026-08-26T12:53:53.487Z</time>
      </trkpt>
      <trkpt lat="48.00932" lon="6.8521">
        <ele>987.46</ele>
        <time>2026-08-26T12:54:49.438Z</time>
      </trkpt>
      <trkpt lat="48.00937" lon="6.85213">
        <ele>987.76</ele>
        <time>2026-08-26T12:54:56.448Z</time>
      </trkpt>
      <trkpt lat="48.00942" lon="6.85213">
        <ele>987.97</ele>
        <time>2026-08-26T12:55:03.450Z</time>
      </trkpt>
      <trkpt lat="48.00948" lon="6.85215">
        <ele>988.18</ele>
        <time>2026-08-26T12:55:08.438Z</time>
      </trkpt>
      <trkpt lat="48.00952" lon="6.85216">
        <ele>988.39</ele>
        <time>2026-08-26T12:55:13.461Z</time>
      </trkpt>
      <trkpt lat="48.00957" lon="6.85218">
        <ele>988.59</ele>
        <time>2026-08-26T12:55:22.452Z</time>
      </trkpt>
      <trkpt lat="48.0096" lon="6.85224">
        <ele>988.77</ele>
        <time>2026-08-26T12:56:40.464Z</time>
      </trkpt>
      <trkpt lat="48.00965" lon="6.8522">
        <ele>989.24</ele>
        <time>2026-08-26T12:57:10.471Z</time>
      </trkpt>
      <trkpt lat="48.0097" lon="6.85218">
        <ele>989.45</ele>
        <time>2026-08-26T12:57:16.449Z</time>
      </trkpt>
      <trkpt lat="48.00975" lon="6.85215">
        <ele>989.63</ele>
        <time>2026-08-26T12:57:22.452Z</time>
      </trkpt>
      <trkpt lat="48.00979" lon="6.85211">
        <ele>989.67</ele>
        <time>2026-08-26T12:57:28.424Z</time>
      </trkpt>
      <trkpt lat="48.00983" lon="6.85207">
        <ele>989.72</ele>
        <time>2026-08-26T12:57:34.443Z</time>
      </trkpt>
      <trkpt lat="48.00987" lon="6.85203">
        <ele>989.83</ele>
        <time>2026-08-26T12:57:39.445Z</time>
      </trkpt>
      <trkpt lat="48.0099" lon="6.85198">
        <ele>989.67</ele>
        <time>2026-08-26T12:57:45.449Z</time>
      </trkpt>
      <trkpt lat="48.00994" lon="6.85196">
        <ele>990.01</ele>
        <time>2026-08-26T12:57:54.446Z</time>
      </trkpt>
      <trkpt lat="48.00999" lon="6.85197">
        <ele>990.35</ele>
        <time>2026-08-26T12:58:02.442Z</time>
      </trkpt>
      <trkpt lat="48.01004" lon="6.85198">
        <ele>991.04</ele>
        <time>2026-08-26T12:58:09.457Z</time>
      </trkpt>
      <trkpt lat="48.01009" lon="6.85198">
        <ele>991.42</ele>
        <time>2026-08-26T12:58:17.430Z</time>
      </trkpt>
      <trkpt lat="48.01015" lon="6.85198">
        <ele>991.89</ele>
        <time>2026-08-26T12:58:22.419Z</time>
      </trkpt>
      <trkpt lat="48.0102" lon="6.85198">
        <ele>992.38</ele>
        <time>2026-08-26T12:58:26.414Z</time>
      </trkpt>
      <trkpt lat="48.01025" lon="6.85198">
        <ele>992.87</ele>
        <time>2026-08-26T12:58:30.447Z</time>
      </trkpt>
      <trkpt lat="48.01029" lon="6.852">
        <ele>993.5</ele>
        <time>2026-08-26T12:58:34.455Z</time>
      </trkpt>
      <trkpt lat="48.01033" lon="6.85202">
        <ele>994.02</ele>
        <time>2026-08-26T12:58:38.444Z</time>
      </trkpt>
      <trkpt lat="48.01036" lon="6.85208">
        <ele>994.78</ele>
        <time>2026-08-26T12:58:45.439Z</time>
      </trkpt>
      <trkpt lat="48.01037" lon="6.85214">
        <ele>995.03</ele>
        <time>2026-08-26T12:58:54.486Z</time>
      </trkpt>
      <trkpt lat="48.0104" lon="6.8522">
        <ele>995.77</ele>
        <time>2026-08-26T12:59:06.444Z</time>
      </trkpt>
      <trkpt lat="48.01044" lon="6.85224">
        <ele>996.46</ele>
        <time>2026-08-26T12:59:11.438Z</time>
      </trkpt>
      <trkpt lat="48.01048" lon="6.85228">
        <ele>997.13</ele>
        <time>2026-08-26T12:59:15.452Z</time>
      </trkpt>
      <trkpt lat="48.01051" lon="6.85222">
        <ele>997.09</ele>
        <time>2026-08-26T12:59:26.498Z</time>
      </trkpt>
      <trkpt lat="48.01054" lon="6.85217">
        <ele>997.68</ele>
        <time>2026-08-26T12:59:33.450Z</time>
      </trkpt>
      <trkpt lat="48.01057" lon="6.85212">
        <ele>998.28</ele>
        <time>2026-08-26T12:59:40.446Z</time>
      </trkpt>
      <trkpt lat="48.01061" lon="6.85208">
        <ele>999.08</ele>
        <time>2026-08-26T12:59:45.449Z</time>
      </trkpt>
      <trkpt lat="48.01065" lon="6.85203">
        <ele>999.7</ele>
        <time>2026-08-26T12:59:51.426Z</time>
      </trkpt>
      <trkpt lat="48.01069" lon="6.85198">
        <ele>1000.4</ele>
        <time>2026-08-26T12:59:57.445Z</time>
      </trkpt>
      <trkpt lat="48.0107" lon="6.85191">
        <ele>1000.3</ele>
        <time>2026-08-26T13:00:07.454Z</time>
      </trkpt>
      <trkpt lat="48.01073" lon="6.85184">
        <ele>1000.71</ele>
        <time>2026-08-26T13:00:13.431Z</time>
      </trkpt>
      <trkpt lat="48.01077" lon="6.8518">
        <ele>1001.21</ele>
        <time>2026-08-26T13:00:29.454Z</time>
      </trkpt>
      <trkpt lat="48.01081" lon="6.85178">
        <ele>1001.69</ele>
        <time>2026-08-26T13:00:34.423Z</time>
      </trkpt>
      <trkpt lat="48.01085" lon="6.85173">
        <ele>1001.44</ele>
        <time>2026-08-26T13:00:40.441Z</time>
      </trkpt>
      <trkpt lat="48.01089" lon="6.85169">
        <ele>1001.92</ele>
        <time>2026-08-26T13:00:49.445Z</time>
      </trkpt>
      <trkpt lat="48.01093" lon="6.85164">
        <ele>1002.42</ele>
        <time>2026-08-26T13:00:54.454Z</time>
      </trkpt>
      <trkpt lat="48.01097" lon="6.85161">
        <ele>1003.16</ele>
        <time>2026-08-26T13:00:58.445Z</time>
      </trkpt>
      <trkpt lat="48.011" lon="6.85156">
        <ele>1003.33</ele>
        <time>2026-08-26T13:01:06.427Z</time>
      </trkpt>
      <trkpt lat="48.01103" lon="6.8515">
        <ele>1003.61</ele>
        <time>2026-08-26T13:01:12.448Z</time>
      </trkpt>
      <trkpt lat="48.01107" lon="6.85146">
        <ele>1003.29</ele>
        <time>2026-08-26T13:01:18.430Z</time>
      </trkpt>
      <trkpt lat="48.01111" lon="6.85145">
        <ele>1004.47</ele>
        <time>2026-08-26T13:01:23.438Z</time>
      </trkpt>
      <trkpt lat="48.01116" lon="6.85144">
        <ele>1005.07</ele>
        <time>2026-08-26T13:01:28.425Z</time>
      </trkpt>
      <trkpt lat="48.0112" lon="6.85142">
        <ele>1005.5</ele>
        <time>2026-08-26T13:01:36.431Z</time>
      </trkpt>
      <trkpt lat="48.01124" lon="6.85136">
        <ele>1005.32</ele>
        <time>2026-08-26T13:01:44.430Z</time>
      </trkpt>
      <trkpt lat="48.01125" lon="6.85129">
        <ele>1005.6</ele>
        <time>2026-08-26T13:01:51.454Z</time>
      </trkpt>
      <trkpt lat="48.0113" lon="6.85127">
        <ele>1006.13</ele>
        <time>2026-08-26T13:01:56.434Z</time>
      </trkpt>
      <trkpt lat="48.01135" lon="6.85126">
        <ele>1006.64</ele>
        <time>2026-08-26T13:02:03.436Z</time>
      </trkpt>
      <trkpt lat="48.01141" lon="6.85125">
        <ele>1007.18</ele>
        <time>2026-08-26T13:02:08.454Z</time>
      </trkpt>
      <trkpt lat="48.01146" lon="6.85125">
        <ele>1008.19</ele>
        <time>2026-08-26T13:02:19.458Z</time>
      </trkpt>
      <trkpt lat="48.01151" lon="6.85127">
        <ele>1008.44</ele>
        <time>2026-08-26T13:02:23.429Z</time>
      </trkpt>
      <trkpt lat="48.01156" lon="6.8513">
        <ele>1008.68</ele>
        <time>2026-08-26T13:02:28.464Z</time>
      </trkpt>
      <trkpt lat="48.0116" lon="6.85134">
        <ele>1009.1</ele>
        <time>2026-08-26T13:02:33.450Z</time>
      </trkpt>
      <trkpt lat="48.01163" lon="6.8514">
        <ele>1009.84</ele>
        <time>2026-08-26T13:02:41.430Z</time>
      </trkpt>
      <trkpt lat="48.01167" lon="6.85145">
        <ele>1010.4</ele>
        <time>2026-08-26T13:02:51.445Z</time>
      </trkpt>
      <trkpt lat="48.01165" lon="6.85152">
        <ele>1010.56</ele>
        <time>2026-08-26T13:03:17.456Z</time>
      </trkpt>
      <trkpt lat="48.01162" lon="6.85157">
        <ele>1010.37</ele>
        <time>2026-08-26T13:03:22.436Z</time>
      </trkpt>
      <trkpt lat="48.01158" lon="6.85161">
        <ele>1010.17</ele>
        <time>2026-08-26T13:03:28.434Z</time>
      </trkpt>
      <trkpt lat="48.01154" lon="6.85164">
        <ele>1009.71</ele>
        <time>2026-08-26T13:03:32.429Z</time>
      </trkpt>
      <trkpt lat="48.01149" lon="6.85164">
        <ele>1009.24</ele>
        <time>2026-08-26T13:03:37.441Z</time>
      </trkpt>
      <trkpt lat="48.01144" lon="6.85167">
        <ele>1009.06</ele>
        <time>2026-08-26T13:03:47.458Z</time>
      </trkpt>
      <trkpt lat="48.01139" lon="6.8517">
        <ele>1008.87</ele>
        <time>2026-08-26T13:03:53.431Z</time>
      </trkpt>
      <trkpt lat="48.01136" lon="6.85175">
        <ele>1008.67</ele>
        <time>2026-08-26T13:03:59.424Z</time>
      </trkpt>
      <trkpt lat="48.01135" lon="6.85181">
        <ele>1008.94</ele>
        <time>2026-08-26T13:04:05.440Z</time>
      </trkpt>
      <trkpt lat="48.01132" lon="6.85187">
        <ele>1009</ele>
        <time>2026-08-26T13:04:11.446Z</time>
      </trkpt>
      <trkpt lat="48.01131" lon="6.85194">
        <ele>1009.29</ele>
        <time>2026-08-26T13:04:17.438Z</time>
      </trkpt>
      <trkpt lat="48.0113" lon="6.85201">
        <ele>1010.1</ele>
        <time>2026-08-26T13:04:26.422Z</time>
      </trkpt>
      <trkpt lat="48.01128" lon="6.85209">
        <ele>1010.36</ele>
        <time>2026-08-26T13:04:32.444Z</time>
      </trkpt>
      <trkpt lat="48.01127" lon="6.85215">
        <ele>1010.76</ele>
        <time>2026-08-26T13:04:37.416Z</time>
      </trkpt>
      <trkpt lat="48.01125" lon="6.85223">
        <ele>1011.56</ele>
        <time>2026-08-26T13:04:42.422Z</time>
      </trkpt>
      <trkpt lat="48.01121" lon="6.85227">
        <ele>1011.31</ele>
        <time>2026-08-26T13:04:49.430Z</time>
      </trkpt>
      <trkpt lat="48.01117" lon="6.85232">
        <ele>1010.93</ele>
        <time>2026-08-26T13:04:56.431Z</time>
      </trkpt>
      <trkpt lat="48.01114" lon="6.85238">
        <ele>1010.81</ele>
        <time>2026-08-26T13:05:00.444Z</time>
      </trkpt>
      <trkpt lat="48.01111" lon="6.85245">
        <ele>1011.18</ele>
        <time>2026-08-26T13:05:04.423Z</time>
      </trkpt>
      <trkpt lat="48.01109" lon="6.8525">
        <ele>1010.59</ele>
        <time>2026-08-26T13:05:08.446Z</time>
      </trkpt>
      <trkpt lat="48.01107" lon="6.85257">
        <ele>1011.26</ele>
        <time>2026-08-26T13:05:12.436Z</time>
      </trkpt>
      <trkpt lat="48.01106" lon="6.85265">
        <ele>1010.72</ele>
        <time>2026-08-26T13:05:20.436Z</time>
      </trkpt>
      <trkpt lat="48.01107" lon="6.85272">
        <ele>1010.95</ele>
        <time>2026-08-26T13:05:25.422Z</time>
      </trkpt>
      <trkpt lat="48.01106" lon="6.8528">
        <ele>1011.42</ele>
        <time>2026-08-26T13:05:31.444Z</time>
      </trkpt>
      <trkpt lat="48.01105" lon="6.85287">
        <ele>1011.88</ele>
        <time>2026-08-26T13:05:36.429Z</time>
      </trkpt>
      <trkpt lat="48.01103" lon="6.85294">
        <ele>1012.09</ele>
        <time>2026-08-26T13:05:44.430Z</time>
      </trkpt>
      <trkpt lat="48.011" lon="6.85299">
        <ele>1011.21</ele>
        <time>2026-08-26T13:05:49.436Z</time>
      </trkpt>
      <trkpt lat="48.01098" lon="6.85306">
        <ele>1010.21</ele>
        <time>2026-08-26T13:05:54.426Z</time>
      </trkpt>
      <trkpt lat="48.01097" lon="6.85314">
        <ele>1010.43</ele>
        <time>2026-08-26T13:06:00.438Z</time>
      </trkpt>
      <trkpt lat="48.01096" lon="6.85321">
        <ele>1010.65</ele>
        <time>2026-08-26T13:06:05.453Z</time>
      </trkpt>
      <trkpt lat="48.01095" lon="6.85328">
        <ele>1010.89</ele>
        <time>2026-08-26T13:06:12.446Z</time>
      </trkpt>
      <trkpt lat="48.01093" lon="6.85335">
        <ele>1009.93</ele>
        <time>2026-08-26T13:06:17.473Z</time>
      </trkpt>
      <trkpt lat="48.01097" lon="6.8534">
        <ele>1011.13</ele>
        <time>2026-08-26T13:06:22.444Z</time>
      </trkpt>
      <trkpt lat="48.01101" lon="6.85344">
        <ele>1012.22</ele>
        <time>2026-08-26T13:06:24.464Z</time>
      </trkpt>
      <trkpt lat="48.01098" lon="6.85349">
        <ele>1011.36</ele>
        <time>2026-08-26T13:06:29.429Z</time>
      </trkpt>
      <trkpt lat="48.01092" lon="6.85352">
        <ele>1010.48</ele>
        <time>2026-08-26T13:06:32.432Z</time>
      </trkpt>
      <trkpt lat="48.01087" lon="6.85355">
        <ele>1009.59</ele>
        <time>2026-08-26T13:06:36.447Z</time>
      </trkpt>
      <trkpt lat="48.01083" lon="6.85357">
        <ele>1008.56</ele>
        <time>2026-08-26T13:06:43.460Z</time>
      </trkpt>
      <trkpt lat="48.01079" lon="6.85356">
        <ele>1007.54</ele>
        <time>2026-08-26T13:06:53.428Z</time>
      </trkpt>
      <trkpt lat="48.01077" lon="6.85363">
        <ele>1007.01</ele>
        <time>2026-08-26T13:06:59.435Z</time>
      </trkpt>
      <trkpt lat="48.01076" lon="6.85371">
        <ele>1007.25</ele>
        <time>2026-08-26T13:07:05.433Z</time>
      </trkpt>
      <trkpt lat="48.01072" lon="6.85375">
        <ele>1006.59</ele>
        <time>2026-08-26T13:07:11.452Z</time>
      </trkpt>
      <trkpt lat="48.01068" lon="6.85378">
        <ele>1005.99</ele>
        <time>2026-08-26T13:07:19.430Z</time>
      </trkpt>
      <trkpt lat="48.01064" lon="6.85382">
        <ele>1005.42</ele>
        <time>2026-08-26T13:07:24.435Z</time>
      </trkpt>
      <trkpt lat="48.01059" lon="6.85387">
        <ele>1004.88</ele>
        <time>2026-08-26T13:07:29.429Z</time>
      </trkpt>
      <trkpt lat="48.01057" lon="6.85392">
        <ele>1005.14</ele>
        <time>2026-08-26T13:07:36.441Z</time>
      </trkpt>
      <trkpt lat="48.01054" lon="6.85398">
        <ele>1004.75</ele>
        <time>2026-08-26T13:07:42.456Z</time>
      </trkpt>
      <trkpt lat="48.0105" lon="6.85405">
        <ele>1004.15</ele>
        <time>2026-08-26T13:07:47.432Z</time>
      </trkpt>
      <trkpt lat="48.01048" lon="6.85411">
        <ele>1004.59</ele>
        <time>2026-08-26T13:07:54.423Z</time>
      </trkpt>
      <trkpt lat="48.01046" lon="6.85417">
        <ele>1004</ele>
        <time>2026-08-26T13:07:59.442Z</time>
      </trkpt>
      <trkpt lat="48.01045" lon="6.85424">
        <ele>1004.49</ele>
        <time>2026-08-26T13:08:03.438Z</time>
      </trkpt>
      <trkpt lat="48.01044" lon="6.85431">
        <ele>1005.06</ele>
        <time>2026-08-26T13:08:08.453Z</time>
      </trkpt>
      <trkpt lat="48.01043" lon="6.85438">
        <ele>1005.35</ele>
        <time>2026-08-26T13:08:14.428Z</time>
      </trkpt>
      <trkpt lat="48.01042" lon="6.85445">
        <ele>1005.16</ele>
        <time>2026-08-26T13:08:23.434Z</time>
      </trkpt>
      <trkpt lat="48.01041" lon="6.85453">
        <ele>1005.74</ele>
        <time>2026-08-26T13:08:51.437Z</time>
      </trkpt>
      <trkpt lat="48.0104" lon="6.8546">
        <ele>1006</ele>
        <time>2026-08-26T13:09:02.415Z</time>
      </trkpt>
      <trkpt lat="48.01037" lon="6.85466">
        <ele>1005.77</ele>
        <time>2026-08-26T13:09:08.440Z</time>
      </trkpt>
      <trkpt lat="48.01036" lon="6.85472">
        <ele>1006.03</ele>
        <time>2026-08-26T13:09:12.425Z</time>
      </trkpt>
      <trkpt lat="48.01034" lon="6.85479">
        <ele>1006.54</ele>
        <time>2026-08-26T13:09:17.450Z</time>
      </trkpt>
      <trkpt lat="48.01033" lon="6.85486">
        <ele>1006.02</ele>
        <time>2026-08-26T13:09:24.433Z</time>
      </trkpt>
      <trkpt lat="48.01033" lon="6.85494">
        <ele>1006.52</ele>
        <time>2026-08-26T13:09:30.405Z</time>
      </trkpt>
      <trkpt lat="48.01034" lon="6.85502">
        <ele>1007.01</ele>
        <time>2026-08-26T13:09:34.685Z</time>
      </trkpt>
      <trkpt lat="48.01032" lon="6.85508">
        <ele>1007.51</ele>
        <time>2026-08-26T13:09:47.429Z</time>
      </trkpt>
      <trkpt lat="48.0103" lon="6.85516">
        <ele>1006.93</ele>
        <time>2026-08-26T13:09:52.451Z</time>
      </trkpt>
      <trkpt lat="48.01028" lon="6.85523">
        <ele>1007.4</ele>
        <time>2026-08-26T13:09:57.444Z</time>
      </trkpt>
      <trkpt lat="48.01027" lon="6.8553">
        <ele>1007.86</ele>
        <time>2026-08-26T13:10:01.429Z</time>
      </trkpt>
      <trkpt lat="48.01025" lon="6.85537">
        <ele>1007.22</ele>
        <time>2026-08-26T13:10:05.426Z</time>
      </trkpt>
      <trkpt lat="48.01023" lon="6.85544">
        <ele>1007.67</ele>
        <time>2026-08-26T13:10:10.452Z</time>
      </trkpt>
      <trkpt lat="48.01021" lon="6.85551">
        <ele>1007.15</ele>
        <time>2026-08-26T13:10:15.448Z</time>
      </trkpt>
      <trkpt lat="48.01019" lon="6.85559">
        <ele>1007.33</ele>
        <time>2026-08-26T13:10:19.439Z</time>
      </trkpt>
      <trkpt lat="48.01016" lon="6.85564">
        <ele>1006.53</ele>
        <time>2026-08-26T13:10:23.454Z</time>
      </trkpt>
      <trkpt lat="48.01015" lon="6.85571">
        <ele>1006.69</ele>
        <time>2026-08-26T13:10:30.449Z</time>
      </trkpt>
      <trkpt lat="48.01013" lon="6.85578">
        <ele>1007</ele>
        <time>2026-08-26T13:10:35.441Z</time>
      </trkpt>
      <trkpt lat="48.01011" lon="6.85584">
        <ele>1005.93</ele>
        <time>2026-08-26T13:10:39.448Z</time>
      </trkpt>
      <trkpt lat="48.01011" lon="6.85591">
        <ele>1006.19</ele>
        <time>2026-08-26T13:10:48.430Z</time>
      </trkpt>
      <trkpt lat="48.0101" lon="6.85598">
        <ele>1006.31</ele>
        <time>2026-08-26T13:10:53.430Z</time>
      </trkpt>
      <trkpt lat="48.01008" lon="6.85606">
        <ele>1006.56</ele>
        <time>2026-08-26T13:10:57.435Z</time>
      </trkpt>
      <trkpt lat="48.01007" lon="6.85613">
        <ele>1005.5</ele>
        <time>2026-08-26T13:11:02.461Z</time>
      </trkpt>
      <trkpt lat="48.01006" lon="6.85619">
        <ele>1005.62</ele>
        <time>2026-08-26T13:11:07.450Z</time>
      </trkpt>
      <trkpt lat="48.01005" lon="6.85628">
        <ele>1005.7</ele>
        <time>2026-08-26T13:11:12.444Z</time>
      </trkpt>
      <trkpt lat="48.01006" lon="6.85635">
        <ele>1005.72</ele>
        <time>2026-08-26T13:11:17.446Z</time>
      </trkpt>
      <trkpt lat="48.01004" lon="6.85642">
        <ele>1005.75</ele>
        <time>2026-08-26T13:11:25.426Z</time>
      </trkpt>
      <trkpt lat="48.01005" lon="6.8565">
        <ele>1005.76</ele>
        <time>2026-08-26T13:11:31.479Z</time>
      </trkpt>
      <trkpt lat="48.01005" lon="6.85658">
        <ele>1005.68</ele>
        <time>2026-08-26T13:11:36.445Z</time>
      </trkpt>
      <trkpt lat="48.01005" lon="6.85666">
        <ele>1005.36</ele>
        <time>2026-08-26T13:11:42.432Z</time>
      </trkpt>
      <trkpt lat="48.01006" lon="6.85672">
        <ele>1005.04</ele>
        <time>2026-08-26T13:11:46.475Z</time>
      </trkpt>
      <trkpt lat="48.01008" lon="6.8568">
        <ele>1004.88</ele>
        <time>2026-08-26T13:11:52.440Z</time>
      </trkpt>
      <trkpt lat="48.01009" lon="6.85686">
        <ele>1005.91</ele>
        <time>2026-08-26T13:11:56.452Z</time>
      </trkpt>
      <trkpt lat="48.01009" lon="6.85694">
        <ele>1005.29</ele>
        <time>2026-08-26T13:12:00.438Z</time>
      </trkpt>
      <trkpt lat="48.0101" lon="6.85701">
        <ele>1004.95</ele>
        <time>2026-08-26T13:12:05.449Z</time>
      </trkpt>
      <trkpt lat="48.01012" lon="6.85708">
        <ele>1004.26</ele>
        <time>2026-08-26T13:12:11.427Z</time>
      </trkpt>
      <trkpt lat="48.01015" lon="6.85713">
        <ele>1005.23</ele>
        <time>2026-08-26T13:12:17.454Z</time>
      </trkpt>
      <trkpt lat="48.0102" lon="6.85713">
        <ele>1006.43</ele>
        <time>2026-08-26T13:12:23.450Z</time>
      </trkpt>
      <trkpt lat="48.01025" lon="6.85713">
        <ele>1007.58</ele>
        <time>2026-08-26T13:12:33.443Z</time>
      </trkpt>
      <trkpt lat="48.01027" lon="6.8572">
        <ele>1008.02</ele>
        <time>2026-08-26T13:12:39.457Z</time>
      </trkpt>
      <trkpt lat="48.01031" lon="6.85725">
        <ele>1008.88</ele>
        <time>2026-08-26T13:12:43.440Z</time>
      </trkpt>
      <trkpt lat="48.01033" lon="6.85731">
        <ele>1008.63</ele>
        <time>2026-08-26T13:12:48.440Z</time>
      </trkpt>
      <trkpt lat="48.01036" lon="6.85737">
        <ele>1009.23</ele>
        <time>2026-08-26T13:12:53.440Z</time>
      </trkpt>
      <trkpt lat="48.0104" lon="6.85742">
        <ele>1009.91</ele>
        <time>2026-08-26T13:12:57.427Z</time>
      </trkpt>
      <trkpt lat="48.01045" lon="6.85745">
        <ele>1010.5</ele>
        <time>2026-08-26T13:13:05.442Z</time>
      </trkpt>
      <trkpt lat="48.01052" lon="6.85754">
        <ele>1011.63</ele>
        <time>2026-08-26T13:13:13.446Z</time>
      </trkpt>
      <trkpt lat="48.01056" lon="6.85757">
        <ele>1012.46</ele>
        <time>2026-08-26T13:13:22.441Z</time>
      </trkpt>
      <trkpt lat="48.01061" lon="6.85759">
        <ele>1012.78</ele>
        <time>2026-08-26T13:13:28.426Z</time>
      </trkpt>
      <trkpt lat="48.01065" lon="6.85763">
        <ele>1012.97</ele>
        <time>2026-08-26T13:13:32.426Z</time>
      </trkpt>
      <trkpt lat="48.01073" lon="6.85771">
        <ele>1013.22</ele>
        <time>2026-08-26T13:13:42.450Z</time>
      </trkpt>
      <trkpt lat="48.01076" lon="6.85775">
        <ele>1012.84</ele>
        <time>2026-08-26T13:13:54.443Z</time>
      </trkpt>
      <trkpt lat="48.01081" lon="6.85778">
        <ele>1013.27</ele>
        <time>2026-08-26T13:14:03.434Z</time>
      </trkpt>
      <trkpt lat="48.01084" lon="6.85784">
        <ele>1012.72</ele>
        <time>2026-08-26T13:14:10.456Z</time>
      </trkpt>
      <trkpt lat="48.01088" lon="6.85787">
        <ele>1012.88</ele>
        <time>2026-08-26T13:14:14.422Z</time>
      </trkpt>
      <trkpt lat="48.01092" lon="6.8579">
        <ele>1012.61</ele>
        <time>2026-08-26T13:14:22.442Z</time>
      </trkpt>
      <trkpt lat="48.01096" lon="6.85795">
        <ele>1012.31</ele>
        <time>2026-08-26T13:14:26.432Z</time>
      </trkpt>
      <trkpt lat="48.01101" lon="6.85797">
        <ele>1011.97</ele>
        <time>2026-08-26T13:14:32.450Z</time>
      </trkpt>
      <trkpt lat="48.01106" lon="6.85798">
        <ele>1012.01</ele>
        <time>2026-08-26T13:14:37.453Z</time>
      </trkpt>
      <trkpt lat="48.01111" lon="6.85796">
        <ele>1011.96</ele>
        <time>2026-08-26T13:14:42.442Z</time>
      </trkpt>
      <trkpt lat="48.0111" lon="6.85797">
        <ele>1011.96</ele>
        <time>2026-08-26T13:15:02.450Z</time>
      </trkpt>
      <trkpt lat="48.01112" lon="6.85824">
        <ele>1008.85</ele>
      </trkpt>
      <trkpt lat="48.01114" lon="6.85812">
        <ele>1010.38</ele>
      </trkpt>
      <trkpt lat="48.01113" lon="6.85803">
        <ele>1011.39</ele>
      </trkpt>
      <trkpt lat="48.01111" lon="6.85795">
        <ele>1012.39</ele>
      </trkpt>
      <trkpt lat="48.01111" lon="6.85796">
        <ele>1011.9</ele>
        <time>2026-08-26T13:19:41.423Z</time>
      </trkpt>
      <trkpt lat="48.01107" lon="6.85796">
        <ele>1012.51</ele>
        <time>2026-08-26T13:19:47.452Z</time>
      </trkpt>
      <trkpt lat="48.01102" lon="6.85792">
        <ele>1012.46</ele>
        <time>2026-08-26T13:19:55.446Z</time>
      </trkpt>
      <trkpt lat="48.01098" lon="6.8579">
        <ele>1012.77</ele>
        <time>2026-08-26T13:20:00.429Z</time>
      </trkpt>
      <trkpt lat="48.01093" lon="6.85787">
        <ele>1013.05</ele>
        <time>2026-08-26T13:20:06.421Z</time>
      </trkpt>
      <trkpt lat="48.01088" lon="6.85785">
        <ele>1012.88</ele>
        <time>2026-08-26T13:20:12.423Z</time>
      </trkpt>
      <trkpt lat="48.01083" lon="6.85781">
        <ele>1013.14</ele>
        <time>2026-08-26T13:20:18.422Z</time>
      </trkpt>
      <trkpt lat="48.01079" lon="6.85777">
        <ele>1013.27</ele>
        <time>2026-08-26T13:20:24.432Z</time>
      </trkpt>
      <trkpt lat="48.01074" lon="6.85776">
        <ele>1012.84</ele>
        <time>2026-08-26T13:20:30.433Z</time>
      </trkpt>
      <trkpt lat="48.0107" lon="6.85773">
        <ele>1012.76</ele>
        <time>2026-08-26T13:20:35.421Z</time>
      </trkpt>
      <trkpt lat="48.01065" lon="6.8577">
        <ele>1012.64</ele>
        <time>2026-08-26T13:20:40.449Z</time>
      </trkpt>
      <trkpt lat="48.01061" lon="6.85765">
        <ele>1012.47</ele>
        <time>2026-08-26T13:20:45.400Z</time>
      </trkpt>
      <trkpt lat="48.01057" lon="6.8576">
        <ele>1012.16</ele>
        <time>2026-08-26T13:20:50.435Z</time>
      </trkpt>
      <trkpt lat="48.01052" lon="6.85756">
        <ele>1011.63</ele>
        <time>2026-08-26T13:20:55.393Z</time>
      </trkpt>
      <trkpt lat="48.01049" lon="6.85751">
        <ele>1011.07</ele>
        <time>2026-08-26T13:21:00.424Z</time>
      </trkpt>
      <trkpt lat="48.01046" lon="6.85745">
        <ele>1010.5</ele>
        <time>2026-08-26T13:21:06.456Z</time>
      </trkpt>
      <trkpt lat="48.01044" lon="6.85739">
        <ele>1011.07</ele>
        <time>2026-08-26T13:21:19.378Z</time>
      </trkpt>
      <trkpt lat="48.01044" lon="6.85741">
        <ele>1010.78</ele>
        <time>2026-08-26T13:23:35.434Z</time>
      </trkpt>
      <trkpt lat="48.01041" lon="6.85736">
        <ele>1010.18</ele>
        <time>2026-08-26T13:24:34.436Z</time>
      </trkpt>
      <trkpt lat="48.01037" lon="6.85731">
        <ele>1009.75</ele>
        <time>2026-08-26T13:24:41.419Z</time>
      </trkpt>
      <trkpt lat="48.01033" lon="6.85726">
        <ele>1008.88</ele>
        <time>2026-08-26T13:24:47.449Z</time>
      </trkpt>
      <trkpt lat="48.01028" lon="6.85722">
        <ele>1008.02</ele>
        <time>2026-08-26T13:25:00.438Z</time>
      </trkpt>
      <trkpt lat="48.01023" lon="6.85723">
        <ele>1006.88</ele>
        <time>2026-08-26T13:25:08.430Z</time>
      </trkpt>
      <trkpt lat="48.01018" lon="6.85725">
        <ele>1005.47</ele>
        <time>2026-08-26T13:25:12.453Z</time>
      </trkpt>
      <trkpt lat="48.01017" lon="6.85732">
        <ele>1005.04</ele>
        <time>2026-08-26T13:25:19.435Z</time>
      </trkpt>
      <trkpt lat="48.01018" lon="6.85739">
        <ele>1004.82</ele>
        <time>2026-08-26T13:25:24.430Z</time>
      </trkpt>
      <trkpt lat="48.01019" lon="6.85748">
        <ele>1004.38</ele>
        <time>2026-08-26T13:25:29.436Z</time>
      </trkpt>
      <trkpt lat="48.0102" lon="6.85755">
        <ele>1003.98</ele>
        <time>2026-08-26T13:25:33.446Z</time>
      </trkpt>
      <trkpt lat="48.0102" lon="6.85762">
        <ele>1004</ele>
        <time>2026-08-26T13:25:39.430Z</time>
      </trkpt>
      <trkpt lat="48.01018" lon="6.8577">
        <ele>1004.03</ele>
        <time>2026-08-26T13:25:44.426Z</time>
      </trkpt>
      <trkpt lat="48.01016" lon="6.85777">
        <ele>1003.18</ele>
        <time>2026-08-26T13:25:51.460Z</time>
      </trkpt>
      <trkpt lat="48.01013" lon="6.85783">
        <ele>1003.23</ele>
        <time>2026-08-26T13:25:56.447Z</time>
      </trkpt>
      <trkpt lat="48.01011" lon="6.8579">
        <ele>1002.26</ele>
        <time>2026-08-26T13:26:00.455Z</time>
      </trkpt>
      <trkpt lat="48.01012" lon="6.85797">
        <ele>1002.26</ele>
        <time>2026-08-26T13:26:06.439Z</time>
      </trkpt>
      <trkpt lat="48.01012" lon="6.85804">
        <ele>1002.26</ele>
        <time>2026-08-26T13:26:13.433Z</time>
      </trkpt>
      <trkpt lat="48.01014" lon="6.85812">
        <ele>1003.17</ele>
        <time>2026-08-26T13:26:22.427Z</time>
      </trkpt>
      <trkpt lat="48.01015" lon="6.8582">
        <ele>1003.09</ele>
        <time>2026-08-26T13:26:26.448Z</time>
      </trkpt>
      <trkpt lat="48.01014" lon="6.85835">
        <ele>1001.45</ele>
        <time>2026-08-26T13:26:33.446Z</time>
      </trkpt>
      <trkpt lat="48.01014" lon="6.85842">
        <ele>1000.97</ele>
        <time>2026-08-26T13:26:36.445Z</time>
      </trkpt>
      <trkpt lat="48.01013" lon="6.85849">
        <ele>999.26</ele>
        <time>2026-08-26T13:26:42.417Z</time>
      </trkpt>
      <trkpt lat="48.01012" lon="6.85856">
        <ele>998.22</ele>
        <time>2026-08-26T13:26:48.426Z</time>
      </trkpt>
      <trkpt lat="48.0101" lon="6.85864">
        <ele>997.59</ele>
        <time>2026-08-26T13:26:54.442Z</time>
      </trkpt>
      <trkpt lat="48.01009" lon="6.85871">
        <ele>996.3</ele>
        <time>2026-08-26T13:26:58.468Z</time>
      </trkpt>
      <trkpt lat="48.01008" lon="6.85878">
        <ele>993.99</ele>
        <time>2026-08-26T13:27:02.432Z</time>
      </trkpt>
      <trkpt lat="48.01007" lon="6.85886">
        <ele>993.37</ele>
        <time>2026-08-26T13:27:06.585Z</time>
      </trkpt>
      <trkpt lat="48.01008" lon="6.85893">
        <ele>992.11</ele>
        <time>2026-08-26T13:27:22.474Z</time>
      </trkpt>
      <trkpt lat="48.01008" lon="6.85901">
        <ele>990.8</ele>
        <time>2026-08-26T13:27:25.422Z</time>
      </trkpt>
      <trkpt lat="48.01008" lon="6.85909">
        <ele>989.49</ele>
        <time>2026-08-26T13:27:28.502Z</time>
      </trkpt>
      <trkpt lat="48.01008" lon="6.85917">
        <ele>988.18</ele>
        <time>2026-08-26T13:27:31.434Z</time>
      </trkpt>
      <trkpt lat="48.01007" lon="6.85925">
        <ele>986.87</ele>
        <time>2026-08-26T13:27:34.465Z</time>
      </trkpt>
      <trkpt lat="48.01007" lon="6.85933">
        <ele>986.21</ele>
        <time>2026-08-26T13:27:38.448Z</time>
      </trkpt>
      <trkpt lat="48.01008" lon="6.8594">
        <ele>984.91</ele>
        <time>2026-08-26T13:27:42.451Z</time>
      </trkpt>
      <trkpt lat="48.01009" lon="6.85947">
        <ele>984.42</ele>
        <time>2026-08-26T13:27:46.421Z</time>
      </trkpt>
      <trkpt lat="48.01011" lon="6.85954">
        <ele>983.77</ele>
        <time>2026-08-26T13:27:51.444Z</time>
      </trkpt>
      <trkpt lat="48.01014" lon="6.85961">
        <ele>983.41</ele>
        <time>2026-08-26T13:27:57.428Z</time>
      </trkpt>
      <trkpt lat="48.01017" lon="6.85966">
        <ele>983.69</ele>
        <time>2026-08-26T13:28:04.436Z</time>
      </trkpt>
      <trkpt lat="48.0102" lon="6.85972">
        <ele>983.18</ele>
        <time>2026-08-26T13:28:09.436Z</time>
      </trkpt>
      <trkpt lat="48.01023" lon="6.85978">
        <ele>982.96</ele>
        <time>2026-08-26T13:28:16.465Z</time>
      </trkpt>
      <trkpt lat="48.01027" lon="6.85975">
        <ele>984.26</ele>
        <time>2026-08-26T13:28:27.427Z</time>
      </trkpt>
      <trkpt lat="48.01032" lon="6.85979">
        <ele>984.48</ele>
        <time>2026-08-26T13:28:30.479Z</time>
      </trkpt>
      <trkpt lat="48.01036" lon="6.85982">
        <ele>984.66</ele>
        <time>2026-08-26T13:28:32.415Z</time>
      </trkpt>
      <trkpt lat="48.0104" lon="6.85986">
        <ele>984.84</ele>
        <time>2026-08-26T13:28:34.423Z</time>
      </trkpt>
      <trkpt lat="48.01043" lon="6.85992">
        <ele>985.04</ele>
        <time>2026-08-26T13:28:37.447Z</time>
      </trkpt>
      <trkpt lat="48.01046" lon="6.85997">
        <ele>984.6</ele>
        <time>2026-08-26T13:28:41.439Z</time>
      </trkpt>
      <trkpt lat="48.01045" lon="6.86006">
        <ele>983.73</ele>
        <time>2026-08-26T13:28:46.437Z</time>
      </trkpt>
      <trkpt lat="48.01045" lon="6.86015">
        <ele>982.43</ele>
        <time>2026-08-26T13:28:50.430Z</time>
      </trkpt>
      <trkpt lat="48.01044" lon="6.86023">
        <ele>982</ele>
        <time>2026-08-26T13:28:55.438Z</time>
      </trkpt>
      <trkpt lat="48.01048" lon="6.86024">
        <ele>982.27</ele>
        <time>2026-08-26T13:34:28.469Z</time>
      </trkpt>
      <trkpt lat="48.01052" lon="6.86021">
        <ele>983.32</ele>
        <time>2026-08-26T13:34:32.447Z</time>
      </trkpt>
      <trkpt lat="48.01053" lon="6.86031">
        <ele>982.42</ele>
        <time>2026-08-26T13:34:36.435Z</time>
      </trkpt>
      <trkpt lat="48.01054" lon="6.8604">
        <ele>981.45</ele>
        <time>2026-08-26T13:34:38.441Z</time>
      </trkpt>
      <trkpt lat="48.01055" lon="6.86047">
        <ele>980.48</ele>
        <time>2026-08-26T13:34:40.423Z</time>
      </trkpt>
      <trkpt lat="48.01056" lon="6.86053">
        <ele>980.62</ele>
        <time>2026-08-26T13:34:42.442Z</time>
      </trkpt>
      <trkpt lat="48.01056" lon="6.8606">
        <ele>979.67</ele>
        <time>2026-08-26T13:34:45.412Z</time>
      </trkpt>
      <trkpt lat="48.01057" lon="6.86067">
        <ele>978.66</ele>
        <time>2026-08-26T13:34:49.446Z</time>
      </trkpt>
      <trkpt lat="48.01062" lon="6.86066">
        <ele>979.83</ele>
        <time>2026-08-26T13:34:59.442Z</time>
      </trkpt>
      <trkpt lat="48.01065" lon="6.86061">
        <ele>980.96</ele>
        <time>2026-08-26T13:35:02.427Z</time>
      </trkpt>
      <trkpt lat="48.01069" lon="6.86067">
        <ele>980.64</ele>
        <time>2026-08-26T13:35:10.431Z</time>
      </trkpt>
      <trkpt lat="48.01073" lon="6.86071">
        <ele>980.73</ele>
        <time>2026-08-26T13:35:14.412Z</time>
      </trkpt>
      <trkpt lat="48.01076" lon="6.86075">
        <ele>980.26</ele>
        <time>2026-08-26T13:35:18.445Z</time>
      </trkpt>
      <trkpt lat="48.01079" lon="6.86081">
        <ele>980.35</ele>
        <time>2026-08-26T13:35:23.394Z</time>
      </trkpt>
      <trkpt lat="48.01083" lon="6.86085">
        <ele>980.45</ele>
        <time>2026-08-26T13:35:28.416Z</time>
      </trkpt>
      <trkpt lat="48.01087" lon="6.86091">
        <ele>980.57</ele>
        <time>2026-08-26T13:35:33.460Z</time>
      </trkpt>
      <trkpt lat="48.01091" lon="6.86088">
        <ele>981.13</ele>
        <time>2026-08-26T13:35:39.452Z</time>
      </trkpt>
      <trkpt lat="48.01097" lon="6.86087">
        <ele>982.07</ele>
        <time>2026-08-26T13:35:42.441Z</time>
      </trkpt>
      <trkpt lat="48.01102" lon="6.86087">
        <ele>982.56</ele>
        <time>2026-08-26T13:35:44.432Z</time>
      </trkpt>
      <trkpt lat="48.01107" lon="6.86088">
        <ele>983.12</ele>
        <time>2026-08-26T13:35:46.457Z</time>
      </trkpt>
      <trkpt lat="48.01114" lon="6.86091">
        <ele>983.61</ele>
        <time>2026-08-26T13:35:49.457Z</time>
      </trkpt>
      <trkpt lat="48.01118" lon="6.86092">
        <ele>983.68</ele>
        <time>2026-08-26T13:35:52.454Z</time>
      </trkpt>
      <trkpt lat="48.01123" lon="6.86093">
        <ele>984.11</ele>
        <time>2026-08-26T13:35:57.460Z</time>
      </trkpt>
      <trkpt lat="48.01128" lon="6.86092">
        <ele>984.54</ele>
        <time>2026-08-26T13:36:07.449Z</time>
      </trkpt>
      <trkpt lat="48.01133" lon="6.86092">
        <ele>985.76</ele>
        <time>2026-08-26T13:36:13.452Z</time>
      </trkpt>
      <trkpt lat="48.01138" lon="6.86091">
        <ele>986.17</ele>
        <time>2026-08-26T13:36:16.455Z</time>
      </trkpt>
      <trkpt lat="48.01143" lon="6.86091">
        <ele>986.55</ele>
        <time>2026-08-26T13:36:21.435Z</time>
      </trkpt>
      <trkpt lat="48.01147" lon="6.86092">
        <ele>986.55</ele>
        <time>2026-08-26T13:36:26.433Z</time>
      </trkpt>
      <trkpt lat="48.01152" lon="6.86093">
        <ele>986.92</ele>
        <time>2026-08-26T13:36:31.456Z</time>
      </trkpt>
      <trkpt lat="48.01157" lon="6.86095">
        <ele>987.3</ele>
        <time>2026-08-26T13:36:39.457Z</time>
      </trkpt>
      <trkpt lat="48.01161" lon="6.86098">
        <ele>987.28</ele>
        <time>2026-08-26T13:36:44.444Z</time>
      </trkpt>
      <trkpt lat="48.01166" lon="6.86101">
        <ele>987.17</ele>
        <time>2026-08-26T13:36:48.450Z</time>
      </trkpt>
      <trkpt lat="48.01171" lon="6.86104">
        <ele>987.85</ele>
        <time>2026-08-26T13:36:55.441Z</time>
      </trkpt>
      <trkpt lat="48.01176" lon="6.86106">
        <ele>987.59</ele>
        <time>2026-08-26T13:36:59.457Z</time>
      </trkpt>
      <trkpt lat="48.01181" lon="6.86109">
        <ele>987.93</ele>
        <time>2026-08-26T13:37:04.449Z</time>
      </trkpt>
      <trkpt lat="48.01186" lon="6.86111">
        <ele>987.61</ele>
        <time>2026-08-26T13:37:09.461Z</time>
      </trkpt>
      <trkpt lat="48.01191" lon="6.86112">
        <ele>987.95</ele>
        <time>2026-08-26T13:37:13.434Z</time>
      </trkpt>
      <trkpt lat="48.01196" lon="6.86113">
        <ele>988.29</ele>
        <time>2026-08-26T13:37:16.439Z</time>
      </trkpt>
      <trkpt lat="48.012" lon="6.86116">
        <ele>987.93</ele>
        <time>2026-08-26T13:37:22.435Z</time>
      </trkpt>
      <trkpt lat="48.01206" lon="6.86118">
        <ele>988.24</ele>
        <time>2026-08-26T13:37:26.440Z</time>
      </trkpt>
      <trkpt lat="48.01211" lon="6.8612">
        <ele>988.27</ele>
        <time>2026-08-26T13:37:30.450Z</time>
      </trkpt>
      <trkpt lat="48.01214" lon="6.86126">
        <ele>987.91</ele>
        <time>2026-08-26T13:37:39.444Z</time>
      </trkpt>
      <trkpt lat="48.01219" lon="6.8613">
        <ele>987.19</ele>
        <time>2026-08-26T13:37:44.437Z</time>
      </trkpt>
      <trkpt lat="48.01223" lon="6.86132">
        <ele>987.17</ele>
        <time>2026-08-26T13:37:48.453Z</time>
      </trkpt>
      <trkpt lat="48.01227" lon="6.86134">
        <ele>987.6</ele>
        <time>2026-08-26T13:37:55.438Z</time>
      </trkpt>
      <trkpt lat="48.01233" lon="6.86137">
        <ele>987.4</ele>
        <time>2026-08-26T13:38:01.456Z</time>
      </trkpt>
      <trkpt lat="48.01238" lon="6.86138">
        <ele>987.92</ele>
        <time>2026-08-26T13:38:05.453Z</time>
      </trkpt>
      <trkpt lat="48.01243" lon="6.86138">
        <ele>988.43</ele>
        <time>2026-08-26T13:38:09.439Z</time>
      </trkpt>
      <trkpt lat="48.01249" lon="6.86139">
        <ele>989.48</ele>
        <time>2026-08-26T13:38:13.446Z</time>
      </trkpt>
      <trkpt lat="48.01253" lon="6.8614">
        <ele>989.49</ele>
        <time>2026-08-26T13:38:17.448Z</time>
      </trkpt>
      <trkpt lat="48.01258" lon="6.86137">
        <ele>990.69</ele>
        <time>2026-08-26T13:38:27.450Z</time>
      </trkpt>
      <trkpt lat="48.01263" lon="6.86137">
        <ele>991.28</ele>
        <time>2026-08-26T13:38:31.445Z</time>
      </trkpt>
      <trkpt lat="48.01267" lon="6.86137">
        <ele>991.87</ele>
        <time>2026-08-26T13:38:35.457Z</time>
      </trkpt>
      <trkpt lat="48.01272" lon="6.86136">
        <ele>992.46</ele>
        <time>2026-08-26T13:38:39.446Z</time>
      </trkpt>
      <trkpt lat="48.01278" lon="6.86134">
        <ele>993.47</ele>
        <time>2026-08-26T13:38:44.455Z</time>
      </trkpt>
      <trkpt lat="48.01282" lon="6.86134">
        <ele>993.99</ele>
        <time>2026-08-26T13:38:47.451Z</time>
      </trkpt>
      <trkpt lat="48.01287" lon="6.86133">
        <ele>995.02</ele>
        <time>2026-08-26T13:38:51.456Z</time>
      </trkpt>
      <trkpt lat="48.01292" lon="6.86131">
        <ele>995.52</ele>
        <time>2026-08-26T13:39:01.449Z</time>
      </trkpt>
      <trkpt lat="48.01297" lon="6.86135">
        <ele>995.96</ele>
        <time>2026-08-26T13:39:11.445Z</time>
      </trkpt>
      <trkpt lat="48.013" lon="6.86141">
        <ele>995.45</ele>
        <time>2026-08-26T13:39:21.443Z</time>
      </trkpt>
      <trkpt lat="48.013" lon="6.86148">
        <ele>994.89</ele>
        <time>2026-08-26T13:39:27.509Z</time>
      </trkpt>
      <trkpt lat="48.01301" lon="6.86155">
        <ele>995.12</ele>
        <time>2026-08-26T13:39:32.438Z</time>
      </trkpt>
      <trkpt lat="48.01298" lon="6.86161">
        <ele>994</ele>
        <time>2026-08-26T13:39:38.433Z</time>
      </trkpt>
      <trkpt lat="48.01296" lon="6.86168">
        <ele>993.09</ele>
        <time>2026-08-26T13:39:47.436Z</time>
      </trkpt>
      <trkpt lat="48.01299" lon="6.86175">
        <ele>993.11</ele>
        <time>2026-08-26T13:39:50.441Z</time>
      </trkpt>
      <trkpt lat="48.01301" lon="6.86182">
        <ele>993.42</ele>
        <time>2026-08-26T13:39:53.433Z</time>
      </trkpt>
      <trkpt lat="48.01304" lon="6.86187">
        <ele>992.66</ele>
        <time>2026-08-26T13:39:58.454Z</time>
      </trkpt>
      <trkpt lat="48.01307" lon="6.86193">
        <ele>992.91</ele>
        <time>2026-08-26T13:40:02.453Z</time>
      </trkpt>
      <trkpt lat="48.01309" lon="6.86199">
        <ele>993.15</ele>
        <time>2026-08-26T13:40:05.439Z</time>
      </trkpt>
      <trkpt lat="48.01311" lon="6.86207">
        <ele>992.38</ele>
        <time>2026-08-26T13:40:08.427Z</time>
      </trkpt>
      <trkpt lat="48.01313" lon="6.86213">
        <ele>991.51</ele>
        <time>2026-08-26T13:40:12.449Z</time>
      </trkpt>
      <trkpt lat="48.01317" lon="6.86217">
        <ele>991.44</ele>
        <time>2026-08-26T13:40:19.456Z</time>
      </trkpt>
      <trkpt lat="48.01321" lon="6.8622">
        <ele>991.94</ele>
        <time>2026-08-26T13:40:24.447Z</time>
      </trkpt>
      <trkpt lat="48.01326" lon="6.86223">
        <ele>992.27</ele>
        <time>2026-08-26T13:40:29.455Z</time>
      </trkpt>
      <trkpt lat="48.0133" lon="6.86227">
        <ele>991.61</ele>
        <time>2026-08-26T13:40:34.458Z</time>
      </trkpt>
      <trkpt lat="48.01335" lon="6.86229">
        <ele>992.6</ele>
        <time>2026-08-26T13:40:39.459Z</time>
      </trkpt>
      <trkpt lat="48.01339" lon="6.86233">
        <ele>992.33</ele>
        <time>2026-08-26T13:40:43.456Z</time>
      </trkpt>
      <trkpt lat="48.01343" lon="6.86238">
        <ele>991.46</ele>
        <time>2026-08-26T13:40:48.443Z</time>
      </trkpt>
      <trkpt lat="48.01348" lon="6.86244">
        <ele>991.25</ele>
        <time>2026-08-26T13:40:53.443Z</time>
      </trkpt>
      <trkpt lat="48.01352" lon="6.86249">
        <ele>991.05</ele>
        <time>2026-08-26T13:40:57.455Z</time>
      </trkpt>
      <trkpt lat="48.01355" lon="6.86254">
        <ele>990.31</ele>
        <time>2026-08-26T13:41:02.453Z</time>
      </trkpt>
      <trkpt lat="48.01359" lon="6.8626">
        <ele>989.17</ele>
        <time>2026-08-26T13:41:08.441Z</time>
      </trkpt>
      <trkpt lat="48.01362" lon="6.86265">
        <ele>988.73</ele>
        <time>2026-08-26T13:41:12.434Z</time>
      </trkpt>
      <trkpt lat="48.01366" lon="6.8627">
        <ele>988.32</ele>
        <time>2026-08-26T13:41:16.446Z</time>
      </trkpt>
      <trkpt lat="48.0137" lon="6.86274">
        <ele>987.94</ele>
        <time>2026-08-26T13:41:21.457Z</time>
      </trkpt>
      <trkpt lat="48.01374" lon="6.86279">
        <ele>987.62</ele>
        <time>2026-08-26T13:41:26.460Z</time>
      </trkpt>
      <trkpt lat="48.01378" lon="6.86283">
        <ele>987.31</ele>
        <time>2026-08-26T13:41:34.445Z</time>
      </trkpt>
      <trkpt lat="48.01381" lon="6.86288">
        <ele>986.62</ele>
        <time>2026-08-26T13:41:39.462Z</time>
      </trkpt>
      <trkpt lat="48.01386" lon="6.86292">
        <ele>986.24</ele>
        <time>2026-08-26T13:41:43.442Z</time>
      </trkpt>
      <trkpt lat="48.0139" lon="6.86298">
        <ele>985.92</ele>
        <time>2026-08-26T13:41:47.446Z</time>
      </trkpt>
      <trkpt lat="48.01394" lon="6.86303">
        <ele>985.11</ele>
        <time>2026-08-26T13:41:51.433Z</time>
      </trkpt>
      <trkpt lat="48.01398" lon="6.86308">
        <ele>985.02</ele>
        <time>2026-08-26T13:41:55.429Z</time>
      </trkpt>
      <trkpt lat="48.01401" lon="6.86313">
        <ele>984.93</ele>
        <time>2026-08-26T13:42:02.443Z</time>
      </trkpt>
      <trkpt lat="48.01404" lon="6.86319">
        <ele>984.5</ele>
        <time>2026-08-26T13:42:07.457Z</time>
      </trkpt>
      <trkpt lat="48.01407" lon="6.86326">
        <ele>983.42</ele>
        <time>2026-08-26T13:42:11.442Z</time>
      </trkpt>
      <trkpt lat="48.01409" lon="6.86332">
        <ele>982.82</ele>
        <time>2026-08-26T13:42:16.460Z</time>
      </trkpt>
      <trkpt lat="48.01412" lon="6.86337">
        <ele>981.68</ele>
        <time>2026-08-26T13:42:21.441Z</time>
      </trkpt>
      <trkpt lat="48.01415" lon="6.86343">
        <ele>981.11</ele>
        <time>2026-08-26T13:42:26.451Z</time>
      </trkpt>
      <trkpt lat="48.01417" lon="6.8635">
        <ele>979.99</ele>
        <time>2026-08-26T13:42:31.430Z</time>
      </trkpt>
      <trkpt lat="48.0142" lon="6.86356">
        <ele>979.4</ele>
        <time>2026-08-26T13:42:37.449Z</time>
      </trkpt>
      <trkpt lat="48.01423" lon="6.86362">
        <ele>978.7</ele>
        <time>2026-08-26T13:42:41.463Z</time>
      </trkpt>
      <trkpt lat="48.01428" lon="6.86364">
        <ele>977.84</ele>
        <time>2026-08-26T13:42:52.456Z</time>
      </trkpt>
      <trkpt lat="48.01432" lon="6.86365">
        <ele>977.58</ele>
        <time>2026-08-26T13:42:56.436Z</time>
      </trkpt>
      <trkpt lat="48.01437" lon="6.86365">
        <ele>977.31</ele>
        <time>2026-08-26T13:43:00.447Z</time>
      </trkpt>
      <trkpt lat="48.01442" lon="6.86365">
        <ele>976.78</ele>
        <time>2026-08-26T13:43:05.458Z</time>
      </trkpt>
      <trkpt lat="48.01447" lon="6.86363">
        <ele>976.61</ele>
        <time>2026-08-26T13:43:10.454Z</time>
      </trkpt>
      <trkpt lat="48.01452" lon="6.8636">
        <ele>976.9</ele>
        <time>2026-08-26T13:43:15.451Z</time>
      </trkpt>
      <trkpt lat="48.01457" lon="6.86358">
        <ele>977.21</ele>
        <time>2026-08-26T13:43:20.446Z</time>
      </trkpt>
      <trkpt lat="48.01462" lon="6.86356">
        <ele>977.06</ele>
        <time>2026-08-26T13:43:25.446Z</time>
      </trkpt>
      <trkpt lat="48.01467" lon="6.86355">
        <ele>976.9</ele>
        <time>2026-08-26T13:43:28.458Z</time>
      </trkpt>
      <trkpt lat="48.01471" lon="6.86353">
        <ele>977.27</ele>
        <time>2026-08-26T13:43:32.451Z</time>
      </trkpt>
      <trkpt lat="48.01476" lon="6.86351">
        <ele>977.05</ele>
        <time>2026-08-26T13:43:37.421Z</time>
      </trkpt>
      <trkpt lat="48.01482" lon="6.86349">
        <ele>977.41</ele>
        <time>2026-08-26T13:43:41.433Z</time>
      </trkpt>
      <trkpt lat="48.01487" lon="6.86349">
        <ele>977.29</ele>
        <time>2026-08-26T13:43:44.458Z</time>
      </trkpt>
      <trkpt lat="48.01491" lon="6.86349">
        <ele>977.11</ele>
        <time>2026-08-26T13:43:48.443Z</time>
      </trkpt>
      <trkpt lat="48.01496" lon="6.86348">
        <ele>976.82</ele>
        <time>2026-08-26T13:43:54.459Z</time>
      </trkpt>
      <trkpt lat="48.01501" lon="6.86347">
        <ele>976.51</ele>
        <time>2026-08-26T13:43:58.457Z</time>
      </trkpt>
      <trkpt lat="48.01506" lon="6.86345">
        <ele>976.35</ele>
        <time>2026-08-26T13:44:04.490Z</time>
      </trkpt>
      <trkpt lat="48.01511" lon="6.86343">
        <ele>976</ele>
        <time>2026-08-26T13:44:09.424Z</time>
      </trkpt>
      <trkpt lat="48.01516" lon="6.86345">
        <ele>975.04</ele>
        <time>2026-08-26T13:44:13.455Z</time>
      </trkpt>
      <trkpt lat="48.01519" lon="6.86352">
        <ele>974.6</ele>
        <time>2026-08-26T13:44:19.429Z</time>
      </trkpt>
      <trkpt lat="48.01519" lon="6.86359">
        <ele>973.7</ele>
        <time>2026-08-26T13:44:22.449Z</time>
      </trkpt>
      <trkpt lat="48.01516" lon="6.86365">
        <ele>973.26</ele>
        <time>2026-08-26T13:44:25.444Z</time>
      </trkpt>
      <trkpt lat="48.01514" lon="6.86372">
        <ele>972.95</ele>
        <time>2026-08-26T13:44:29.427Z</time>
      </trkpt>
      <trkpt lat="48.01511" lon="6.86379">
        <ele>972.54</ele>
        <time>2026-08-26T13:44:35.441Z</time>
      </trkpt>
      <trkpt lat="48.01507" lon="6.86385">
        <ele>972.1</ele>
        <time>2026-08-26T13:44:39.448Z</time>
      </trkpt>
      <trkpt lat="48.01504" lon="6.86392">
        <ele>972.01</ele>
        <time>2026-08-26T13:44:43.455Z</time>
      </trkpt>
      <trkpt lat="48.01501" lon="6.86397">
        <ele>971.93</ele>
        <time>2026-08-26T13:44:47.442Z</time>
      </trkpt>
      <trkpt lat="48.01497" lon="6.86401">
        <ele>971.88</ele>
        <time>2026-08-26T13:44:57.435Z</time>
      </trkpt>
      <trkpt lat="48.01495" lon="6.86408">
        <ele>971.18</ele>
        <time>2026-08-26T13:45:03.452Z</time>
      </trkpt>
      <trkpt lat="48.01493" lon="6.86415">
        <ele>970.47</ele>
        <time>2026-08-26T13:45:25.431Z</time>
      </trkpt>
      <trkpt lat="48.01492" lon="6.86421">
        <ele>970.42</ele>
        <time>2026-08-26T13:45:31.465Z</time>
      </trkpt>
      <trkpt lat="48.01488" lon="6.86425">
        <ele>970.31</ele>
        <time>2026-08-26T13:45:41.462Z</time>
      </trkpt>
      <trkpt lat="48.01485" lon="6.86432">
        <ele>969.61</ele>
        <time>2026-08-26T13:45:49.431Z</time>
      </trkpt>
      <trkpt lat="48.01479" lon="6.86443">
        <ele>969.01</ele>
        <time>2026-08-26T13:46:02.508Z</time>
      </trkpt>
      <trkpt lat="48.01478" lon="6.8645">
        <ele>968.28</ele>
        <time>2026-08-26T13:46:06.432Z</time>
      </trkpt>
      <trkpt lat="48.01478" lon="6.86456">
        <ele>967.91</ele>
        <time>2026-08-26T13:46:09.459Z</time>
      </trkpt>
      <trkpt lat="48.01477" lon="6.86463">
        <ele>967.18</ele>
        <time>2026-08-26T13:46:17.445Z</time>
      </trkpt>
      <trkpt lat="48.01476" lon="6.8647">
        <ele>966.38</ele>
        <time>2026-08-26T13:46:22.439Z</time>
      </trkpt>
      <trkpt lat="48.01476" lon="6.86479">
        <ele>965.62</ele>
        <time>2026-08-26T13:46:26.439Z</time>
      </trkpt>
      <trkpt lat="48.01476" lon="6.86486">
        <ele>965.23</ele>
        <time>2026-08-26T13:46:31.454Z</time>
      </trkpt>
      <trkpt lat="48.01475" lon="6.86493">
        <ele>964.46</ele>
        <time>2026-08-26T13:46:34.413Z</time>
      </trkpt>
      <trkpt lat="48.01475" lon="6.865">
        <ele>963.56</ele>
        <time>2026-08-26T13:46:37.432Z</time>
      </trkpt>
      <trkpt lat="48.01479" lon="6.86501">
        <ele>963.7</ele>
        <time>2026-08-26T13:46:49.442Z</time>
      </trkpt>
      <trkpt lat="48.01482" lon="6.86507">
        <ele>963.45</ele>
        <time>2026-08-26T13:46:52.446Z</time>
      </trkpt>
      <trkpt lat="48.01482" lon="6.86514">
        <ele>962.66</ele>
        <time>2026-08-26T13:46:55.430Z</time>
      </trkpt>
      <trkpt lat="48.01482" lon="6.86521">
        <ele>961.88</ele>
        <time>2026-08-26T13:47:03.432Z</time>
      </trkpt>
      <trkpt lat="48.01485" lon="6.86526">
        <ele>961.78</ele>
        <time>2026-08-26T13:47:27.441Z</time>
      </trkpt>
      <trkpt lat="48.0149" lon="6.86527">
        <ele>962.05</ele>
        <time>2026-08-26T13:47:33.455Z</time>
      </trkpt>
      <trkpt lat="48.01495" lon="6.86528">
        <ele>962.32</ele>
        <time>2026-08-26T13:47:37.433Z</time>
      </trkpt>
      <trkpt lat="48.015" lon="6.8653">
        <ele>962.57</ele>
        <time>2026-08-26T13:47:44.466Z</time>
      </trkpt>
      <trkpt lat="48.01504" lon="6.86534">
        <ele>962.62</ele>
        <time>2026-08-26T13:47:48.432Z</time>
      </trkpt>
      <trkpt lat="48.01507" lon="6.86539">
        <ele>962.55</ele>
        <time>2026-08-26T13:47:53.455Z</time>
      </trkpt>
      <trkpt lat="48.0151" lon="6.86547">
        <ele>962.4</ele>
        <time>2026-08-26T13:47:58.425Z</time>
      </trkpt>
      <trkpt lat="48.01511" lon="6.86554">
        <ele>962.45</ele>
        <time>2026-08-26T13:48:02.460Z</time>
      </trkpt>
      <trkpt lat="48.01511" lon="6.86562">
        <ele>962.22</ele>
        <time>2026-08-26T13:48:07.466Z</time>
      </trkpt>
      <trkpt lat="48.01512" lon="6.8657">
        <ele>961.9</ele>
        <time>2026-08-26T13:48:11.452Z</time>
      </trkpt>
      <trkpt lat="48.01514" lon="6.86577">
        <ele>961.74</ele>
        <time>2026-08-26T13:48:16.438Z</time>
      </trkpt>
      <trkpt lat="48.01515" lon="6.86583">
        <ele>961.96</ele>
        <time>2026-08-26T13:48:21.520Z</time>
      </trkpt>
      <trkpt lat="48.01516" lon="6.8659">
        <ele>961.69</ele>
        <time>2026-08-26T13:48:25.439Z</time>
      </trkpt>
      <trkpt lat="48.01517" lon="6.86597">
        <ele>961.55</ele>
        <time>2026-08-26T13:48:28.431Z</time>
      </trkpt>
      <trkpt lat="48.01517" lon="6.86604">
        <ele>961.26</ele>
        <time>2026-08-26T13:48:32.444Z</time>
      </trkpt>
      <trkpt lat="48.01518" lon="6.86611">
        <ele>961.12</ele>
        <time>2026-08-26T13:48:36.434Z</time>
      </trkpt>
      <trkpt lat="48.01518" lon="6.86619">
        <ele>960.83</ele>
        <time>2026-08-26T13:48:41.438Z</time>
      </trkpt>
      <trkpt lat="48.01519" lon="6.86626">
        <ele>960.55</ele>
        <time>2026-08-26T13:48:46.442Z</time>
      </trkpt>
      <trkpt lat="48.01521" lon="6.86633">
        <ele>961.2</ele>
        <time>2026-08-26T13:48:51.437Z</time>
      </trkpt>
      <trkpt lat="48.01523" lon="6.8664">
        <ele>961.14</ele>
        <time>2026-08-26T13:48:57.466Z</time>
      </trkpt>
      <trkpt lat="48.01524" lon="6.86647">
        <ele>961.74</ele>
        <time>2026-08-26T13:49:03.444Z</time>
      </trkpt>
      <trkpt lat="48.01524" lon="6.86656">
        <ele>961.66</ele>
        <time>2026-08-26T13:49:07.435Z</time>
      </trkpt>
      <trkpt lat="48.01524" lon="6.86664">
        <ele>961.59</ele>
        <time>2026-08-26T13:49:11.451Z</time>
      </trkpt>
      <trkpt lat="48.01524" lon="6.86672">
        <ele>961.59</ele>
        <time>2026-08-26T13:49:15.463Z</time>
      </trkpt>
      <trkpt lat="48.01524" lon="6.8668">
        <ele>961.61</ele>
        <time>2026-08-26T13:49:19.453Z</time>
      </trkpt>
      <trkpt lat="48.01524" lon="6.8669">
        <ele>961.61</ele>
        <time>2026-08-26T13:49:23.451Z</time>
      </trkpt>
      <trkpt lat="48.01525" lon="6.86697">
        <ele>961.62</ele>
        <time>2026-08-26T13:49:29.451Z</time>
      </trkpt>
      <trkpt lat="48.01524" lon="6.86704">
        <ele>961.61</ele>
        <time>2026-08-26T13:49:36.496Z</time>
      </trkpt>
      <trkpt lat="48.01524" lon="6.86712">
        <ele>961.6</ele>
        <time>2026-08-26T13:49:41.459Z</time>
      </trkpt>
      <trkpt lat="48.01523" lon="6.86719">
        <ele>961.37</ele>
        <time>2026-08-26T13:49:45.459Z</time>
      </trkpt>
      <trkpt lat="48.01522" lon="6.86726">
        <ele>961.37</ele>
        <time>2026-08-26T13:49:49.420Z</time>
      </trkpt>
      <trkpt lat="48.01521" lon="6.86734">
        <ele>961.38</ele>
        <time>2026-08-26T13:49:54.444Z</time>
      </trkpt>
      <trkpt lat="48.01521" lon="6.8674">
        <ele>961.46</ele>
        <time>2026-08-26T13:50:00.431Z</time>
      </trkpt>
      <trkpt lat="48.0152" lon="6.86747">
        <ele>961.5</ele>
        <time>2026-08-26T13:50:04.446Z</time>
      </trkpt>
      <trkpt lat="48.0152" lon="6.86755">
        <ele>961.59</ele>
        <time>2026-08-26T13:50:09.452Z</time>
      </trkpt>
      <trkpt lat="48.01521" lon="6.86762">
        <ele>961.69</ele>
        <time>2026-08-26T13:50:15.458Z</time>
      </trkpt>
      <trkpt lat="48.01523" lon="6.86769">
        <ele>961.69</ele>
        <time>2026-08-26T13:50:20.440Z</time>
      </trkpt>
      <trkpt lat="48.01523" lon="6.86777">
        <ele>961.63</ele>
        <time>2026-08-26T13:50:24.435Z</time>
      </trkpt>
      <trkpt lat="48.01524" lon="6.86783">
        <ele>962.08</ele>
        <time>2026-08-26T13:50:28.441Z</time>
      </trkpt>
      <trkpt lat="48.01526" lon="6.8679">
        <ele>962.1</ele>
        <time>2026-08-26T13:50:33.433Z</time>
      </trkpt>
      <trkpt lat="48.01527" lon="6.86796">
        <ele>962.14</ele>
        <time>2026-08-26T13:50:37.432Z</time>
      </trkpt>
      <trkpt lat="48.01529" lon="6.86804">
        <ele>962.8</ele>
        <time>2026-08-26T13:50:42.450Z</time>
      </trkpt>
      <trkpt lat="48.01531" lon="6.86811">
        <ele>962.89</ele>
        <time>2026-08-26T13:50:48.436Z</time>
      </trkpt>
      <trkpt lat="48.01533" lon="6.86819">
        <ele>963.84</ele>
        <time>2026-08-26T13:50:53.459Z</time>
      </trkpt>
      <trkpt lat="48.01535" lon="6.86826">
        <ele>964.05</ele>
        <time>2026-08-26T13:50:57.437Z</time>
      </trkpt>
      <trkpt lat="48.01537" lon="6.86833">
        <ele>965.14</ele>
        <time>2026-08-26T13:51:01.510Z</time>
      </trkpt>
      <trkpt lat="48.0154" lon="6.8684">
        <ele>965.41</ele>
        <time>2026-08-26T13:51:07.436Z</time>
      </trkpt>
      <trkpt lat="48.01543" lon="6.86846">
        <ele>966.38</ele>
        <time>2026-08-26T13:51:13.464Z</time>
      </trkpt>
      <trkpt lat="48.01547" lon="6.86852">
        <ele>967.13</ele>
        <time>2026-08-26T13:51:17.504Z</time>
      </trkpt>
      <trkpt lat="48.0155" lon="6.86858">
        <ele>967.73</ele>
        <time>2026-08-26T13:51:21.447Z</time>
      </trkpt>
      <trkpt lat="48.01554" lon="6.86864">
        <ele>968.38</ele>
        <time>2026-08-26T13:51:26.452Z</time>
      </trkpt>
      <trkpt lat="48.01559" lon="6.86867">
        <ele>969.07</ele>
        <time>2026-08-26T13:51:33.464Z</time>
      </trkpt>
      <trkpt lat="48.01567" lon="6.86874">
        <ele>969.92</ele>
        <time>2026-08-26T13:54:19.449Z</time>
      </trkpt>
      <trkpt lat="48.01572" lon="6.86875">
        <ele>969.89</ele>
        <time>2026-08-26T13:54:23.450Z</time>
      </trkpt>
      <trkpt lat="48.01577" lon="6.86874">
        <ele>969.85</ele>
        <time>2026-08-26T13:54:29.449Z</time>
      </trkpt>
      <trkpt lat="48.01581" lon="6.86872">
        <ele>969.32</ele>
        <time>2026-08-26T13:54:36.439Z</time>
      </trkpt>
      <trkpt lat="48.01586" lon="6.86869">
        <ele>968.75</ele>
        <time>2026-08-26T13:54:40.457Z</time>
      </trkpt>
      <trkpt lat="48.01591" lon="6.86866">
        <ele>968.29</ele>
        <time>2026-08-26T13:54:45.429Z</time>
      </trkpt>
      <trkpt lat="48.01596" lon="6.86864">
        <ele>967.38</ele>
        <time>2026-08-26T13:54:50.433Z</time>
      </trkpt>
      <trkpt lat="48.01601" lon="6.86862">
        <ele>966.3</ele>
        <time>2026-08-26T13:54:54.449Z</time>
      </trkpt>
      <trkpt lat="48.01606" lon="6.86862">
        <ele>965.74</ele>
        <time>2026-08-26T13:54:58.446Z</time>
      </trkpt>
      <trkpt lat="48.0161" lon="6.86863">
        <ele>965.1</ele>
        <time>2026-08-26T13:55:03.439Z</time>
      </trkpt>
      <trkpt lat="48.01615" lon="6.86862">
        <ele>964.4</ele>
        <time>2026-08-26T13:55:07.453Z</time>
      </trkpt>
      <trkpt lat="48.0162" lon="6.86863">
        <ele>963.71</ele>
        <time>2026-08-26T13:55:12.447Z</time>
      </trkpt>
      <trkpt lat="48.01625" lon="6.86864">
        <ele>963.01</ele>
        <time>2026-08-26T13:55:15.459Z</time>
      </trkpt>
      <trkpt lat="48.0163" lon="6.86865">
        <ele>962.66</ele>
        <time>2026-08-26T13:55:19.451Z</time>
      </trkpt>
      <trkpt lat="48.01635" lon="6.86867">
        <ele>962.05</ele>
        <time>2026-08-26T13:55:24.434Z</time>
      </trkpt>
      <trkpt lat="48.0164" lon="6.86869">
        <ele>961.33</ele>
        <time>2026-08-26T13:55:31.455Z</time>
      </trkpt>
      <trkpt lat="48.01644" lon="6.8687">
        <ele>960.82</ele>
        <time>2026-08-26T13:55:36.470Z</time>
      </trkpt>
      <trkpt lat="48.01649" lon="6.86872">
        <ele>960.32</ele>
        <time>2026-08-26T13:55:43.439Z</time>
      </trkpt>
      <trkpt lat="48.01654" lon="6.86876">
        <ele>960.11</ele>
        <time>2026-08-26T13:55:49.447Z</time>
      </trkpt>
      <trkpt lat="48.01659" lon="6.86875">
        <ele>959.89</ele>
        <time>2026-08-26T13:56:00.450Z</time>
      </trkpt>
      <trkpt lat="48.01664" lon="6.86874">
        <ele>959.69</ele>
        <time>2026-08-26T13:56:04.458Z</time>
      </trkpt>
      <trkpt lat="48.01669" lon="6.86869">
        <ele>959.35</ele>
        <time>2026-08-26T13:56:09.467Z</time>
      </trkpt>
      <trkpt lat="48.01673" lon="6.86865">
        <ele>959.03</ele>
        <time>2026-08-26T13:56:12.443Z</time>
      </trkpt>
      <trkpt lat="48.01678" lon="6.86862">
        <ele>958.8</ele>
        <time>2026-08-26T13:56:15.445Z</time>
      </trkpt>
      <trkpt lat="48.01682" lon="6.86856">
        <ele>958.78</ele>
        <time>2026-08-26T13:56:20.445Z</time>
      </trkpt>
      <trkpt lat="48.01685" lon="6.86851">
        <ele>958.7</ele>
        <time>2026-08-26T13:56:25.459Z</time>
      </trkpt>
      <trkpt lat="48.01689" lon="6.86846">
        <ele>958.72</ele>
        <time>2026-08-26T13:56:28.443Z</time>
      </trkpt>
      <trkpt lat="48.01694" lon="6.8684">
        <ele>958.65</ele>
        <time>2026-08-26T13:56:31.454Z</time>
      </trkpt>
      <trkpt lat="48.01699" lon="6.86835">
        <ele>958.53</ele>
        <time>2026-08-26T13:56:34.445Z</time>
      </trkpt>
      <trkpt lat="48.01704" lon="6.8683">
        <ele>958.59</ele>
        <time>2026-08-26T13:56:37.430Z</time>
      </trkpt>
      <trkpt lat="48.01708" lon="6.86826">
        <ele>958.42</ele>
        <time>2026-08-26T13:56:41.441Z</time>
      </trkpt>
      <trkpt lat="48.01712" lon="6.86822">
        <ele>958.21</ele>
        <time>2026-08-26T13:56:45.439Z</time>
      </trkpt>
      <trkpt lat="48.01716" lon="6.86817">
        <ele>957.47</ele>
        <time>2026-08-26T13:56:51.457Z</time>
      </trkpt>
      <trkpt lat="48.01719" lon="6.86811">
        <ele>957.18</ele>
        <time>2026-08-26T13:56:56.443Z</time>
      </trkpt>
      <trkpt lat="48.01722" lon="6.86803">
        <ele>956.5</ele>
        <time>2026-08-26T13:57:01.444Z</time>
      </trkpt>
      <trkpt lat="48.01724" lon="6.86797">
        <ele>956.13</ele>
        <time>2026-08-26T13:57:04.459Z</time>
      </trkpt>
      <trkpt lat="48.01726" lon="6.8679">
        <ele>955.45</ele>
        <time>2026-08-26T13:57:09.452Z</time>
      </trkpt>
      <trkpt lat="48.01729" lon="6.86784">
        <ele>955.08</ele>
        <time>2026-08-26T13:57:13.444Z</time>
      </trkpt>
      <trkpt lat="48.01731" lon="6.86778">
        <ele>954.48</ele>
        <time>2026-08-26T13:57:17.458Z</time>
      </trkpt>
      <trkpt lat="48.01735" lon="6.86772">
        <ele>954.24</ele>
        <time>2026-08-26T13:57:22.490Z</time>
      </trkpt>
      <trkpt lat="48.01738" lon="6.86765">
        <ele>953.59</ele>
        <time>2026-08-26T13:57:28.443Z</time>
      </trkpt>
      <trkpt lat="48.01741" lon="6.8676">
        <ele>953.33</ele>
        <time>2026-08-26T13:57:34.450Z</time>
      </trkpt>
      <trkpt lat="48.01745" lon="6.86756">
        <ele>953.07</ele>
        <time>2026-08-26T13:57:40.510Z</time>
      </trkpt>
      <trkpt lat="48.0175" lon="6.86753">
        <ele>952.82</ele>
        <time>2026-08-26T13:57:48.451Z</time>
      </trkpt>
      <trkpt lat="48.01752" lon="6.86747">
        <ele>952.66</ele>
        <time>2026-08-26T13:57:57.455Z</time>
      </trkpt>
      <trkpt lat="48.01757" lon="6.86744">
        <ele>952.8</ele>
        <time>2026-08-26T13:58:01.402Z</time>
      </trkpt>
      <trkpt lat="48.01762" lon="6.86742">
        <ele>952.7</ele>
        <time>2026-08-26T13:58:05.437Z</time>
      </trkpt>
      <trkpt lat="48.01767" lon="6.8674">
        <ele>952.85</ele>
        <time>2026-08-26T13:58:13.453Z</time>
      </trkpt>
      <trkpt lat="48.01772" lon="6.86738">
        <ele>953.02</ele>
        <time>2026-08-26T13:58:18.459Z</time>
      </trkpt>
      <trkpt lat="48.01777" lon="6.86736">
        <ele>953.06</ele>
        <time>2026-08-26T13:58:24.460Z</time>
      </trkpt>
      <trkpt lat="48.01779" lon="6.86729">
        <ele>952.86</ele>
        <time>2026-08-26T13:58:28.456Z</time>
      </trkpt>
      <trkpt lat="48.01782" lon="6.86724">
        <ele>952.95</ele>
        <time>2026-08-26T13:58:31.440Z</time>
      </trkpt>
      <trkpt lat="48.01784" lon="6.86717">
        <ele>952.59</ele>
        <time>2026-08-26T13:58:35.459Z</time>
      </trkpt>
      <trkpt lat="48.01788" lon="6.8671">
        <ele>952.65</ele>
        <time>2026-08-26T13:58:41.454Z</time>
      </trkpt>
      <trkpt lat="48.0179" lon="6.86702">
        <ele>952.87</ele>
        <time>2026-08-26T13:58:45.449Z</time>
      </trkpt>
      <trkpt lat="48.01791" lon="6.86695">
        <ele>952.63</ele>
        <time>2026-08-26T13:58:49.452Z</time>
      </trkpt>
      <trkpt lat="48.01792" lon="6.86688">
        <ele>952.39</ele>
        <time>2026-08-26T13:58:55.464Z</time>
      </trkpt>
      <trkpt lat="48.01792" lon="6.8668">
        <ele>952.25</ele>
        <time>2026-08-26T13:59:03.457Z</time>
      </trkpt>
      <trkpt lat="48.0179" lon="6.86675">
        <ele>951.95</ele>
        <time>2026-08-26T13:59:12.466Z</time>
      </trkpt>
      <trkpt lat="48.01783" lon="6.86665">
        <ele>950.9</ele>
        <time>2026-08-26T13:59:20.461Z</time>
      </trkpt>
      <trkpt lat="48.0178" lon="6.86659">
        <ele>950.38</ele>
        <time>2026-08-26T13:59:24.448Z</time>
      </trkpt>
      <trkpt lat="48.01776" lon="6.86654">
        <ele>949.86</ele>
        <time>2026-08-26T13:59:28.466Z</time>
      </trkpt>
      <trkpt lat="48.01773" lon="6.8665">
        <ele>949.52</ele>
        <time>2026-08-26T13:59:31.426Z</time>
      </trkpt>
      <trkpt lat="48.01768" lon="6.86644">
        <ele>949</ele>
        <time>2026-08-26T13:59:34.432Z</time>
      </trkpt>
      <trkpt lat="48.01765" lon="6.8664">
        <ele>948.52</ele>
        <time>2026-08-26T13:59:38.441Z</time>
      </trkpt>
      <trkpt lat="48.01761" lon="6.86635">
        <ele>948.04</ele>
        <time>2026-08-26T13:59:42.465Z</time>
      </trkpt>
      <trkpt lat="48.01758" lon="6.86629">
        <ele>947.55</ele>
        <time>2026-08-26T13:59:47.454Z</time>
      </trkpt>
      <trkpt lat="48.01755" lon="6.86624">
        <ele>946.85</ele>
        <time>2026-08-26T13:59:50.435Z</time>
      </trkpt>
      <trkpt lat="48.01752" lon="6.86618">
        <ele>946.64</ele>
        <time>2026-08-26T13:59:53.457Z</time>
      </trkpt>
      <trkpt lat="48.0175" lon="6.86611">
        <ele>945.9</ele>
        <time>2026-08-26T13:59:56.428Z</time>
      </trkpt>
      <trkpt lat="48.01747" lon="6.86605">
        <ele>945.61</ele>
        <time>2026-08-26T14:00:00.444Z</time>
      </trkpt>
      <trkpt lat="48.01744" lon="6.86599">
        <ele>945.13</ele>
        <time>2026-08-26T14:00:04.447Z</time>
      </trkpt>
      <trkpt lat="48.01742" lon="6.86592">
        <ele>944.37</ele>
        <time>2026-08-26T14:00:08.446Z</time>
      </trkpt>
      <trkpt lat="48.0174" lon="6.86585">
        <ele>943.79</ele>
        <time>2026-08-26T14:00:13.414Z</time>
      </trkpt>
      <trkpt lat="48.01737" lon="6.8658">
        <ele>943.3</ele>
        <time>2026-08-26T14:00:20.452Z</time>
      </trkpt>
      <trkpt lat="48.01736" lon="6.86573">
        <ele>942.94</ele>
        <time>2026-08-26T14:00:28.489Z</time>
      </trkpt>
      <trkpt lat="48.01734" lon="6.86565">
        <ele>942.21</ele>
        <time>2026-08-26T14:00:33.430Z</time>
      </trkpt>
      <trkpt lat="48.01732" lon="6.86559">
        <ele>941.36</ele>
        <time>2026-08-26T14:00:38.470Z</time>
      </trkpt>
      <trkpt lat="48.01728" lon="6.86552">
        <ele>940.88</ele>
        <time>2026-08-26T14:00:43.489Z</time>
      </trkpt>
      <trkpt lat="48.01726" lon="6.86546">
        <ele>940.2</ele>
        <time>2026-08-26T14:00:47.448Z</time>
      </trkpt>
      <trkpt lat="48.01723" lon="6.8654">
        <ele>939.8</ele>
        <time>2026-08-26T14:00:52.443Z</time>
      </trkpt>
      <trkpt lat="48.0172" lon="6.86534">
        <ele>939.21</ele>
        <time>2026-08-26T14:00:57.443Z</time>
      </trkpt>
      <trkpt lat="48.01719" lon="6.86527">
        <ele>938.96</ele>
        <time>2026-08-26T14:01:03.450Z</time>
      </trkpt>
      <trkpt lat="48.01716" lon="6.86512">
        <ele>938.15</ele>
        <time>2026-08-26T14:01:10.447Z</time>
      </trkpt>
      <trkpt lat="48.01714" lon="6.86499">
        <ele>937.72</ele>
        <time>2026-08-26T14:01:26.442Z</time>
      </trkpt>
      <trkpt lat="48.01711" lon="6.86493">
        <ele>937.9</ele>
        <time>2026-08-26T14:01:41.461Z</time>
      </trkpt>
      <trkpt lat="48.01713" lon="6.86486">
        <ele>937.32</ele>
        <time>2026-08-26T14:01:47.455Z</time>
      </trkpt>
      <trkpt lat="48.01718" lon="6.86483">
        <ele>936.98</ele>
        <time>2026-08-26T14:01:51.453Z</time>
      </trkpt>
      <trkpt lat="48.01722" lon="6.8648">
        <ele>936.45</ele>
        <time>2026-08-26T14:02:23.442Z</time>
      </trkpt>
      <trkpt lat="48.01727" lon="6.86477">
        <ele>935.84</ele>
        <time>2026-08-26T14:02:31.434Z</time>
      </trkpt>
      <trkpt lat="48.01732" lon="6.86474">
        <ele>935.43</ele>
        <time>2026-08-26T14:02:42.439Z</time>
      </trkpt>
      <trkpt lat="48.01736" lon="6.86471">
        <ele>934.82</ele>
        <time>2026-08-26T14:02:47.458Z</time>
      </trkpt>
      <trkpt lat="48.0174" lon="6.86468">
        <ele>934.24</ele>
        <time>2026-08-26T14:02:51.444Z</time>
      </trkpt>
      <trkpt lat="48.01746" lon="6.86464">
        <ele>933.62</ele>
        <time>2026-08-26T14:02:55.434Z</time>
      </trkpt>
      <trkpt lat="48.0175" lon="6.86461">
        <ele>932.95</ele>
        <time>2026-08-26T14:02:58.444Z</time>
      </trkpt>
      <trkpt lat="48.01755" lon="6.8646">
        <ele>932.58</ele>
        <time>2026-08-26T14:03:01.427Z</time>
      </trkpt>
      <trkpt lat="48.01759" lon="6.86456">
        <ele>931.9</ele>
        <time>2026-08-26T14:03:07.445Z</time>
      </trkpt>
      <trkpt lat="48.01763" lon="6.86453">
        <ele>931.75</ele>
        <time>2026-08-26T14:03:14.437Z</time>
      </trkpt>
      <trkpt lat="48.01769" lon="6.86451">
        <ele>931.09</ele>
        <time>2026-08-26T14:03:19.448Z</time>
      </trkpt>
      <trkpt lat="48.01773" lon="6.86451">
        <ele>930.95</ele>
        <time>2026-08-26T14:03:22.431Z</time>
      </trkpt>
      <trkpt lat="48.01778" lon="6.86451">
        <ele>930.85</ele>
        <time>2026-08-26T14:03:26.437Z</time>
      </trkpt>
      <trkpt lat="48.01784" lon="6.86449">
        <ele>930.97</ele>
        <time>2026-08-26T14:03:30.448Z</time>
      </trkpt>
      <trkpt lat="48.01789" lon="6.86448">
        <ele>930.75</ele>
        <time>2026-08-26T14:03:34.441Z</time>
      </trkpt>
      <trkpt lat="48.01792" lon="6.86442">
        <ele>930.17</ele>
        <time>2026-08-26T14:03:40.450Z</time>
      </trkpt>
      <trkpt lat="48.01797" lon="6.8644">
        <ele>930.33</ele>
        <time>2026-08-26T14:03:46.439Z</time>
      </trkpt>
      <trkpt lat="48.01801" lon="6.86436">
        <ele>929.88</ele>
        <time>2026-08-26T14:03:51.444Z</time>
      </trkpt>
      <trkpt lat="48.01806" lon="6.86432">
        <ele>929.53</ele>
        <time>2026-08-26T14:03:56.451Z</time>
      </trkpt>
      <trkpt lat="48.0181" lon="6.86427">
        <ele>929.33</ele>
        <time>2026-08-26T14:04:04.436Z</time>
      </trkpt>
      <trkpt lat="48.01815" lon="6.86423">
        <ele>929.13</ele>
        <time>2026-08-26T14:04:09.428Z</time>
      </trkpt>
      <trkpt lat="48.0182" lon="6.86421">
        <ele>929.36</ele>
        <time>2026-08-26T14:04:14.465Z</time>
      </trkpt>
      <trkpt lat="48.01824" lon="6.86418">
        <ele>929.86</ele>
        <time>2026-08-26T14:04:20.441Z</time>
      </trkpt>
      <trkpt lat="48.01829" lon="6.86417">
        <ele>930.01</ele>
        <time>2026-08-26T14:04:24.462Z</time>
      </trkpt>
      <trkpt lat="48.01833" lon="6.86415">
        <ele>930.77</ele>
        <time>2026-08-26T14:04:27.457Z</time>
      </trkpt>
      <trkpt lat="48.01838" lon="6.86413">
        <ele>931.1</ele>
        <time>2026-08-26T14:04:31.471Z</time>
      </trkpt>
      <trkpt lat="48.01842" lon="6.86409">
        <ele>931.47</ele>
        <time>2026-08-26T14:04:34.444Z</time>
      </trkpt>
      <trkpt lat="48.01847" lon="6.86406">
        <ele>932.29</ele>
        <time>2026-08-26T14:04:38.447Z</time>
      </trkpt>
      <trkpt lat="48.01852" lon="6.86402">
        <ele>932.88</ele>
        <time>2026-08-26T14:04:42.447Z</time>
      </trkpt>
      <trkpt lat="48.01857" lon="6.86401">
        <ele>933.99</ele>
        <time>2026-08-26T14:04:45.434Z</time>
      </trkpt>
      <trkpt lat="48.01861" lon="6.86398">
        <ele>934.65</ele>
        <time>2026-08-26T14:04:48.428Z</time>
      </trkpt>
      <trkpt lat="48.01864" lon="6.86392">
        <ele>934.83</ele>
        <time>2026-08-26T14:04:52.444Z</time>
      </trkpt>
      <trkpt lat="48.01868" lon="6.86387">
        <ele>935.43</ele>
        <time>2026-08-26T14:05:01.453Z</time>
      </trkpt>
      <trkpt lat="48.01871" lon="6.86381">
        <ele>934.97</ele>
        <time>2026-08-26T14:05:06.434Z</time>
      </trkpt>
      <trkpt lat="48.01874" lon="6.86375">
        <ele>935.59</ele>
        <time>2026-08-26T14:05:12.437Z</time>
      </trkpt>
      <trkpt lat="48.01877" lon="6.86371">
        <ele>935.79</ele>
        <time>2026-08-26T14:05:18.428Z</time>
      </trkpt>
      <trkpt lat="48.01881" lon="6.86366">
        <ele>936.46</ele>
        <time>2026-08-26T14:05:23.422Z</time>
      </trkpt>
      <trkpt lat="48.01885" lon="6.86362">
        <ele>937.1</ele>
        <time>2026-08-26T14:05:26.434Z</time>
      </trkpt>
      <trkpt lat="48.01889" lon="6.86359">
        <ele>938.24</ele>
        <time>2026-08-26T14:05:29.453Z</time>
      </trkpt>
      <trkpt lat="48.01894" lon="6.86355">
        <ele>938.85</ele>
        <time>2026-08-26T14:05:34.437Z</time>
      </trkpt>
      <trkpt lat="48.01899" lon="6.86352">
        <ele>939.49</ele>
        <time>2026-08-26T14:05:38.432Z</time>
      </trkpt>
      <trkpt lat="48.01903" lon="6.86349">
        <ele>940.15</ele>
        <time>2026-08-26T14:05:42.453Z</time>
      </trkpt>
      <trkpt lat="48.01907" lon="6.86347">
        <ele>941.38</ele>
        <time>2026-08-26T14:05:46.477Z</time>
      </trkpt>
      <trkpt lat="48.01912" lon="6.86344">
        <ele>941.99</ele>
        <time>2026-08-26T14:05:52.436Z</time>
      </trkpt>
      <trkpt lat="48.01916" lon="6.8634">
        <ele>942.56</ele>
        <time>2026-08-26T14:05:58.447Z</time>
      </trkpt>
      <trkpt lat="48.01921" lon="6.86336">
        <ele>943.07</ele>
        <time>2026-08-26T14:06:03.430Z</time>
      </trkpt>
      <trkpt lat="48.01925" lon="6.86332">
        <ele>944.2</ele>
        <time>2026-08-26T14:06:08.453Z</time>
      </trkpt>
      <trkpt lat="48.01929" lon="6.86329">
        <ele>944.64</ele>
        <time>2026-08-26T14:06:13.455Z</time>
      </trkpt>
      <trkpt lat="48.01932" lon="6.86323">
        <ele>944.4</ele>
        <time>2026-08-26T14:06:19.439Z</time>
      </trkpt>
      <trkpt lat="48.01936" lon="6.86319">
        <ele>944.85</ele>
        <time>2026-08-26T14:06:24.465Z</time>
      </trkpt>
      <trkpt lat="48.0194" lon="6.86315">
        <ele>945.31</ele>
        <time>2026-08-26T14:06:28.433Z</time>
      </trkpt>
      <trkpt lat="48.01943" lon="6.8631">
        <ele>944.66</ele>
      </trkpt>
      <trkpt lat="48.01948" lon="6.86307">
        <ele>945.82</ele>
      </trkpt>
      <trkpt lat="48.01953" lon="6.86306">
        <ele>947.54</ele>
        <time>2026-08-26T14:06:53.438Z</time>
      </trkpt>
      <trkpt lat="48.01957" lon="6.86301">
        <ele>948.12</ele>
        <time>2026-08-26T14:06:58.432Z</time>
      </trkpt>
      <trkpt lat="48.0196" lon="6.86296">
        <ele>947.51</ele>
        <time>2026-08-26T14:07:02.426Z</time>
      </trkpt>
      <trkpt lat="48.01967" lon="6.86286">
        <ele>948.83</ele>
        <time>2026-08-26T14:07:08.437Z</time>
      </trkpt>
      <trkpt lat="48.01974" lon="6.86276">
        <ele>949.79</ele>
        <time>2026-08-26T14:07:17.456Z</time>
      </trkpt>
      <trkpt lat="48.01978" lon="6.86271">
        <ele>949.2</ele>
        <time>2026-08-26T14:07:22.444Z</time>
      </trkpt>
      <trkpt lat="48.01982" lon="6.86265">
        <ele>950</ele>
        <time>2026-08-26T14:07:28.434Z</time>
      </trkpt>
      <trkpt lat="48.01985" lon="6.8626">
        <ele>950.78</ele>
        <time>2026-08-26T14:07:34.463Z</time>
      </trkpt>
      <trkpt lat="48.01989" lon="6.86256">
        <ele>951.47</ele>
        <time>2026-08-26T14:07:39.440Z</time>
      </trkpt>
      <trkpt lat="48.01992" lon="6.86251">
        <ele>951.39</ele>
        <time>2026-08-26T14:07:44.455Z</time>
      </trkpt>
      <trkpt lat="48.01996" lon="6.86245">
        <ele>952.02</ele>
        <time>2026-08-26T14:07:48.454Z</time>
      </trkpt>
      <trkpt lat="48.02" lon="6.86241">
        <ele>952.62</ele>
        <time>2026-08-26T14:07:52.431Z</time>
      </trkpt>
      <trkpt lat="48.02003" lon="6.86235">
        <ele>951.86</ele>
        <time>2026-08-26T14:07:58.432Z</time>
      </trkpt>
      <trkpt lat="48.02007" lon="6.8623">
        <ele>952.42</ele>
        <time>2026-08-26T14:08:03.452Z</time>
      </trkpt>
      <trkpt lat="48.02008" lon="6.86222">
        <ele>950.73</ele>
        <time>2026-08-26T14:08:09.429Z</time>
      </trkpt>
      <trkpt lat="48.02012" lon="6.86217">
        <ele>951.13</ele>
        <time>2026-08-26T14:08:14.480Z</time>
      </trkpt>
      <trkpt lat="48.02016" lon="6.86214">
        <ele>951.46</ele>
        <time>2026-08-26T14:08:19.452Z</time>
      </trkpt>
      <trkpt lat="48.02021" lon="6.86213">
        <ele>952.64</ele>
        <time>2026-08-26T14:08:23.455Z</time>
      </trkpt>
      <trkpt lat="48.02025" lon="6.8621">
        <ele>952.93</ele>
        <time>2026-08-26T14:08:28.452Z</time>
      </trkpt>
      <trkpt lat="48.02029" lon="6.86208">
        <ele>954.11</ele>
        <time>2026-08-26T14:08:37.434Z</time>
      </trkpt>
      <trkpt lat="48.02034" lon="6.8621">
        <ele>955.29</ele>
        <time>2026-08-26T14:08:45.454Z</time>
      </trkpt>
      <trkpt lat="48.02035" lon="6.86217">
        <ele>958.14</ele>
        <time>2026-08-26T14:08:58.499Z</time>
      </trkpt>
      <trkpt lat="48.02038" lon="6.86224">
        <ele>959.02</ele>
        <time>2026-08-26T14:09:02.444Z</time>
      </trkpt>
      <trkpt lat="48.0204" lon="6.86231">
        <ele>961.69</ele>
        <time>2026-08-26T14:09:08.453Z</time>
      </trkpt>
      <trkpt lat="48.02037" lon="6.86236">
        <ele>961.59</ele>
        <time>2026-08-26T14:09:13.442Z</time>
      </trkpt>
      <trkpt lat="48.02032" lon="6.86236">
        <ele>960.51</ele>
        <time>2026-08-26T14:09:16.440Z</time>
      </trkpt>
      <trkpt lat="48.02031" lon="6.86243">
        <ele>962.1</ele>
        <time>2026-08-26T14:09:27.440Z</time>
      </trkpt>
      <trkpt lat="48.02027" lon="6.86247">
        <ele>961.7</ele>
        <time>2026-08-26T14:09:35.454Z</time>
      </trkpt>
      <trkpt lat="48.02025" lon="6.86254">
        <ele>961.3</ele>
        <time>2026-08-26T14:09:39.455Z</time>
      </trkpt>
      <trkpt lat="48.02023" lon="6.8626">
        <ele>962.88</ele>
        <time>2026-08-26T14:09:42.444Z</time>
      </trkpt>
      <trkpt lat="48.02018" lon="6.86265">
        <ele>962.42</ele>
      </trkpt>
      <trkpt lat="48.02014" lon="6.86271">
        <ele>961.85</ele>
      </trkpt>
      <trkpt lat="48.0201" lon="6.86275">
        <ele>961.19</ele>
      </trkpt>
      <trkpt lat="48.02008" lon="6.86282">
        <ele>961</ele>
      </trkpt>
      <trkpt lat="48.02007" lon="6.86288">
        <ele>961.62</ele>
      </trkpt>
      <trkpt lat="48.02007" lon="6.8629">
        <ele>962.24</ele>
      </trkpt>
      <trkpt lat="48.02007" lon="6.86297">
        <ele>962.86</ele>
        <time>2026-08-26T14:11:03.450Z</time>
      </trkpt>
      <trkpt lat="48.02008" lon="6.86306">
        <ele>964.07</ele>
        <time>2026-08-26T14:11:10.454Z</time>
      </trkpt>
      <trkpt lat="48.0201" lon="6.86315">
        <ele>966.79</ele>
        <time>2026-08-26T14:11:12.453Z</time>
      </trkpt>
      <trkpt lat="48.02009" lon="6.86314">
        <ele>966.79</ele>
        <time>2026-08-26T14:11:22.453Z</time>
      </trkpt>
      <trkpt lat="48.02005" lon="6.8631">
        <ele>964.67</ele>
        <time>2026-08-26T14:11:27.453Z</time>
      </trkpt>
      <trkpt lat="48.02006" lon="6.86304">
        <ele>964.07</ele>
      </trkpt>
      <trkpt lat="48.02001" lon="6.86306">
        <ele>962.56</ele>
      </trkpt>
      <trkpt lat="48.02001" lon="6.86314">
        <ele>963.73</ele>
      </trkpt>
      <trkpt lat="48.02002" lon="6.86321">
        <ele>964.91</ele>
      </trkpt>
      <trkpt lat="48.02001" lon="6.8633">
        <ele>966.11</ele>
      </trkpt>
      <trkpt lat="48.01999" lon="6.86337">
        <ele>965.95</ele>
        <time>2026-08-26T14:12:34.427Z</time>
      </trkpt>
      <trkpt lat="48.02001" lon="6.86343">
        <ele>968.27</ele>
        <time>2026-08-26T14:12:37.406Z</time>
      </trkpt>
      <trkpt lat="48.01999" lon="6.8635">
        <ele>968.15</ele>
        <time>2026-08-26T14:12:43.418Z</time>
      </trkpt>
      <trkpt lat="48.01996" lon="6.86357">
        <ele>968.88</ele>
        <time>2026-08-26T14:12:48.409Z</time>
      </trkpt>
      <trkpt lat="48.01991" lon="6.86359">
        <ele>966.43</ele>
        <time>2026-08-26T14:12:52.475Z</time>
      </trkpt>
      <trkpt lat="48.01987" lon="6.86365">
        <ele>965.69</ele>
        <time>2026-08-26T14:12:57.418Z</time>
      </trkpt>
      <trkpt lat="48.01983" lon="6.86369">
        <ele>966.5</ele>
        <time>2026-08-26T14:13:02.396Z</time>
      </trkpt>
      <trkpt lat="48.01982" lon="6.86376">
        <ele>966.82</ele>
        <time>2026-08-26T14:13:08.451Z</time>
      </trkpt>
      <trkpt lat="48.01978" lon="6.86381">
        <ele>966.38</ele>
        <time>2026-08-26T14:13:13.447Z</time>
      </trkpt>
      <trkpt lat="48.01974" lon="6.86386">
        <ele>967.19</ele>
        <time>2026-08-26T14:13:19.430Z</time>
      </trkpt>
      <trkpt lat="48.01971" lon="6.86392">
        <ele>967.52</ele>
        <time>2026-08-26T14:13:24.452Z</time>
      </trkpt>
      <trkpt lat="48.0197" lon="6.864">
        <ele>968.22</ele>
        <time>2026-08-26T14:13:36.431Z</time>
      </trkpt>
      <trkpt lat="48.01966" lon="6.86412">
        <ele>968.87</ele>
        <time>2026-08-26T14:13:42.451Z</time>
      </trkpt>
      <trkpt lat="48.01966" lon="6.86419">
        <ele>970.16</ele>
        <time>2026-08-26T14:13:59.435Z</time>
      </trkpt>
      <trkpt lat="48.0197" lon="6.86424">
        <ele>970.81</ele>
        <time>2026-08-26T14:14:23.437Z</time>
      </trkpt>
      <trkpt lat="48.01968" lon="6.8643">
        <ele>971.44</ele>
        <time>2026-08-26T14:14:45.450Z</time>
      </trkpt>
      <trkpt lat="48.01968" lon="6.86437">
        <ele>972.61</ele>
        <time>2026-08-26T14:14:52.450Z</time>
      </trkpt>
      <trkpt lat="48.01966" lon="6.86445">
        <ele>973.78</ele>
        <time>2026-08-26T14:14:57.450Z</time>
      </trkpt>
      <trkpt lat="48.01966" lon="6.86452">
        <ele>974.36</ele>
        <time>2026-08-26T14:15:01.434Z</time>
      </trkpt>
      <trkpt lat="48.01964" lon="6.86459">
        <ele>974.15</ele>
        <time>2026-08-26T14:15:09.464Z</time>
      </trkpt>
      <trkpt lat="48.01961" lon="6.86465">
        <ele>974.76</ele>
        <time>2026-08-26T14:15:19.440Z</time>
      </trkpt>
      <trkpt lat="48.01958" lon="6.86471">
        <ele>974.42</ele>
        <time>2026-08-26T14:15:27.446Z</time>
      </trkpt>
      <trkpt lat="48.01957" lon="6.86479">
        <ele>975.51</ele>
        <time>2026-08-26T14:15:33.449Z</time>
      </trkpt>
      <trkpt lat="48.01956" lon="6.86487">
        <ele>974.7</ele>
        <time>2026-08-26T14:15:37.435Z</time>
      </trkpt>
      <trkpt lat="48.01953" lon="6.86492">
        <ele>975.78</ele>
        <time>2026-08-26T14:15:46.429Z</time>
      </trkpt>
      <trkpt lat="48.01951" lon="6.86499">
        <ele>974.91</ele>
        <time>2026-08-26T14:15:50.450Z</time>
      </trkpt>
      <trkpt lat="48.0195" lon="6.86506">
        <ele>975.83</ele>
        <time>2026-08-26T14:15:55.437Z</time>
      </trkpt>
      <trkpt lat="48.01949" lon="6.86514">
        <ele>976.75</ele>
        <time>2026-08-26T14:16:00.438Z</time>
      </trkpt>
      <trkpt lat="48.01947" lon="6.86521">
        <ele>975.86</ele>
        <time>2026-08-26T14:16:04.426Z</time>
      </trkpt>
      <trkpt lat="48.01946" lon="6.86529">
        <ele>976.77</ele>
        <time>2026-08-26T14:16:08.442Z</time>
      </trkpt>
      <trkpt lat="48.01944" lon="6.86535">
        <ele>977.54</ele>
        <time>2026-08-26T14:16:11.443Z</time>
      </trkpt>
      <trkpt lat="48.01943" lon="6.86543">
        <ele>976.6</ele>
      </trkpt>
      <trkpt lat="48.01942" lon="6.86549">
        <ele>977.37</ele>
      </trkpt>
      <trkpt lat="48.0194" lon="6.86556">
        <ele>978.14</ele>
      </trkpt>
      <trkpt lat="48.01939" lon="6.86564">
        <ele>977.26</ele>
      </trkpt>
      <trkpt lat="48.01939" lon="6.86571">
        <ele>978.08</ele>
      </trkpt>
      <trkpt lat="48.01937" lon="6.86578">
        <ele>978.9</ele>
        <time>2026-08-26T14:16:45.426Z</time>
      </trkpt>
      <trkpt lat="48.01938" lon="6.86586">
        <ele>979.71</ele>
        <time>2026-08-26T14:16:52.436Z</time>
      </trkpt>
      <trkpt lat="48.01939" lon="6.86594">
        <ele>980.12</ele>
        <time>2026-08-26T14:17:00.427Z</time>
      </trkpt>
      <trkpt lat="48.01938" lon="6.86601">
        <ele>981.03</ele>
        <time>2026-08-26T14:17:04.412Z</time>
      </trkpt>
      <trkpt lat="48.01937" lon="6.86607">
        <ele>981.99</ele>
        <time>2026-08-26T14:17:12.429Z</time>
      </trkpt>
      <trkpt lat="48.01936" lon="6.86615">
        <ele>982.46</ele>
        <time>2026-08-26T14:17:18.439Z</time>
      </trkpt>
      <trkpt lat="48.01935" lon="6.86622">
        <ele>982.36</ele>
        <time>2026-08-26T14:17:22.427Z</time>
      </trkpt>
      <trkpt lat="48.01933" lon="6.8663">
        <ele>983.24</ele>
        <time>2026-08-26T14:17:27.430Z</time>
      </trkpt>
      <trkpt lat="48.01932" lon="6.86636">
        <ele>983.59</ele>
        <time>2026-08-26T14:17:32.433Z</time>
      </trkpt>
      <trkpt lat="48.0193" lon="6.86642">
        <ele>983.16</ele>
        <time>2026-08-26T14:17:37.448Z</time>
      </trkpt>
      <trkpt lat="48.01929" lon="6.86649">
        <ele>983.51</ele>
        <time>2026-08-26T14:17:45.448Z</time>
      </trkpt>
      <trkpt lat="48.01928" lon="6.86658">
        <ele>984.2</ele>
        <time>2026-08-26T14:17:50.440Z</time>
      </trkpt>
      <trkpt lat="48.01927" lon="6.86666">
        <ele>984.8</ele>
        <time>2026-08-26T14:17:54.429Z</time>
      </trkpt>
      <trkpt lat="48.01925" lon="6.86674">
        <ele>984.08</ele>
        <time>2026-08-26T14:17:58.434Z</time>
      </trkpt>
      <trkpt lat="48.01924" lon="6.86681">
        <ele>984.55</ele>
        <time>2026-08-26T14:18:02.463Z</time>
      </trkpt>
      <trkpt lat="48.01923" lon="6.86689">
        <ele>985.03</ele>
        <time>2026-08-26T14:18:08.432Z</time>
      </trkpt>
      <trkpt lat="48.01923" lon="6.86697">
        <ele>985.28</ele>
        <time>2026-08-26T14:18:14.433Z</time>
      </trkpt>
      <trkpt lat="48.01921" lon="6.86704">
        <ele>984.53</ele>
        <time>2026-08-26T14:18:21.427Z</time>
      </trkpt>
      <trkpt lat="48.01922" lon="6.86712">
        <ele>985.03</ele>
        <time>2026-08-26T14:18:27.430Z</time>
      </trkpt>
      <trkpt lat="48.01923" lon="6.86719">
        <ele>986.8</ele>
        <time>2026-08-26T14:18:32.432Z</time>
      </trkpt>
      <trkpt lat="48.01923" lon="6.86726">
        <ele>987.06</ele>
        <time>2026-08-26T14:18:38.445Z</time>
      </trkpt>
      <trkpt lat="48.01922" lon="6.86734">
        <ele>986.34</ele>
        <time>2026-08-26T14:18:42.440Z</time>
      </trkpt>
      <trkpt lat="48.01921" lon="6.86741">
        <ele>986.92</ele>
        <time>2026-08-26T14:18:46.443Z</time>
      </trkpt>
      <trkpt lat="48.0192" lon="6.86748">
        <ele>987.21</ele>
        <time>2026-08-26T14:18:50.440Z</time>
      </trkpt>
      <trkpt lat="48.01919" lon="6.86755">
        <ele>987.79</ele>
        <time>2026-08-26T14:18:57.442Z</time>
      </trkpt>
      <trkpt lat="48.01919" lon="6.86762">
        <ele>988.35</ele>
        <time>2026-08-26T14:19:02.447Z</time>
      </trkpt>
      <trkpt lat="48.01917" lon="6.86769">
        <ele>987.28</ele>
        <time>2026-08-26T14:19:08.437Z</time>
      </trkpt>
      <trkpt lat="48.01917" lon="6.86777">
        <ele>987.77</ele>
        <time>2026-08-26T14:19:15.439Z</time>
      </trkpt>
      <trkpt lat="48.01917" lon="6.86784">
        <ele>988.27</ele>
        <time>2026-08-26T14:19:22.456Z</time>
      </trkpt>
      <trkpt lat="48.01913" lon="6.8679">
        <ele>987.23</ele>
        <time>2026-08-26T14:19:34.423Z</time>
      </trkpt>
      <trkpt lat="48.01909" lon="6.86792">
        <ele>986.19</ele>
        <time>2026-08-26T14:19:44.450Z</time>
      </trkpt>
      <trkpt lat="48.01906" lon="6.86798">
        <ele>986.4</ele>
        <time>2026-08-26T14:19:49.431Z</time>
      </trkpt>
      <trkpt lat="48.01905" lon="6.86805">
        <ele>985.57</ele>
        <time>2026-08-26T14:19:58.450Z</time>
      </trkpt>
      <trkpt lat="48.01902" lon="6.86812">
        <ele>985.79</ele>
        <time>2026-08-26T14:20:04.426Z</time>
      </trkpt>
      <trkpt lat="48.01902" lon="6.86819">
        <ele>986.23</ele>
        <time>2026-08-26T14:20:11.432Z</time>
      </trkpt>
      <trkpt lat="48.01905" lon="6.86832">
        <ele>987.96</ele>
        <time>2026-08-26T14:20:43.450Z</time>
      </trkpt>
      <trkpt lat="48.01907" lon="6.86839">
        <ele>988.23</ele>
        <time>2026-08-26T14:20:49.439Z</time>
      </trkpt>
      <trkpt lat="48.01906" lon="6.86847">
        <ele>988.36</ele>
        <time>2026-08-26T14:20:56.453Z</time>
      </trkpt>
      <trkpt lat="48.01905" lon="6.86853">
        <ele>987.54</ele>
        <time>2026-08-26T14:21:01.437Z</time>
      </trkpt>
      <trkpt lat="48.01904" lon="6.8686">
        <ele>987.83</ele>
        <time>2026-08-26T14:21:09.428Z</time>
      </trkpt>
      <trkpt lat="48.01902" lon="6.86868">
        <ele>987.99</ele>
        <time>2026-08-26T14:21:15.442Z</time>
      </trkpt>
      <trkpt lat="48.01901" lon="6.86875">
        <ele>988.29</ele>
        <time>2026-08-26T14:21:23.450Z</time>
      </trkpt>
      <trkpt lat="48.01901" lon="6.86882">
        <ele>987.64</ele>
        <time>2026-08-26T14:21:28.434Z</time>
      </trkpt>
      <trkpt lat="48.01899" lon="6.86889">
        <ele>987.81</ele>
        <time>2026-08-26T14:21:33.448Z</time>
      </trkpt>
      <trkpt lat="48.01895" lon="6.86896">
        <ele>987.37</ele>
        <time>2026-08-26T14:21:38.450Z</time>
      </trkpt>
      <trkpt lat="48.01893" lon="6.86902">
        <ele>987.67</ele>
        <time>2026-08-26T14:21:42.441Z</time>
      </trkpt>
      <trkpt lat="48.01889" lon="6.86906">
        <ele>987.21</ele>
        <time>2026-08-26T14:21:47.449Z</time>
      </trkpt>
      <trkpt lat="48.01887" lon="6.86913">
        <ele>987.18</ele>
        <time>2026-08-26T14:21:56.493Z</time>
      </trkpt>
      <trkpt lat="48.01886" lon="6.86919">
        <ele>987.54</ele>
        <time>2026-08-26T14:22:02.445Z</time>
      </trkpt>
      <trkpt lat="48.01886" lon="6.86926">
        <ele>988.28</ele>
        <time>2026-08-26T14:22:07.440Z</time>
      </trkpt>
      <trkpt lat="48.01885" lon="6.86933">
        <ele>989.24</ele>
        <time>2026-08-26T14:22:12.457Z</time>
      </trkpt>
      <trkpt lat="48.01885" lon="6.86941">
        <ele>989.73</ele>
        <time>2026-08-26T14:22:16.446Z</time>
      </trkpt>
      <trkpt lat="48.01883" lon="6.86948">
        <ele>990.35</ele>
        <time>2026-08-26T14:22:20.432Z</time>
      </trkpt>
      <trkpt lat="48.01881" lon="6.86955">
        <ele>991.39</ele>
        <time>2026-08-26T14:22:25.458Z</time>
      </trkpt>
      <trkpt lat="48.01878" lon="6.86961">
        <ele>991.77</ele>
        <time>2026-08-26T14:22:32.447Z</time>
      </trkpt>
      <trkpt lat="48.01874" lon="6.86964">
        <ele>992.19</ele>
        <time>2026-08-26T14:22:38.456Z</time>
      </trkpt>
      <trkpt lat="48.0187" lon="6.86967">
        <ele>991.76</ele>
        <time>2026-08-26T14:22:44.448Z</time>
      </trkpt>
      <trkpt lat="48.01866" lon="6.86971">
        <ele>992.07</ele>
        <time>2026-08-26T14:22:48.435Z</time>
      </trkpt>
      <trkpt lat="48.01861" lon="6.8697">
        <ele>991.64</ele>
        <time>2026-08-26T14:22:53.439Z</time>
      </trkpt>
      <trkpt lat="48.01857" lon="6.86973">
        <ele>991.96</ele>
        <time>2026-08-26T14:23:01.456Z</time>
      </trkpt>
      <trkpt lat="48.01852" lon="6.86976">
        <ele>992.19</ele>
        <time>2026-08-26T14:23:07.468Z</time>
      </trkpt>
      <trkpt lat="48.01848" lon="6.86981">
        <ele>992.21</ele>
        <time>2026-08-26T14:23:12.464Z</time>
      </trkpt>
      <trkpt lat="48.01847" lon="6.86989">
        <ele>992.97</ele>
        <time>2026-08-26T14:23:19.450Z</time>
      </trkpt>
      <trkpt lat="48.01846" lon="6.86996">
        <ele>994.29</ele>
        <time>2026-08-26T14:23:25.450Z</time>
      </trkpt>
      <trkpt lat="48.01845" lon="6.87003">
        <ele>994.58</ele>
        <time>2026-08-26T14:23:33.435Z</time>
      </trkpt>
      <trkpt lat="48.01842" lon="6.87009">
        <ele>995.14</ele>
        <time>2026-08-26T14:23:36.423Z</time>
      </trkpt>
      <trkpt lat="48.01838" lon="6.87015">
        <ele>995.38</ele>
        <time>2026-08-26T14:23:39.459Z</time>
      </trkpt>
      <trkpt lat="48.01833" lon="6.87019">
        <ele>994.5</ele>
        <time>2026-08-26T14:23:42.442Z</time>
      </trkpt>
      <trkpt lat="48.01828" lon="6.87024">
        <ele>994.45</ele>
        <time>2026-08-26T14:23:46.432Z</time>
      </trkpt>
      <trkpt lat="48.01825" lon="6.8703">
        <ele>993.59</ele>
      </trkpt>
      <trkpt lat="48.01821" lon="6.87034">
        <ele>992.69</ele>
      </trkpt>
      <trkpt lat="48.01818" lon="6.87039">
        <ele>991.83</ele>
        <time>2026-08-26T14:23:59.461Z</time>
      </trkpt>
      <trkpt lat="48.01813" lon="6.87042">
        <ele>991</ele>
        <time>2026-08-26T14:24:10.422Z</time>
      </trkpt>
      <trkpt lat="48.01813" lon="6.8705">
        <ele>991.36</ele>
        <time>2026-08-26T14:24:18.440Z</time>
      </trkpt>
      <trkpt lat="48.01813" lon="6.87058">
        <ele>991.48</ele>
        <time>2026-08-26T14:24:23.463Z</time>
      </trkpt>
      <trkpt lat="48.01816" lon="6.87064">
        <ele>992.3</ele>
        <time>2026-08-26T14:24:33.454Z</time>
      </trkpt>
      <trkpt lat="48.01818" lon="6.87071">
        <ele>992.1</ele>
        <time>2026-08-26T14:24:38.455Z</time>
      </trkpt>
      <trkpt lat="48.0182" lon="6.87077">
        <ele>992.76</ele>
        <time>2026-08-26T14:24:44.452Z</time>
      </trkpt>
      <trkpt lat="48.01823" lon="6.87083">
        <ele>992.61</ele>
        <time>2026-08-26T14:24:49.447Z</time>
      </trkpt>
      <trkpt lat="48.01825" lon="6.87091">
        <ele>992.97</ele>
        <time>2026-08-26T14:24:53.438Z</time>
      </trkpt>
      <trkpt lat="48.01827" lon="6.87098">
        <ele>992.65</ele>
        <time>2026-08-26T14:24:58.458Z</time>
      </trkpt>
      <trkpt lat="48.0183" lon="6.87103">
        <ele>993.06</ele>
        <time>2026-08-26T14:25:05.457Z</time>
      </trkpt>
      <trkpt lat="48.01834" lon="6.87108">
        <ele>993.45</ele>
        <time>2026-08-26T14:25:10.436Z</time>
      </trkpt>
      <trkpt lat="48.01836" lon="6.87115">
        <ele>993.07</ele>
        <time>2026-08-26T14:25:15.444Z</time>
      </trkpt>
      <trkpt lat="48.01837" lon="6.87122">
        <ele>993.4</ele>
        <time>2026-08-26T14:25:22.445Z</time>
      </trkpt>
      <trkpt lat="48.01837" lon="6.87135">
        <ele>994.14</ele>
        <time>2026-08-26T14:25:36.456Z</time>
      </trkpt>
      <trkpt lat="48.01841" lon="6.8714">
        <ele>994.47</ele>
        <time>2026-08-26T14:26:10.451Z</time>
      </trkpt>
      <trkpt lat="48.01843" lon="6.87147">
        <ele>995.36</ele>
        <time>2026-08-26T14:26:18.462Z</time>
      </trkpt>
      <trkpt lat="48.01839" lon="6.87152">
        <ele>995.14</ele>
        <time>2026-08-26T14:26:31.410Z</time>
      </trkpt>
      <trkpt lat="48.01839" lon="6.87151">
        <ele>995.14</ele>
        <time>2026-08-26T14:27:52.462Z</time>
      </trkpt>
      <trkpt lat="48.01844" lon="6.8715">
        <ele>995.71</ele>
        <time>2026-08-26T14:27:57.449Z</time>
      </trkpt>
      <trkpt lat="48.01849" lon="6.87148">
        <ele>996.33</ele>
        <time>2026-08-26T14:28:03.489Z</time>
      </trkpt>
      <trkpt lat="48.01856" lon="6.8714">
        <ele>997.1</ele>
        <time>2026-08-26T14:28:14.459Z</time>
      </trkpt>
      <trkpt lat="48.01857" lon="6.87133">
        <ele>996.35</ele>
        <time>2026-08-26T14:28:24.439Z</time>
      </trkpt>
      <trkpt lat="48.01857" lon="6.87131">
        <ele>996.35</ele>
        <time>2026-08-26T14:29:43.450Z</time>
      </trkpt>
      <trkpt lat="48.01854" lon="6.87135">
        <ele>996.72</ele>
        <time>2026-08-26T14:29:52.436Z</time>
      </trkpt>
      <trkpt lat="48.01849" lon="6.87138">
        <ele>995.23</ele>
        <time>2026-08-26T14:29:56.436Z</time>
      </trkpt>
      <trkpt lat="48.01845" lon="6.87141">
        <ele>995.01</ele>
        <time>2026-08-26T14:30:01.435Z</time>
      </trkpt>
      <trkpt lat="48.0184" lon="6.87145">
        <ele>994.81</ele>
        <time>2026-08-26T14:30:08.448Z</time>
      </trkpt>
      <trkpt lat="48.01838" lon="6.87151">
        <ele>995.14</ele>
        <time>2026-08-26T14:35:52.427Z</time>
      </trkpt>
      <trkpt lat="48.01833" lon="6.87153">
        <ele>994.88</ele>
        <time>2026-08-26T14:35:58.428Z</time>
      </trkpt>
      <trkpt lat="48.01829" lon="6.87156">
        <ele>994.75</ele>
        <time>2026-08-26T14:36:10.433Z</time>
      </trkpt>
      <trkpt lat="48.01824" lon="6.87159">
        <ele>994.17</ele>
        <time>2026-08-26T14:36:15.460Z</time>
      </trkpt>
      <trkpt lat="48.01821" lon="6.87164">
        <ele>994.37</ele>
        <time>2026-08-26T14:36:25.428Z</time>
      </trkpt>
      <trkpt lat="48.01815" lon="6.87165">
        <ele>994.51</ele>
        <time>2026-08-26T14:36:31.441Z</time>
      </trkpt>
      <trkpt lat="48.01811" lon="6.87169">
        <ele>993.26</ele>
        <time>2026-08-26T14:36:37.435Z</time>
      </trkpt>
      <trkpt lat="48.01807" lon="6.87172">
        <ele>993.82</ele>
        <time>2026-08-26T14:36:44.430Z</time>
      </trkpt>
      <trkpt lat="48.01802" lon="6.87176">
        <ele>993.6</ele>
        <time>2026-08-26T14:36:50.491Z</time>
      </trkpt>
      <trkpt lat="48.01796" lon="6.87186">
        <ele>992.66</ele>
        <time>2026-08-26T14:37:03.440Z</time>
      </trkpt>
      <trkpt lat="48.01793" lon="6.87192">
        <ele>991.54</ele>
        <time>2026-08-26T14:37:10.429Z</time>
      </trkpt>
      <trkpt lat="48.0179" lon="6.87198">
        <ele>991.88</ele>
        <time>2026-08-26T14:37:16.426Z</time>
      </trkpt>
      <trkpt lat="48.01787" lon="6.87205">
        <ele>990.88</ele>
        <time>2026-08-26T14:37:21.441Z</time>
      </trkpt>
      <trkpt lat="48.01785" lon="6.87211">
        <ele>991.17</ele>
        <time>2026-08-26T14:37:25.464Z</time>
      </trkpt>
      <trkpt lat="48.01783" lon="6.87218">
        <ele>989.91</ele>
        <time>2026-08-26T14:37:30.439Z</time>
      </trkpt>
      <trkpt lat="48.01781" lon="6.87225">
        <ele>990.25</ele>
        <time>2026-08-26T14:37:35.433Z</time>
      </trkpt>
      <trkpt lat="48.0178" lon="6.87232">
        <ele>988.52</ele>
        <time>2026-08-26T14:37:40.435Z</time>
      </trkpt>
      <trkpt lat="48.01778" lon="6.87239">
        <ele>988.81</ele>
        <time>2026-08-26T14:37:44.437Z</time>
      </trkpt>
      <trkpt lat="48.01777" lon="6.87246">
        <ele>989.1</ele>
        <time>2026-08-26T14:37:48.432Z</time>
      </trkpt>
      <trkpt lat="48.01775" lon="6.87253">
        <ele>987.44</ele>
        <time>2026-08-26T14:37:52.431Z</time>
      </trkpt>
      <trkpt lat="48.01773" lon="6.87261">
        <ele>987.43</ele>
        <time>2026-08-26T14:37:56.433Z</time>
      </trkpt>
      <trkpt lat="48.01771" lon="6.87267">
        <ele>985.72</ele>
        <time>2026-08-26T14:38:00.432Z</time>
      </trkpt>
      <trkpt lat="48.01767" lon="6.87272">
        <ele>984.06</ele>
        <time>2026-08-26T14:38:05.428Z</time>
      </trkpt>
      <trkpt lat="48.01763" lon="6.87275">
        <ele>982.45</ele>
        <time>2026-08-26T14:38:12.434Z</time>
      </trkpt>
      <trkpt lat="48.0176" lon="6.87281">
        <ele>982.48</ele>
        <time>2026-08-26T14:38:22.438Z</time>
      </trkpt>
      <trkpt lat="48.01756" lon="6.87282">
        <ele>980.92</ele>
        <time>2026-08-26T14:38:50.438Z</time>
      </trkpt>
      <trkpt lat="48.01752" lon="6.87278">
        <ele>979.34</ele>
        <time>2026-08-26T14:39:01.441Z</time>
      </trkpt>
      <trkpt lat="48.01748" lon="6.87276">
        <ele>978.01</ele>
        <time>2026-08-26T14:39:13.434Z</time>
      </trkpt>
      <trkpt lat="48.01746" lon="6.8727">
        <ele>976.76</ele>
        <time>2026-08-26T14:39:20.440Z</time>
      </trkpt>
      <trkpt lat="48.01745" lon="6.87263">
        <ele>976.63</ele>
        <time>2026-08-26T14:39:26.446Z</time>
      </trkpt>
      <trkpt lat="48.01744" lon="6.87256">
        <ele>976.56</ele>
        <time>2026-08-26T14:39:31.425Z</time>
      </trkpt>
      <trkpt lat="48.01743" lon="6.87243">
        <ele>976.25</ele>
        <time>2026-08-26T14:39:43.419Z</time>
      </trkpt>
      <trkpt lat="48.01743" lon="6.87236">
        <ele>975.99</ele>
        <time>2026-08-26T14:39:47.437Z</time>
      </trkpt>
      <trkpt lat="48.01742" lon="6.87228">
        <ele>974.62</ele>
        <time>2026-08-26T14:39:51.423Z</time>
      </trkpt>
      <trkpt lat="48.01743" lon="6.87221">
        <ele>975.61</ele>
        <time>2026-08-26T14:39:56.436Z</time>
      </trkpt>
      <trkpt lat="48.01743" lon="6.87214">
        <ele>975.48</ele>
        <time>2026-08-26T14:40:02.421Z</time>
      </trkpt>
      <trkpt lat="48.01742" lon="6.87206">
        <ele>975.49</ele>
        <time>2026-08-26T14:40:07.445Z</time>
      </trkpt>
      <trkpt lat="48.01742" lon="6.87199">
        <ele>974.5</ele>
        <time>2026-08-26T14:40:10.433Z</time>
      </trkpt>
      <trkpt lat="48.01741" lon="6.87191">
        <ele>974.53</ele>
        <time>2026-08-26T14:40:21.420Z</time>
      </trkpt>
      <trkpt lat="48.01737" lon="6.87187">
        <ele>973.58</ele>
        <time>2026-08-26T14:40:24.438Z</time>
      </trkpt>
      <trkpt lat="48.01734" lon="6.8718">
        <ele>973.78</ele>
        <time>2026-08-26T14:40:29.433Z</time>
      </trkpt>
      <trkpt lat="48.01731" lon="6.87173">
        <ele>973.08</ele>
        <time>2026-08-26T14:40:34.433Z</time>
      </trkpt>
      <trkpt lat="48.01728" lon="6.87166">
        <ele>972.14</ele>
        <time>2026-08-26T14:40:38.429Z</time>
      </trkpt>
      <trkpt lat="48.01726" lon="6.8716">
        <ele>972.42</ele>
        <time>2026-08-26T14:40:42.431Z</time>
      </trkpt>
      <trkpt lat="48.01722" lon="6.87154">
        <ele>971.43</ele>
        <time>2026-08-26T14:40:47.434Z</time>
      </trkpt>
      <trkpt lat="48.01719" lon="6.87148">
        <ele>970.43</ele>
        <time>2026-08-26T14:40:51.423Z</time>
      </trkpt>
      <trkpt lat="48.01715" lon="6.87142">
        <ele>969.65</ele>
        <time>2026-08-26T14:40:56.427Z</time>
      </trkpt>
      <trkpt lat="48.01711" lon="6.87138">
        <ele>968.84</ele>
        <time>2026-08-26T14:41:01.431Z</time>
      </trkpt>
      <trkpt lat="48.01707" lon="6.87133">
        <ele>968.18</ele>
        <time>2026-08-26T14:41:07.436Z</time>
      </trkpt>
      <trkpt lat="48.01704" lon="6.87128">
        <ele>968.41</ele>
        <time>2026-08-26T14:41:12.433Z</time>
      </trkpt>
      <trkpt lat="48.017" lon="6.87124">
        <ele>967.82</ele>
        <time>2026-08-26T14:41:15.425Z</time>
      </trkpt>
      <trkpt lat="48.01697" lon="6.8712">
        <ele>967.27</ele>
        <time>2026-08-26T14:41:19.437Z</time>
      </trkpt>
      <trkpt lat="48.01693" lon="6.87115">
        <ele>966.75</ele>
        <time>2026-08-26T14:41:23.429Z</time>
      </trkpt>
      <trkpt lat="48.01689" lon="6.8711">
        <ele>966.34</ele>
        <time>2026-08-26T14:41:28.441Z</time>
      </trkpt>
      <trkpt lat="48.01684" lon="6.87104">
        <ele>966.35</ele>
        <time>2026-08-26T14:41:33.443Z</time>
      </trkpt>
      <trkpt lat="48.01681" lon="6.87099">
        <ele>966.16</ele>
        <time>2026-08-26T14:41:37.428Z</time>
      </trkpt>
      <trkpt lat="48.01677" lon="6.87094">
        <ele>966</ele>
        <time>2026-08-26T14:41:42.431Z</time>
      </trkpt>
      <trkpt lat="48.01673" lon="6.87089">
        <ele>965.89</ele>
        <time>2026-08-26T14:41:47.449Z</time>
      </trkpt>
      <trkpt lat="48.0167" lon="6.87084">
        <ele>966.25</ele>
        <time>2026-08-26T14:41:51.435Z</time>
      </trkpt>
      <trkpt lat="48.01668" lon="6.87077">
        <ele>966.57</ele>
        <time>2026-08-26T14:41:55.441Z</time>
      </trkpt>
      <trkpt lat="48.01665" lon="6.8707">
        <ele>966.82</ele>
        <time>2026-08-26T14:42:00.434Z</time>
      </trkpt>
      <trkpt lat="48.01662" lon="6.87064">
        <ele>966.83</ele>
        <time>2026-08-26T14:42:05.437Z</time>
      </trkpt>
      <trkpt lat="48.01657" lon="6.8706">
        <ele>966.87</ele>
        <time>2026-08-26T14:42:11.434Z</time>
      </trkpt>
      <trkpt lat="48.01651" lon="6.87058">
        <ele>966.68</ele>
        <time>2026-08-26T14:42:15.430Z</time>
      </trkpt>
      <trkpt lat="48.01647" lon="6.87056">
        <ele>966.83</ele>
        <time>2026-08-26T14:42:19.429Z</time>
      </trkpt>
      <trkpt lat="48.01642" lon="6.87054">
        <ele>966.86</ele>
        <time>2026-08-26T14:42:23.441Z</time>
      </trkpt>
      <trkpt lat="48.01637" lon="6.87052">
        <ele>967.13</ele>
        <time>2026-08-26T14:42:28.436Z</time>
      </trkpt>
      <trkpt lat="48.01633" lon="6.87051">
        <ele>967.17</ele>
        <time>2026-08-26T14:42:38.429Z</time>
      </trkpt>
      <trkpt lat="48.01629" lon="6.87045">
        <ele>967.49</ele>
        <time>2026-08-26T14:42:43.433Z</time>
      </trkpt>
      <trkpt lat="48.01624" lon="6.87041">
        <ele>967.83</ele>
        <time>2026-08-26T14:42:54.428Z</time>
      </trkpt>
      <trkpt lat="48.01622" lon="6.87036">
        <ele>968.41</ele>
        <time>2026-08-26T14:43:08.438Z</time>
      </trkpt>
      <trkpt lat="48.0162" lon="6.87028">
        <ele>968.66</ele>
        <time>2026-08-26T14:43:15.435Z</time>
      </trkpt>
      <trkpt lat="48.01617" lon="6.87023">
        <ele>969.53</ele>
        <time>2026-08-26T14:43:25.438Z</time>
      </trkpt>
      <trkpt lat="48.01613" lon="6.87019">
        <ele>969.88</ele>
        <time>2026-08-26T14:44:11.441Z</time>
      </trkpt>
      <trkpt lat="48.01613" lon="6.87012">
        <ele>970.66</ele>
        <time>2026-08-26T14:44:31.434Z</time>
      </trkpt>
      <trkpt lat="48.01609" lon="6.87007">
        <ele>971.58</ele>
        <time>2026-08-26T14:44:41.430Z</time>
      </trkpt>
      <trkpt lat="48.01606" lon="6.87001">
        <ele>972.31</ele>
        <time>2026-08-26T14:44:48.426Z</time>
      </trkpt>
      <trkpt lat="48.01603" lon="6.86996">
        <ele>973.32</ele>
        <time>2026-08-26T14:44:55.426Z</time>
      </trkpt>
      <trkpt lat="48.01599" lon="6.86992">
        <ele>974.26</ele>
        <time>2026-08-26T14:45:01.441Z</time>
      </trkpt>
      <trkpt lat="48.01595" lon="6.86991">
        <ele>974.76</ele>
        <time>2026-08-26T14:45:10.437Z</time>
      </trkpt>
      <trkpt lat="48.0159" lon="6.86991">
        <ele>975.26</ele>
        <time>2026-08-26T14:45:23.449Z</time>
      </trkpt>
      <trkpt lat="48.01586" lon="6.86986">
        <ele>976.32</ele>
        <time>2026-08-26T14:45:45.430Z</time>
      </trkpt>
      <trkpt lat="48.01582" lon="6.86987">
        <ele>976.75</ele>
        <time>2026-08-26T14:45:53.465Z</time>
      </trkpt>
      <trkpt lat="48.01577" lon="6.8699">
        <ele>976.3</ele>
        <time>2026-08-26T14:46:04.429Z</time>
      </trkpt>
      <trkpt lat="48.01573" lon="6.86994">
        <ele>975.8</ele>
        <time>2026-08-26T14:46:10.440Z</time>
      </trkpt>
      <trkpt lat="48.01568" lon="6.86994">
        <ele>975.9</ele>
        <time>2026-08-26T14:46:18.443Z</time>
      </trkpt>
      <trkpt lat="48.01564" lon="6.86995">
        <ele>975.99</ele>
        <time>2026-08-26T14:46:28.439Z</time>
      </trkpt>
      <trkpt lat="48.01559" lon="6.86994">
        <ele>976.05</ele>
        <time>2026-08-26T14:46:44.441Z</time>
      </trkpt>
      <trkpt lat="48.01555" lon="6.86989">
        <ele>976.95</ele>
        <time>2026-08-26T14:49:38.484Z</time>
      </trkpt>
      <trkpt lat="48.01552" lon="6.86983">
        <ele>977.06</ele>
        <time>2026-08-26T14:49:42.453Z</time>
      </trkpt>
      <trkpt lat="48.01551" lon="6.86976">
        <ele>978.12</ele>
        <time>2026-08-26T14:50:45.450Z</time>
      </trkpt>
      <trkpt lat="48.01554" lon="6.86967">
        <ele>978.78</ele>
        <time>2026-08-26T14:50:48.421Z</time>
      </trkpt>
      <trkpt lat="48.01549" lon="6.86968">
        <ele>978.02</ele>
        <time>2026-08-26T14:50:56.440Z</time>
      </trkpt>
      <trkpt lat="48.01552" lon="6.86961">
        <ele>977.82</ele>
        <time>2026-08-26T14:51:03.439Z</time>
      </trkpt>
      <trkpt lat="48.01555" lon="6.86955">
        <ele>977.89</ele>
        <time>2026-08-26T14:51:08.437Z</time>
      </trkpt>
      <trkpt lat="48.01558" lon="6.8695">
        <ele>977.55</ele>
        <time>2026-08-26T14:51:13.437Z</time>
      </trkpt>
      <trkpt lat="48.01564" lon="6.86945">
        <ele>977.44</ele>
        <time>2026-08-26T14:51:41.450Z</time>
      </trkpt>
      <trkpt lat="48.01562" lon="6.86938">
        <ele>976.72</ele>
        <time>2026-08-26T14:51:51.436Z</time>
      </trkpt>
      <trkpt lat="48.01563" lon="6.86931">
        <ele>975.99</ele>
        <time>2026-08-26T14:52:01.432Z</time>
      </trkpt>
      <trkpt lat="48.01565" lon="6.86923">
        <ele>974.7</ele>
        <time>2026-08-26T14:52:06.428Z</time>
      </trkpt>
      <trkpt lat="48.01567" lon="6.86917">
        <ele>974.35</ele>
        <time>2026-08-26T14:52:11.427Z</time>
      </trkpt>
      <trkpt lat="48.01568" lon="6.8691">
        <ele>973.07</ele>
        <time>2026-08-26T14:52:19.434Z</time>
      </trkpt>
      <trkpt lat="48.01565" lon="6.86905">
        <ele>972.12</ele>
        <time>2026-08-26T14:52:27.439Z</time>
      </trkpt>
      <trkpt lat="48.0156" lon="6.86893">
        <ele>970.63</ele>
        <time>2026-08-26T14:52:42.438Z</time>
      </trkpt>
      <trkpt lat="48.01561" lon="6.86886">
        <ele>970.37</ele>
        <time>2026-08-26T14:52:57.446Z</time>
      </trkpt>
      <trkpt lat="48.01561" lon="6.86879">
        <ele>969.85</ele>
        <time>2026-08-26T14:53:03.434Z</time>
      </trkpt>
      <trkpt lat="48.01559" lon="6.86873">
        <ele>969.33</ele>
        <time>2026-08-26T14:53:10.444Z</time>
      </trkpt>
      <trkpt lat="48.01555" lon="6.86868">
        <ele>968.61</ele>
        <time>2026-08-26T14:53:15.449Z</time>
      </trkpt>
      <trkpt lat="48.01551" lon="6.86864">
        <ele>967.93</ele>
        <time>2026-08-26T14:53:21.433Z</time>
      </trkpt>
      <trkpt lat="48.01547" lon="6.86856">
        <ele>967.31</ele>
        <time>2026-08-26T14:53:27.427Z</time>
      </trkpt>
      <trkpt lat="48.01544" lon="6.86851">
        <ele>966.54</ele>
        <time>2026-08-26T14:53:30.430Z</time>
      </trkpt>
      <trkpt lat="48.01539" lon="6.86848">
        <ele>965.68</ele>
        <time>2026-08-26T14:53:54.435Z</time>
      </trkpt>
      <trkpt lat="48.01535" lon="6.86846">
        <ele>964.42</ele>
        <time>2026-08-26T14:54:04.425Z</time>
      </trkpt>
      <trkpt lat="48.01531" lon="6.86841">
        <ele>963.25</ele>
        <time>2026-08-26T14:54:09.452Z</time>
      </trkpt>
      <trkpt lat="48.01527" lon="6.86837">
        <ele>962.16</ele>
        <time>2026-08-26T14:54:12.424Z</time>
      </trkpt>
      <trkpt lat="48.01524" lon="6.86833">
        <ele>962.16</ele>
        <time>2026-08-26T14:54:16.446Z</time>
      </trkpt>
      <trkpt lat="48.0152" lon="6.86827">
        <ele>961.19</ele>
        <time>2026-08-26T14:54:23.437Z</time>
      </trkpt>
      <trkpt lat="48.01517" lon="6.86822">
        <ele>960.25</ele>
        <time>2026-08-26T14:54:30.452Z</time>
      </trkpt>
      <trkpt lat="48.01513" lon="6.86818">
        <ele>959.33</ele>
        <time>2026-08-26T14:54:39.441Z</time>
      </trkpt>
      <trkpt lat="48.01509" lon="6.86813">
        <ele>958.6</ele>
        <time>2026-08-26T14:54:45.436Z</time>
      </trkpt>
      <trkpt lat="48.01506" lon="6.86807">
        <ele>957.84</ele>
        <time>2026-08-26T14:54:50.435Z</time>
      </trkpt>
      <trkpt lat="48.015" lon="6.86796">
        <ele>957.5</ele>
        <time>2026-08-26T14:54:59.448Z</time>
      </trkpt>
      <trkpt lat="48.01498" lon="6.8679">
        <ele>957.67</ele>
        <time>2026-08-26T14:55:04.438Z</time>
      </trkpt>
      <trkpt lat="48.01495" lon="6.86783">
        <ele>956.9</ele>
        <time>2026-08-26T14:55:09.439Z</time>
      </trkpt>
      <trkpt lat="48.01492" lon="6.86778">
        <ele>956.24</ele>
        <time>2026-08-26T14:55:14.436Z</time>
      </trkpt>
      <trkpt lat="48.01489" lon="6.86773">
        <ele>956.43</ele>
        <time>2026-08-26T14:55:21.443Z</time>
      </trkpt>
      <trkpt lat="48.01488" lon="6.86765">
        <ele>955.81</ele>
        <time>2026-08-26T14:55:31.436Z</time>
      </trkpt>
      <trkpt lat="48.01486" lon="6.86758">
        <ele>955.94</ele>
        <time>2026-08-26T14:55:36.439Z</time>
      </trkpt>
      <trkpt lat="48.01482" lon="6.86753">
        <ele>955.08</ele>
        <time>2026-08-26T14:55:39.444Z</time>
      </trkpt>
      <trkpt lat="48.01478" lon="6.86749">
        <ele>954.2</ele>
        <time>2026-08-26T14:55:44.446Z</time>
      </trkpt>
      <trkpt lat="48.01474" lon="6.86744">
        <ele>953.19</ele>
        <time>2026-08-26T14:55:49.415Z</time>
      </trkpt>
      <trkpt lat="48.01473" lon="6.86737">
        <ele>953.3</ele>
        <time>2026-08-26T14:56:03.430Z</time>
      </trkpt>
      <trkpt lat="48.01471" lon="6.86731">
        <ele>952.09</ele>
        <time>2026-08-26T14:56:10.473Z</time>
      </trkpt>
      <trkpt lat="48.01468" lon="6.86724">
        <ele>952.05</ele>
        <time>2026-08-26T14:56:14.428Z</time>
      </trkpt>
      <trkpt lat="48.01465" lon="6.86718">
        <ele>950.45</ele>
        <time>2026-08-26T14:56:18.446Z</time>
      </trkpt>
      <trkpt lat="48.01462" lon="6.8671">
        <ele>948.95</ele>
        <time>2026-08-26T14:56:23.470Z</time>
      </trkpt>
      <trkpt lat="48.0146" lon="6.86704">
        <ele>948.74</ele>
        <time>2026-08-26T14:56:27.436Z</time>
      </trkpt>
      <trkpt lat="48.01458" lon="6.86697">
        <ele>947.23</ele>
        <time>2026-08-26T14:56:31.440Z</time>
      </trkpt>
      <trkpt lat="48.01455" lon="6.86692">
        <ele>946.94</ele>
        <time>2026-08-26T14:56:36.447Z</time>
      </trkpt>
      <trkpt lat="48.01453" lon="6.86685">
        <ele>945.34</ele>
        <time>2026-08-26T14:56:41.428Z</time>
      </trkpt>
      <trkpt lat="48.01449" lon="6.86673">
        <ele>943.5</ele>
        <time>2026-08-26T14:56:52.422Z</time>
      </trkpt>
      <trkpt lat="48.01447" lon="6.86666">
        <ele>943.23</ele>
        <time>2026-08-26T14:56:56.433Z</time>
      </trkpt>
      <trkpt lat="48.01445" lon="6.8666">
        <ele>941.87</ele>
        <time>2026-08-26T14:57:00.422Z</time>
      </trkpt>
      <trkpt lat="48.01443" lon="6.86653">
        <ele>942.06</ele>
        <time>2026-08-26T14:57:05.430Z</time>
      </trkpt>
      <trkpt lat="48.01439" lon="6.86648">
        <ele>941.02</ele>
        <time>2026-08-26T14:57:09.445Z</time>
      </trkpt>
      <trkpt lat="48.01435" lon="6.86642">
        <ele>940.02</ele>
        <time>2026-08-26T14:57:13.441Z</time>
      </trkpt>
      <trkpt lat="48.01432" lon="6.86636">
        <ele>939.35</ele>
        <time>2026-08-26T14:57:18.434Z</time>
      </trkpt>
      <trkpt lat="48.01428" lon="6.86632">
        <ele>938.55</ele>
        <time>2026-08-26T14:57:26.434Z</time>
      </trkpt>
      <trkpt lat="48.01426" lon="6.86626">
        <ele>938.81</ele>
        <time>2026-08-26T14:57:32.457Z</time>
      </trkpt>
      <trkpt lat="48.01423" lon="6.8662">
        <ele>938.21</ele>
        <time>2026-08-26T14:57:35.417Z</time>
      </trkpt>
      <trkpt lat="48.0142" lon="6.86612">
        <ele>939.3</ele>
        <time>2026-08-26T14:57:39.521Z</time>
      </trkpt>
      <trkpt lat="48.01417" lon="6.86608">
        <ele>938.87</ele>
        <time>2026-08-26T14:57:43.427Z</time>
      </trkpt>
      <trkpt lat="48.01414" lon="6.86602">
        <ele>939.01</ele>
        <time>2026-08-26T14:58:01.430Z</time>
      </trkpt>
      <trkpt lat="48.0141" lon="6.86599">
        <ele>937.98</ele>
        <time>2026-08-26T14:58:10.420Z</time>
      </trkpt>
      <trkpt lat="48.01406" lon="6.86592">
        <ele>938.12</ele>
        <time>2026-08-26T14:58:15.448Z</time>
      </trkpt>
      <trkpt lat="48.01401" lon="6.86586">
        <ele>937.76</ele>
        <time>2026-08-26T14:58:18.439Z</time>
      </trkpt>
      <trkpt lat="48.01399" lon="6.86581">
        <ele>938.28</ele>
        <time>2026-08-26T14:58:21.458Z</time>
      </trkpt>
      <trkpt lat="48.01395" lon="6.86576">
        <ele>939.07</ele>
        <time>2026-08-26T14:58:25.434Z</time>
      </trkpt>
      <trkpt lat="48.0139" lon="6.86572">
        <ele>937.64</ele>
        <time>2026-08-26T14:58:32.459Z</time>
      </trkpt>
      <trkpt lat="48.01385" lon="6.86569">
        <ele>936.47</ele>
        <time>2026-08-26T14:58:38.437Z</time>
      </trkpt>
      <trkpt lat="48.01381" lon="6.86568">
        <ele>936.1</ele>
        <time>2026-08-26T14:58:44.449Z</time>
      </trkpt>
      <trkpt lat="48.01376" lon="6.86565">
        <ele>934.93</ele>
        <time>2026-08-26T14:58:49.451Z</time>
      </trkpt>
      <trkpt lat="48.0137" lon="6.86562">
        <ele>934.56</ele>
        <time>2026-08-26T14:58:59.447Z</time>
      </trkpt>
      <trkpt lat="48.01366" lon="6.8656">
        <ele>933.29</ele>
        <time>2026-08-26T14:59:06.436Z</time>
      </trkpt>
      <trkpt lat="48.01361" lon="6.86557">
        <ele>932.84</ele>
        <time>2026-08-26T14:59:12.439Z</time>
      </trkpt>
      <trkpt lat="48.01357" lon="6.86554">
        <ele>932.42</ele>
        <time>2026-08-26T14:59:16.428Z</time>
      </trkpt>
      <trkpt lat="48.01352" lon="6.86549">
        <ele>932.05</ele>
        <time>2026-08-26T14:59:23.434Z</time>
      </trkpt>
      <trkpt lat="48.01348" lon="6.86546">
        <ele>931.69</ele>
        <time>2026-08-26T14:59:29.435Z</time>
      </trkpt>
      <trkpt lat="48.01343" lon="6.86542">
        <ele>931.25</ele>
        <time>2026-08-26T14:59:37.440Z</time>
      </trkpt>
      <trkpt lat="48.01339" lon="6.8654">
        <ele>928.46</ele>
        <time>2026-08-26T14:59:45.434Z</time>
      </trkpt>
      <trkpt lat="48.01334" lon="6.86539">
        <ele>927.05</ele>
        <time>2026-08-26T14:59:51.434Z</time>
      </trkpt>
      <trkpt lat="48.01329" lon="6.86539">
        <ele>925.65</ele>
        <time>2026-08-26T14:59:58.442Z</time>
      </trkpt>
      <trkpt lat="48.01324" lon="6.86538">
        <ele>924.32</ele>
        <time>2026-08-26T15:00:04.441Z</time>
      </trkpt>
      <trkpt lat="48.0132" lon="6.86537">
        <ele>924</ele>
        <time>2026-08-26T15:00:11.464Z</time>
      </trkpt>
      <trkpt lat="48.01315" lon="6.86535">
        <ele>922.72</ele>
        <time>2026-08-26T15:00:16.436Z</time>
      </trkpt>
      <trkpt lat="48.01311" lon="6.86534">
        <ele>922.4</ele>
        <time>2026-08-26T15:00:23.445Z</time>
      </trkpt>
      <trkpt lat="48.01306" lon="6.86533">
        <ele>921.12</ele>
        <time>2026-08-26T15:00:30.426Z</time>
      </trkpt>
      <trkpt lat="48.01302" lon="6.86528">
        <ele>920.86</ele>
        <time>2026-08-26T15:00:37.429Z</time>
      </trkpt>
      <trkpt lat="48.01292" lon="6.86526">
        <ele>918.64</ele>
        <time>2026-08-26T15:00:57.447Z</time>
      </trkpt>
      <trkpt lat="48.01288" lon="6.86529">
        <ele>917.54</ele>
        <time>2026-08-26T15:01:06.456Z</time>
      </trkpt>
      <trkpt lat="48.01278" lon="6.8653">
        <ele>913.65</ele>
        <time>2026-08-26T15:01:28.454Z</time>
      </trkpt>
      <trkpt lat="48.01274" lon="6.86534">
        <ele>911.95</ele>
        <time>2026-08-26T15:01:35.472Z</time>
      </trkpt>
      <trkpt lat="48.01268" lon="6.8654">
        <ele>910.28</ele>
        <time>2026-08-26T15:01:54.440Z</time>
      </trkpt>
      <trkpt lat="48.01264" lon="6.86543">
        <ele>908.65</ele>
        <time>2026-08-26T15:02:00.445Z</time>
      </trkpt>
      <trkpt lat="48.01262" lon="6.8655">
        <ele>907.86</ele>
        <time>2026-08-26T15:02:08.444Z</time>
      </trkpt>
      <trkpt lat="48.01257" lon="6.86552">
        <ele>906.33</ele>
        <time>2026-08-26T15:02:16.437Z</time>
      </trkpt>
      <trkpt lat="48.01253" lon="6.86553">
        <ele>904.94</ele>
        <time>2026-08-26T15:02:25.442Z</time>
      </trkpt>
      <trkpt lat="48.01248" lon="6.86554">
        <ele>904.27</ele>
        <time>2026-08-26T15:02:32.476Z</time>
      </trkpt>
      <trkpt lat="48.01243" lon="6.86553">
        <ele>903.59</ele>
        <time>2026-08-26T15:02:39.444Z</time>
      </trkpt>
      <trkpt lat="48.01238" lon="6.86553">
        <ele>902.92</ele>
        <time>2026-08-26T15:02:44.435Z</time>
      </trkpt>
      <trkpt lat="48.01233" lon="6.86553">
        <ele>902.2</ele>
        <time>2026-08-26T15:02:52.446Z</time>
      </trkpt>
      <trkpt lat="48.01229" lon="6.86552">
        <ele>901.43</ele>
        <time>2026-08-26T15:03:05.452Z</time>
      </trkpt>
      <trkpt lat="48.01225" lon="6.86548">
        <ele>901.42</ele>
        <time>2026-08-26T15:04:06.434Z</time>
      </trkpt>
      <trkpt lat="48.0122" lon="6.86545">
        <ele>901.46</ele>
        <time>2026-08-26T15:04:11.458Z</time>
      </trkpt>
      <trkpt lat="48.01217" lon="6.8655">
        <ele>899.9</ele>
        <time>2026-08-26T15:04:26.436Z</time>
      </trkpt>
      <trkpt lat="48.01212" lon="6.86552">
        <ele>898.3</ele>
        <time>2026-08-26T15:04:34.452Z</time>
      </trkpt>
      <trkpt lat="48.01207" lon="6.86557">
        <ele>896.64</ele>
        <time>2026-08-26T15:04:41.440Z</time>
      </trkpt>
      <trkpt lat="48.01204" lon="6.86562">
        <ele>894.85</ele>
        <time>2026-08-26T15:04:48.431Z</time>
      </trkpt>
      <trkpt lat="48.01199" lon="6.86565">
        <ele>892.95</ele>
        <time>2026-08-26T15:05:04.434Z</time>
      </trkpt>
      <trkpt lat="48.01194" lon="6.86564">
        <ele>893.06</ele>
        <time>2026-08-26T15:05:10.428Z</time>
      </trkpt>
      <trkpt lat="48.01189" lon="6.86564">
        <ele>891.04</ele>
        <time>2026-08-26T15:05:14.431Z</time>
      </trkpt>
      <trkpt lat="48.01185" lon="6.86566">
        <ele>890.22</ele>
        <time>2026-08-26T15:05:18.444Z</time>
      </trkpt>
      <trkpt lat="48.01182" lon="6.86572">
        <ele>888.2</ele>
        <time>2026-08-26T15:05:25.423Z</time>
      </trkpt>
      <trkpt lat="48.01176" lon="6.86573">
        <ele>886.17</ele>
        <time>2026-08-26T15:05:30.428Z</time>
      </trkpt>
      <trkpt lat="48.01172" lon="6.86573">
        <ele>885.28</ele>
        <time>2026-08-26T15:05:36.442Z</time>
      </trkpt>
      <trkpt lat="48.01167" lon="6.86572">
        <ele>885.03</ele>
        <time>2026-08-26T15:05:43.457Z</time>
      </trkpt>
      <trkpt lat="48.01155" lon="6.86574">
        <ele>882.74</ele>
        <time>2026-08-26T15:06:00.430Z</time>
      </trkpt>
      <trkpt lat="48.01151" lon="6.86577">
        <ele>880.93</ele>
        <time>2026-08-26T15:06:05.452Z</time>
      </trkpt>
      <trkpt lat="48.01146" lon="6.86576">
        <ele>881.76</ele>
        <time>2026-08-26T15:06:09.441Z</time>
      </trkpt>
      <trkpt lat="48.01141" lon="6.86574">
        <ele>881.09</ele>
        <time>2026-08-26T15:06:14.439Z</time>
      </trkpt>
      <trkpt lat="48.01137" lon="6.8657">
        <ele>882.51</ele>
        <time>2026-08-26T15:06:20.425Z</time>
      </trkpt>
      <trkpt lat="48.01132" lon="6.86568">
        <ele>883.55</ele>
        <time>2026-08-26T15:06:25.449Z</time>
      </trkpt>
      <trkpt lat="48.01128" lon="6.86571">
        <ele>881.79</ele>
        <time>2026-08-26T15:06:30.428Z</time>
      </trkpt>
      <trkpt lat="48.01123" lon="6.86573">
        <ele>881.6</ele>
        <time>2026-08-26T15:06:36.460Z</time>
      </trkpt>
      <trkpt lat="48.01118" lon="6.86573">
        <ele>880.17</ele>
        <time>2026-08-26T15:06:43.442Z</time>
      </trkpt>
      <trkpt lat="48.01114" lon="6.86578">
        <ele>878.82</ele>
        <time>2026-08-26T15:06:49.428Z</time>
      </trkpt>
      <trkpt lat="48.0111" lon="6.86582">
        <ele>877.5</ele>
        <time>2026-08-26T15:06:56.439Z</time>
      </trkpt>
      <trkpt lat="48.01105" lon="6.86588">
        <ele>876.21</ele>
        <time>2026-08-26T15:07:04.428Z</time>
      </trkpt>
      <trkpt lat="48.011" lon="6.8659">
        <ele>874.97</ele>
        <time>2026-08-26T15:07:08.435Z</time>
      </trkpt>
      <trkpt lat="48.01095" lon="6.86594">
        <ele>875.17</ele>
        <time>2026-08-26T15:07:13.445Z</time>
      </trkpt>
      <trkpt lat="48.01091" lon="6.86598">
        <ele>874.13</ele>
        <time>2026-08-26T15:07:18.455Z</time>
      </trkpt>
      <trkpt lat="48.01088" lon="6.86601">
        <ele>873.19</ele>
        <time>2026-08-26T15:07:24.432Z</time>
      </trkpt>
      <trkpt lat="48.01084" lon="6.86606">
        <ele>872.46</ele>
        <time>2026-08-26T15:07:31.441Z</time>
      </trkpt>
      <trkpt lat="48.0108" lon="6.86612">
        <ele>870.74</ele>
        <time>2026-08-26T15:07:38.431Z</time>
      </trkpt>
      <trkpt lat="48.01076" lon="6.86618">
        <ele>870.03</ele>
        <time>2026-08-26T15:07:42.450Z</time>
      </trkpt>
      <trkpt lat="48.01073" lon="6.86623">
        <ele>869.01</ele>
        <time>2026-08-26T15:07:46.434Z</time>
      </trkpt>
      <trkpt lat="48.01069" lon="6.86629">
        <ele>867.19</ele>
        <time>2026-08-26T15:07:51.430Z</time>
      </trkpt>
      <trkpt lat="48.01066" lon="6.86633">
        <ele>866.42</ele>
        <time>2026-08-26T15:07:57.428Z</time>
      </trkpt>
      <trkpt lat="48.01061" lon="6.86637">
        <ele>865.66</ele>
        <time>2026-08-26T15:08:03.452Z</time>
      </trkpt>
      <trkpt lat="48.01057" lon="6.8664">
        <ele>865.82</ele>
        <time>2026-08-26T15:08:10.427Z</time>
      </trkpt>
      <trkpt lat="48.01052" lon="6.86642">
        <ele>865.02</ele>
        <time>2026-08-26T15:08:16.440Z</time>
      </trkpt>
      <trkpt lat="48.01047" lon="6.86644">
        <ele>865.17</ele>
        <time>2026-08-26T15:08:25.427Z</time>
      </trkpt>
      <trkpt lat="48.01043" lon="6.86648">
        <ele>864.2</ele>
        <time>2026-08-26T15:09:22.454Z</time>
      </trkpt>
      <trkpt lat="48.01037" lon="6.86648">
        <ele>864.31</ele>
        <time>2026-08-26T15:09:27.439Z</time>
      </trkpt>
      <trkpt lat="48.01031" lon="6.86649">
        <ele>864.35</ele>
        <time>2026-08-26T15:09:31.440Z</time>
      </trkpt>
      <trkpt lat="48.01026" lon="6.86648">
        <ele>864.39</ele>
        <time>2026-08-26T15:09:35.447Z</time>
      </trkpt>
      <trkpt lat="48.01021" lon="6.86649">
        <ele>864.4</ele>
        <time>2026-08-26T15:09:39.433Z</time>
      </trkpt>
      <trkpt lat="48.01016" lon="6.86649">
        <ele>864.42</ele>
        <time>2026-08-26T15:09:43.435Z</time>
      </trkpt>
      <trkpt lat="48.01012" lon="6.86648">
        <ele>864.43</ele>
        <time>2026-08-26T15:09:47.426Z</time>
      </trkpt>
      <trkpt lat="48.01006" lon="6.86647">
        <ele>864.43</ele>
        <time>2026-08-26T15:09:53.442Z</time>
      </trkpt>
      <trkpt lat="48.01002" lon="6.86646">
        <ele>864.41</ele>
        <time>2026-08-26T15:09:57.448Z</time>
      </trkpt>
      <trkpt lat="48.00997" lon="6.86646">
        <ele>864.38</ele>
        <time>2026-08-26T15:10:01.445Z</time>
      </trkpt>
      <trkpt lat="48.00993" lon="6.86645">
        <ele>865.36</ele>
        <time>2026-08-26T15:10:05.477Z</time>
      </trkpt>
      <trkpt lat="48.00988" lon="6.86645">
        <ele>865.33</ele>
        <time>2026-08-26T15:10:09.436Z</time>
      </trkpt>
      <trkpt lat="48.00983" lon="6.86645">
        <ele>865.28</ele>
        <time>2026-08-26T15:10:13.447Z</time>
      </trkpt>
      <trkpt lat="48.00977" lon="6.86644">
        <ele>864.97</ele>
        <time>2026-08-26T15:10:17.440Z</time>
      </trkpt>
      <trkpt lat="48.00973" lon="6.86643">
        <ele>864.81</ele>
        <time>2026-08-26T15:10:21.463Z</time>
      </trkpt>
      <trkpt lat="48.00968" lon="6.86643">
        <ele>864.64</ele>
        <time>2026-08-26T15:10:26.453Z</time>
      </trkpt>
      <trkpt lat="48.00963" lon="6.86642">
        <ele>864.45</ele>
        <time>2026-08-26T15:10:31.431Z</time>
      </trkpt>
      <trkpt lat="48.00959" lon="6.86642">
        <ele>864.16</ele>
        <time>2026-08-26T15:10:36.441Z</time>
      </trkpt>
      <trkpt lat="48.00954" lon="6.86642">
        <ele>863.81</ele>
        <time>2026-08-26T15:10:41.441Z</time>
      </trkpt>
      <trkpt lat="48.00949" lon="6.86641">
        <ele>863.46</ele>
        <time>2026-08-26T15:10:49.443Z</time>
      </trkpt>
      <trkpt lat="48.00946" lon="6.86635">
        <ele>865.36</ele>
        <time>2026-08-26T15:11:23.440Z</time>
      </trkpt>
      <trkpt lat="48.00942" lon="6.8663">
        <ele>866.18</ele>
        <time>2026-08-26T15:11:27.434Z</time>
      </trkpt>
      <trkpt lat="48.00937" lon="6.86626">
        <ele>866.93</ele>
        <time>2026-08-26T15:11:33.427Z</time>
      </trkpt>
      <trkpt lat="48.00932" lon="6.86623">
        <ele>867.6</ele>
        <time>2026-08-26T15:11:38.432Z</time>
      </trkpt>
      <trkpt lat="48.00927" lon="6.86621">
        <ele>867.14</ele>
        <time>2026-08-26T15:11:41.475Z</time>
      </trkpt>
      <trkpt lat="48.00923" lon="6.86618">
        <ele>867.76</ele>
        <time>2026-08-26T15:11:44.431Z</time>
      </trkpt>
      <trkpt lat="48.00918" lon="6.86617">
        <ele>867.29</ele>
        <time>2026-08-26T15:11:48.466Z</time>
      </trkpt>
      <trkpt lat="48.00914" lon="6.86614">
        <ele>867.09</ele>
        <time>2026-08-26T15:11:54.429Z</time>
      </trkpt>
      <trkpt lat="48.00909" lon="6.86612">
        <ele>866.4</ele>
        <time>2026-08-26T15:12:02.450Z</time>
      </trkpt>
      <trkpt lat="48.00905" lon="6.86609">
        <ele>866.77</ele>
        <time>2026-08-26T15:12:07.438Z</time>
      </trkpt>
      <trkpt lat="48.00899" lon="6.86605">
        <ele>867.14</ele>
        <time>2026-08-26T15:12:12.440Z</time>
      </trkpt>
      <trkpt lat="48.00894" lon="6.86604">
        <ele>866.43</ele>
        <time>2026-08-26T15:12:15.431Z</time>
      </trkpt>
      <trkpt lat="48.00889" lon="6.86602">
        <ele>866.73</ele>
        <time>2026-08-26T15:12:18.447Z</time>
      </trkpt>
      <trkpt lat="48.00884" lon="6.86599">
        <ele>865.97</ele>
        <time>2026-08-26T15:12:23.439Z</time>
      </trkpt>
      <trkpt lat="48.00879" lon="6.86598">
        <ele>865.51</ele>
        <time>2026-08-26T15:12:28.432Z</time>
      </trkpt>
      <trkpt lat="48.00874" lon="6.86595">
        <ele>864.78</ele>
        <time>2026-08-26T15:12:32.428Z</time>
      </trkpt>
      <trkpt lat="48.00869" lon="6.86592">
        <ele>865.18</ele>
        <time>2026-08-26T15:12:36.433Z</time>
      </trkpt>
      <trkpt lat="48.00864" lon="6.86589">
        <ele>865.6</ele>
        <time>2026-08-26T15:12:40.432Z</time>
      </trkpt>
      <trkpt lat="48.00859" lon="6.86585">
        <ele>866</ele>
        <time>2026-08-26T15:12:44.449Z</time>
      </trkpt>
      <trkpt lat="48.00855" lon="6.86582">
        <ele>865.37</ele>
        <time>2026-08-26T15:12:49.447Z</time>
      </trkpt>
      <trkpt lat="48.0085" lon="6.86579">
        <ele>865.79</ele>
        <time>2026-08-26T15:12:54.431Z</time>
      </trkpt>
      <trkpt lat="48.00845" lon="6.86576">
        <ele>865.8</ele>
        <time>2026-08-26T15:12:58.429Z</time>
      </trkpt>
      <trkpt lat="48.00839" lon="6.86574">
        <ele>865.32</ele>
        <time>2026-08-26T15:13:02.449Z</time>
      </trkpt>
      <trkpt lat="48.00835" lon="6.8657">
        <ele>865.81</ele>
        <time>2026-08-26T15:13:08.450Z</time>
      </trkpt>
      <trkpt lat="48.00831" lon="6.86567">
        <ele>866.29</ele>
        <time>2026-08-26T15:13:12.422Z</time>
      </trkpt>
      <trkpt lat="48.00827" lon="6.86562">
        <ele>866.72</ele>
        <time>2026-08-26T15:13:16.455Z</time>
      </trkpt>
      <trkpt lat="48.00823" lon="6.86558">
        <ele>867.09</ele>
        <time>2026-08-26T15:13:23.462Z</time>
      </trkpt>
      <trkpt lat="48.00818" lon="6.86554">
        <ele>867.41</ele>
        <time>2026-08-26T15:13:29.424Z</time>
      </trkpt>
      <trkpt lat="48.00815" lon="6.86549">
        <ele>867.68</ele>
        <time>2026-08-26T15:13:34.456Z</time>
      </trkpt>
      <trkpt lat="48.00811" lon="6.86543">
        <ele>868.53</ele>
        <time>2026-08-26T15:13:38.434Z</time>
      </trkpt>
      <trkpt lat="48.00804" lon="6.86532">
        <ele>869.48</ele>
        <time>2026-08-26T15:13:46.433Z</time>
      </trkpt>
      <trkpt lat="48.008" lon="6.86527">
        <ele>869.33</ele>
        <time>2026-08-26T15:13:51.445Z</time>
      </trkpt>
      <trkpt lat="48.00797" lon="6.86522">
        <ele>869.14</ele>
        <time>2026-08-26T15:13:56.434Z</time>
      </trkpt>
      <trkpt lat="48.00794" lon="6.86516">
        <ele>870.62</ele>
        <time>2026-08-26T15:14:02.440Z</time>
      </trkpt>
      <trkpt lat="48.00791" lon="6.86511">
        <ele>870.35</ele>
        <time>2026-08-26T15:14:08.427Z</time>
      </trkpt>
      <trkpt lat="48.00788" lon="6.86504">
        <ele>870.13</ele>
        <time>2026-08-26T15:14:14.437Z</time>
      </trkpt>
      <trkpt lat="48.00785" lon="6.86498">
        <ele>870.75</ele>
        <time>2026-08-26T15:14:18.427Z</time>
      </trkpt>
      <trkpt lat="48.00782" lon="6.86492">
        <ele>871.57</ele>
        <time>2026-08-26T15:14:23.433Z</time>
      </trkpt>
      <trkpt lat="48.00779" lon="6.86485">
        <ele>872.17</ele>
        <time>2026-08-26T15:14:28.441Z</time>
      </trkpt>
      <trkpt lat="48.00775" lon="6.86481">
        <ele>871.93</ele>
        <time>2026-08-26T15:14:31.424Z</time>
      </trkpt>
      <trkpt lat="48.00771" lon="6.86474">
        <ele>872.41</ele>
        <time>2026-08-26T15:14:35.436Z</time>
      </trkpt>
      <trkpt lat="48.00768" lon="6.86468">
        <ele>872.11</ele>
        <time>2026-08-26T15:14:39.462Z</time>
      </trkpt>
      <trkpt lat="48.00763" lon="6.86462">
        <ele>871.88</ele>
        <time>2026-08-26T15:14:44.431Z</time>
      </trkpt>
      <trkpt lat="48.0076" lon="6.86456">
        <ele>873.32</ele>
        <time>2026-08-26T15:14:48.441Z</time>
      </trkpt>
      <trkpt lat="48.00756" lon="6.86451">
        <ele>873.1</ele>
        <time>2026-08-26T15:14:52.441Z</time>
      </trkpt>
      <trkpt lat="48.00753" lon="6.86446">
        <ele>872.87</ele>
        <time>2026-08-26T15:14:56.441Z</time>
      </trkpt>
      <trkpt lat="48.0075" lon="6.8644">
        <ele>872.62</ele>
        <time>2026-08-26T15:15:00.422Z</time>
      </trkpt>
      <trkpt lat="48.00747" lon="6.86433">
        <ele>873.79</ele>
        <time>2026-08-26T15:15:04.421Z</time>
      </trkpt>
      <trkpt lat="48.00743" lon="6.86429">
        <ele>873.43</ele>
        <time>2026-08-26T15:15:10.430Z</time>
      </trkpt>
      <trkpt lat="48.0074" lon="6.86422">
        <ele>873.63</ele>
        <time>2026-08-26T15:15:15.439Z</time>
      </trkpt>
      <trkpt lat="48.00738" lon="6.86415">
        <ele>874.18</ele>
        <time>2026-08-26T15:15:20.439Z</time>
      </trkpt>
      <trkpt lat="48.00736" lon="6.86409">
        <ele>874.33</ele>
        <time>2026-08-26T15:15:23.429Z</time>
      </trkpt>
      <trkpt lat="48.00733" lon="6.86402">
        <ele>873.82</ele>
        <time>2026-08-26T15:15:27.435Z</time>
      </trkpt>
      <trkpt lat="48.0073" lon="6.86395">
        <ele>874.51</ele>
        <time>2026-08-26T15:15:31.435Z</time>
      </trkpt>
      <trkpt lat="48.00728" lon="6.86389">
        <ele>873.9</ele>
        <time>2026-08-26T15:15:35.425Z</time>
      </trkpt>
      <trkpt lat="48.00725" lon="6.86383">
        <ele>873.6</ele>
        <time>2026-08-26T15:15:42.418Z</time>
      </trkpt>
      <trkpt lat="48.00721" lon="6.86377">
        <ele>873.93</ele>
        <time>2026-08-26T15:15:51.441Z</time>
      </trkpt>
      <trkpt lat="48.00719" lon="6.86371">
        <ele>873.54</ele>
        <time>2026-08-26T15:15:54.433Z</time>
      </trkpt>
      <trkpt lat="48.00716" lon="6.86365">
        <ele>872.8</ele>
        <time>2026-08-26T15:15:57.425Z</time>
      </trkpt>
      <trkpt lat="48.00713" lon="6.86359">
        <ele>873.05</ele>
        <time>2026-08-26T15:16:00.435Z</time>
      </trkpt>
      <trkpt lat="48.0071" lon="6.86353">
        <ele>872.55</ele>
        <time>2026-08-26T15:16:04.447Z</time>
      </trkpt>
      <trkpt lat="48.00708" lon="6.86346">
        <ele>871.81</ele>
        <time>2026-08-26T15:16:08.449Z</time>
      </trkpt>
      <trkpt lat="48.00706" lon="6.86339">
        <ele>872.31</ele>
        <time>2026-08-26T15:16:12.447Z</time>
      </trkpt>
      <trkpt lat="48.00705" lon="6.86332">
        <ele>872.77</ele>
        <time>2026-08-26T15:16:17.452Z</time>
      </trkpt>
      <trkpt lat="48.00703" lon="6.86325">
        <ele>871.99</ele>
        <time>2026-08-26T15:16:21.436Z</time>
      </trkpt>
      <trkpt lat="48.00703" lon="6.86318">
        <ele>872.43</ele>
        <time>2026-08-26T15:16:28.433Z</time>
      </trkpt>
      <trkpt lat="48.00704" lon="6.86311">
        <ele>873.89</ele>
        <time>2026-08-26T15:16:33.425Z</time>
      </trkpt>
      <trkpt lat="48.00706" lon="6.86304">
        <ele>874.11</ele>
        <time>2026-08-26T15:16:37.434Z</time>
      </trkpt>
      <trkpt lat="48.00706" lon="6.86297">
        <ele>874.56</ele>
        <time>2026-08-26T15:16:43.446Z</time>
      </trkpt>
      <trkpt lat="48.00708" lon="6.86289">
        <ele>875.01</ele>
        <time>2026-08-26T15:16:47.438Z</time>
      </trkpt>
      <trkpt lat="48.00709" lon="6.86282">
        <ele>876.24</ele>
        <time>2026-08-26T15:16:52.473Z</time>
      </trkpt>
      <trkpt lat="48.0071" lon="6.86275">
        <ele>876.69</ele>
        <time>2026-08-26T15:16:59.431Z</time>
      </trkpt>
      <trkpt lat="48.00712" lon="6.86268">
        <ele>877.21</ele>
        <time>2026-08-26T15:17:03.434Z</time>
      </trkpt>
      <trkpt lat="48.00712" lon="6.8626">
        <ele>877.5</ele>
        <time>2026-08-26T15:17:12.426Z</time>
      </trkpt>
      <trkpt lat="48.00714" lon="6.86252">
        <ele>879.12</ele>
        <time>2026-08-26T15:18:34.432Z</time>
      </trkpt>
      <trkpt lat="48.00715" lon="6.86244">
        <ele>879.72</ele>
        <time>2026-08-26T15:18:39.443Z</time>
      </trkpt>
      <trkpt lat="48.00716" lon="6.86238">
        <ele>880.31</ele>
        <time>2026-08-26T15:18:43.452Z</time>
      </trkpt>
      <trkpt lat="48.00716" lon="6.8623">
        <ele>880.63</ele>
        <time>2026-08-26T15:18:48.433Z</time>
      </trkpt>
      <trkpt lat="48.00717" lon="6.86223">
        <ele>882.33</ele>
        <time>2026-08-26T15:18:54.434Z</time>
      </trkpt>
      <trkpt lat="48.00717" lon="6.86215">
        <ele>882.97</ele>
        <time>2026-08-26T15:18:59.443Z</time>
      </trkpt>
      <trkpt lat="48.00716" lon="6.86208">
        <ele>882.19</ele>
        <time>2026-08-26T15:19:06.452Z</time>
      </trkpt>
      <trkpt lat="48.00716" lon="6.86201">
        <ele>882.79</ele>
        <time>2026-08-26T15:19:12.438Z</time>
      </trkpt>
      <trkpt lat="48.00715" lon="6.86193">
        <ele>883.31</ele>
        <time>2026-08-26T15:19:17.448Z</time>
      </trkpt>
      <trkpt lat="48.00714" lon="6.86187">
        <ele>883.58</ele>
        <time>2026-08-26T15:19:21.433Z</time>
      </trkpt>
      <trkpt lat="48.00713" lon="6.86178">
        <ele>884.1</ele>
        <time>2026-08-26T15:19:26.430Z</time>
      </trkpt>
      <trkpt lat="48.00712" lon="6.86171">
        <ele>883.43</ele>
        <time>2026-08-26T15:19:31.455Z</time>
      </trkpt>
      <trkpt lat="48.00711" lon="6.86164">
        <ele>883.86</ele>
        <time>2026-08-26T15:19:36.449Z</time>
      </trkpt>
      <trkpt lat="48.00711" lon="6.86156">
        <ele>884.25</ele>
        <time>2026-08-26T15:19:41.453Z</time>
      </trkpt>
      <trkpt lat="48.0071" lon="6.86148">
        <ele>884.45</ele>
        <time>2026-08-26T15:19:45.442Z</time>
      </trkpt>
      <trkpt lat="48.00709" lon="6.86141">
        <ele>884.83</ele>
        <time>2026-08-26T15:19:49.433Z</time>
      </trkpt>
      <trkpt lat="48.00709" lon="6.86133">
        <ele>885.17</ele>
        <time>2026-08-26T15:19:53.442Z</time>
      </trkpt>
      <trkpt lat="48.00708" lon="6.86125">
        <ele>883.95</ele>
        <time>2026-08-26T15:19:57.438Z</time>
      </trkpt>
      <trkpt lat="48.00708" lon="6.86116">
        <ele>885.62</ele>
        <time>2026-08-26T15:20:01.443Z</time>
      </trkpt>
      <trkpt lat="48.00707" lon="6.86109">
        <ele>884.24</ele>
        <time>2026-08-26T15:20:05.435Z</time>
      </trkpt>
      <trkpt lat="48.00706" lon="6.86102">
        <ele>884.43</ele>
        <time>2026-08-26T15:20:10.437Z</time>
      </trkpt>
      <trkpt lat="48.00706" lon="6.86093">
        <ele>884.64</ele>
        <time>2026-08-26T15:20:16.435Z</time>
      </trkpt>
      <trkpt lat="48.00705" lon="6.86086">
        <ele>884.86</ele>
        <time>2026-08-26T15:20:20.460Z</time>
      </trkpt>
      <trkpt lat="48.00704" lon="6.86077">
        <ele>883.47</ele>
        <time>2026-08-26T15:20:25.467Z</time>
      </trkpt>
      <trkpt lat="48.00703" lon="6.8607">
        <ele>883.68</ele>
        <time>2026-08-26T15:20:29.456Z</time>
      </trkpt>
      <trkpt lat="48.00703" lon="6.86061">
        <ele>884.02</ele>
        <time>2026-08-26T15:20:34.457Z</time>
      </trkpt>
      <trkpt lat="48.00704" lon="6.86053">
        <ele>886</ele>
        <time>2026-08-26T15:20:39.457Z</time>
      </trkpt>
      <trkpt lat="48.00705" lon="6.86045">
        <ele>886.17</ele>
        <time>2026-08-26T15:20:44.441Z</time>
      </trkpt>
      <trkpt lat="48.00709" lon="6.86041">
        <ele>887.9</ele>
        <time>2026-08-26T15:20:49.433Z</time>
      </trkpt>
      <trkpt lat="48.00715" lon="6.8604">
        <ele>889.6</ele>
        <time>2026-08-26T15:20:53.456Z</time>
      </trkpt>
      <trkpt lat="48.0072" lon="6.86041">
        <ele>890.96</ele>
        <time>2026-08-26T15:20:57.423Z</time>
      </trkpt>
      <trkpt lat="48.00724" lon="6.86045">
        <ele>892.31</ele>
        <time>2026-08-26T15:21:01.455Z</time>
      </trkpt>
      <trkpt lat="48.00728" lon="6.86049">
        <ele>893.66</ele>
        <time>2026-08-26T15:21:09.432Z</time>
      </trkpt>
      <trkpt lat="48.0073" lon="6.86055">
        <ele>895.01</ele>
        <time>2026-08-26T15:21:16.437Z</time>
      </trkpt>
      <trkpt lat="48.00732" lon="6.86063">
        <ele>894.67</ele>
        <time>2026-08-26T15:21:23.432Z</time>
      </trkpt>
      <trkpt lat="48.00731" lon="6.8607">
        <ele>894.5</ele>
        <time>2026-08-26T15:21:28.454Z</time>
      </trkpt>
    </trkseg>
  </trk>
</gpx>